<?xml version="1.0" encoding="UTF-8" standalone="no" ?>
<gpx xmlns="http://www.topografix.com/GPX/1/1" xmlns:xsi="http://www.w3.org/2001/XMLSchema-instance" xsi:schemaLocation="http://www.topografix.com/GPX/1/1 http://www.topografix.com/GPX/1/1/gpx.xsd" version="1.1" creator="VisuGPX - https://www.visugpx.com">
  <metadata>
    <name>Bessines 9km</name>
    <desc><![CDATA[Vers port du noyer]]></desc>
  </metadata>
  <trk>
    <name><![CDATA[Bessines 9km_1]]></name>
    <trkseg>
      <trkpt lat="46.30025" lon="-0.51197">
        <ele>73</ele>
        <time>2011-12-20T13:31:32Z</time>
      </trkpt>
      <trkpt lat="46.30029" lon="-0.51195">
        <ele>75</ele>
        <time>2011-12-20T13:31:37Z</time>
      </trkpt>
      <trkpt lat="46.3003" lon="-0.51196">
        <ele>75</ele>
        <time>2011-12-20T13:31:42Z</time>
      </trkpt>
      <trkpt lat="46.3003" lon="-0.51192">
        <ele>74</ele>
        <time>2011-12-20T13:31:47Z</time>
      </trkpt>
      <trkpt lat="46.3003" lon="-0.51188">
        <ele>75</ele>
        <time>2011-12-20T13:31:52Z</time>
      </trkpt>
      <trkpt lat="46.3003" lon="-0.51183">
        <ele>75</ele>
        <time>2011-12-20T13:31:57Z</time>
      </trkpt>
      <trkpt lat="46.30033" lon="-0.51181">
        <ele>76</ele>
        <time>2011-12-20T13:32:02Z</time>
      </trkpt>
      <trkpt lat="46.30032" lon="-0.51181">
        <ele>75</ele>
        <time>2011-12-20T13:32:07Z</time>
      </trkpt>
      <trkpt lat="46.30032" lon="-0.51178">
        <ele>74</ele>
        <time>2011-12-20T13:32:12Z</time>
      </trkpt>
      <trkpt lat="46.30032" lon="-0.51177">
        <ele>74</ele>
        <time>2011-12-20T13:32:17Z</time>
      </trkpt>
      <trkpt lat="46.30032" lon="-0.5118">
        <ele>75</ele>
        <time>2011-12-20T13:32:22Z</time>
      </trkpt>
      <trkpt lat="46.3003" lon="-0.5118">
        <ele>73</ele>
        <time>2011-12-20T13:32:27Z</time>
      </trkpt>
      <trkpt lat="46.30028" lon="-0.5118">
        <ele>73</ele>
        <time>2011-12-20T13:32:32Z</time>
      </trkpt>
      <trkpt lat="46.30028" lon="-0.51181">
        <ele>73</ele>
        <time>2011-12-20T13:32:37Z</time>
      </trkpt>
      <trkpt lat="46.30028" lon="-0.51179">
        <ele>73</ele>
        <time>2011-12-20T13:33:17Z</time>
      </trkpt>
      <trkpt lat="46.30029" lon="-0.51178">
        <ele>72</ele>
        <time>2011-12-20T13:33:22Z</time>
      </trkpt>
      <trkpt lat="46.30029" lon="-0.51172">
        <ele>74</ele>
        <time>2011-12-20T13:33:27Z</time>
      </trkpt>
      <trkpt lat="46.30029" lon="-0.51166">
        <ele>74</ele>
        <time>2011-12-20T13:33:32Z</time>
      </trkpt>
      <trkpt lat="46.30025" lon="-0.51165">
        <ele>75</ele>
        <time>2011-12-20T13:33:37Z</time>
      </trkpt>
      <trkpt lat="46.3002" lon="-0.51165">
        <ele>73</ele>
        <time>2011-12-20T13:33:42Z</time>
      </trkpt>
      <trkpt lat="46.30017" lon="-0.51164">
        <ele>72</ele>
        <time>2011-12-20T13:33:47Z</time>
      </trkpt>
      <trkpt lat="46.30013" lon="-0.51161">
        <ele>72</ele>
        <time>2011-12-20T13:33:52Z</time>
      </trkpt>
      <trkpt lat="46.30008" lon="-0.51158">
        <ele>72</ele>
        <time>2011-12-20T13:33:57Z</time>
      </trkpt>
      <trkpt lat="46.30006" lon="-0.51153">
        <ele>71</ele>
        <time>2011-12-20T13:34:02Z</time>
      </trkpt>
      <trkpt lat="46.3" lon="-0.51151">
        <ele>72</ele>
        <time>2011-12-20T13:34:07Z</time>
      </trkpt>
      <trkpt lat="46.29996" lon="-0.5115">
        <ele>73</ele>
        <time>2011-12-20T13:34:12Z</time>
      </trkpt>
      <trkpt lat="46.29996" lon="-0.5115">
        <ele>73</ele>
        <time>2011-12-20T13:34:17Z</time>
      </trkpt>
      <trkpt lat="46.29994" lon="-0.51149">
        <ele>72</ele>
        <time>2011-12-20T13:34:37Z</time>
      </trkpt>
      <trkpt lat="46.29989" lon="-0.51153">
        <ele>74</ele>
        <time>2011-12-20T13:34:42Z</time>
      </trkpt>
      <trkpt lat="46.29985" lon="-0.51157">
        <ele>74</ele>
        <time>2011-12-20T13:34:47Z</time>
      </trkpt>
      <trkpt lat="46.29981" lon="-0.51159">
        <ele>73</ele>
        <time>2011-12-20T13:34:52Z</time>
      </trkpt>
      <trkpt lat="46.29978" lon="-0.51159">
        <ele>73</ele>
        <time>2011-12-20T13:34:57Z</time>
      </trkpt>
      <trkpt lat="46.29974" lon="-0.51163">
        <ele>73</ele>
        <time>2011-12-20T13:35:02Z</time>
      </trkpt>
      <trkpt lat="46.29969" lon="-0.51167">
        <ele>73</ele>
        <time>2011-12-20T13:35:07Z</time>
      </trkpt>
      <trkpt lat="46.29963" lon="-0.51169">
        <ele>73</ele>
        <time>2011-12-20T13:35:12Z</time>
      </trkpt>
      <trkpt lat="46.2996" lon="-0.51174">
        <ele>72</ele>
        <time>2011-12-20T13:35:17Z</time>
      </trkpt>
      <trkpt lat="46.29957" lon="-0.51179">
        <ele>72</ele>
        <time>2011-12-20T13:35:22Z</time>
      </trkpt>
      <trkpt lat="46.29955" lon="-0.51183">
        <ele>73</ele>
        <time>2011-12-20T13:35:27Z</time>
      </trkpt>
      <trkpt lat="46.29952" lon="-0.51182">
        <ele>73</ele>
        <time>2011-12-20T13:35:32Z</time>
      </trkpt>
      <trkpt lat="46.2995" lon="-0.51186">
        <ele>72</ele>
        <time>2011-12-20T13:35:37Z</time>
      </trkpt>
      <trkpt lat="46.29946" lon="-0.51193">
        <ele>72</ele>
        <time>2011-12-20T13:35:42Z</time>
      </trkpt>
      <trkpt lat="46.29938" lon="-0.51196">
        <ele>74</ele>
        <time>2011-12-20T13:35:47Z</time>
      </trkpt>
      <trkpt lat="46.29939" lon="-0.51197">
        <ele>74</ele>
        <time>2011-12-20T13:35:52Z</time>
      </trkpt>
      <trkpt lat="46.29936" lon="-0.51201">
        <ele>75</ele>
        <time>2011-12-20T13:35:57Z</time>
      </trkpt>
      <trkpt lat="46.29936" lon="-0.51199">
        <ele>74</ele>
        <time>2011-12-20T13:36:02Z</time>
      </trkpt>
      <trkpt lat="46.29936" lon="-0.512">
        <ele>75</ele>
        <time>2011-12-20T13:36:07Z</time>
      </trkpt>
      <trkpt lat="46.29935" lon="-0.51202">
        <ele>75</ele>
        <time>2011-12-20T13:36:12Z</time>
      </trkpt>
      <trkpt lat="46.29932" lon="-0.51207">
        <ele>74</ele>
        <time>2011-12-20T13:36:17Z</time>
      </trkpt>
      <trkpt lat="46.29927" lon="-0.5121">
        <ele>73</ele>
        <time>2011-12-20T13:36:22Z</time>
      </trkpt>
      <trkpt lat="46.29925" lon="-0.51214">
        <ele>72</ele>
        <time>2011-12-20T13:36:27Z</time>
      </trkpt>
      <trkpt lat="46.2992" lon="-0.51221">
        <ele>72</ele>
        <time>2011-12-20T13:36:32Z</time>
      </trkpt>
      <trkpt lat="46.29913" lon="-0.51223">
        <ele>71</ele>
        <time>2011-12-20T13:36:37Z</time>
      </trkpt>
      <trkpt lat="46.29908" lon="-0.51227">
        <ele>73</ele>
        <time>2011-12-20T13:36:42Z</time>
      </trkpt>
      <trkpt lat="46.29906" lon="-0.51227">
        <ele>75</ele>
        <time>2011-12-20T13:36:47Z</time>
      </trkpt>
      <trkpt lat="46.29902" lon="-0.5123">
        <ele>74</ele>
        <time>2011-12-20T13:36:52Z</time>
      </trkpt>
      <trkpt lat="46.29898" lon="-0.51232">
        <ele>74</ele>
        <time>2011-12-20T13:36:57Z</time>
      </trkpt>
      <trkpt lat="46.29896" lon="-0.51233">
        <ele>74</ele>
        <time>2011-12-20T13:37:02Z</time>
      </trkpt>
      <trkpt lat="46.29896" lon="-0.51234">
        <ele>75</ele>
        <time>2011-12-20T13:37:07Z</time>
      </trkpt>
      <trkpt lat="46.29896" lon="-0.51233">
        <ele>74</ele>
        <time>2011-12-20T13:37:12Z</time>
      </trkpt>
      <trkpt lat="46.29896" lon="-0.51234">
        <ele>75</ele>
        <time>2011-12-20T13:37:37Z</time>
      </trkpt>
      <trkpt lat="46.29897" lon="-0.51234">
        <ele>75</ele>
        <time>2011-12-20T13:37:42Z</time>
      </trkpt>
      <trkpt lat="46.29896" lon="-0.51233">
        <ele>75</ele>
        <time>2011-12-20T13:37:47Z</time>
      </trkpt>
      <trkpt lat="46.29896" lon="-0.51234">
        <ele>75</ele>
        <time>2011-12-20T13:38:17Z</time>
      </trkpt>
      <trkpt lat="46.29895" lon="-0.51231">
        <ele>77</ele>
        <time>2011-12-20T13:38:27Z</time>
      </trkpt>
      <trkpt lat="46.29897" lon="-0.51233">
        <ele>78</ele>
        <time>2011-12-20T13:38:32Z</time>
      </trkpt>
      <trkpt lat="46.29896" lon="-0.51234">
        <ele>78</ele>
        <time>2011-12-20T13:38:52Z</time>
      </trkpt>
      <trkpt lat="46.29891" lon="-0.51236">
        <ele>75</ele>
        <time>2011-12-20T13:38:57Z</time>
      </trkpt>
      <trkpt lat="46.29886" lon="-0.51239">
        <ele>73</ele>
        <time>2011-12-20T13:39:02Z</time>
      </trkpt>
      <trkpt lat="46.29883" lon="-0.51241">
        <ele>72</ele>
        <time>2011-12-20T13:39:07Z</time>
      </trkpt>
      <trkpt lat="46.29877" lon="-0.51244">
        <ele>73</ele>
        <time>2011-12-20T13:39:12Z</time>
      </trkpt>
      <trkpt lat="46.2987" lon="-0.51245">
        <ele>73</ele>
        <time>2011-12-20T13:39:17Z</time>
      </trkpt>
      <trkpt lat="46.29865" lon="-0.5125">
        <ele>74</ele>
        <time>2011-12-20T13:39:22Z</time>
      </trkpt>
      <trkpt lat="46.29863" lon="-0.51254">
        <ele>73</ele>
        <time>2011-12-20T13:39:27Z</time>
      </trkpt>
      <trkpt lat="46.29863" lon="-0.51253">
        <ele>72</ele>
        <time>2011-12-20T13:39:32Z</time>
      </trkpt>
      <trkpt lat="46.29863" lon="-0.51254">
        <ele>73</ele>
        <time>2011-12-20T13:40:57Z</time>
      </trkpt>
      <trkpt lat="46.29863" lon="-0.51255">
        <ele>73</ele>
        <time>2011-12-20T13:41:02Z</time>
      </trkpt>
      <trkpt lat="46.29865" lon="-0.51259">
        <ele>73</ele>
        <time>2011-12-20T13:41:07Z</time>
      </trkpt>
      <trkpt lat="46.29865" lon="-0.51258">
        <ele>74</ele>
        <time>2011-12-20T13:41:12Z</time>
      </trkpt>
      <trkpt lat="46.29866" lon="-0.5126">
        <ele>75</ele>
        <time>2011-12-20T13:41:22Z</time>
      </trkpt>
      <trkpt lat="46.29866" lon="-0.51264">
        <ele>75</ele>
        <time>2011-12-20T13:41:27Z</time>
      </trkpt>
      <trkpt lat="46.29867" lon="-0.51267">
        <ele>75</ele>
        <time>2011-12-20T13:41:32Z</time>
      </trkpt>
      <trkpt lat="46.29869" lon="-0.51273">
        <ele>75</ele>
        <time>2011-12-20T13:41:37Z</time>
      </trkpt>
      <trkpt lat="46.2987" lon="-0.51278">
        <ele>75</ele>
        <time>2011-12-20T13:41:42Z</time>
      </trkpt>
      <trkpt lat="46.29873" lon="-0.51284">
        <ele>75</ele>
        <time>2011-12-20T13:41:47Z</time>
      </trkpt>
      <trkpt lat="46.29877" lon="-0.5129">
        <ele>76</ele>
        <time>2011-12-20T13:41:52Z</time>
      </trkpt>
      <trkpt lat="46.29881" lon="-0.51297">
        <ele>74</ele>
        <time>2011-12-20T13:41:57Z</time>
      </trkpt>
      <trkpt lat="46.29884" lon="-0.51301">
        <ele>73</ele>
        <time>2011-12-20T13:42:02Z</time>
      </trkpt>
      <trkpt lat="46.29887" lon="-0.51306">
        <ele>71</ele>
        <time>2011-12-20T13:42:07Z</time>
      </trkpt>
      <trkpt lat="46.29891" lon="-0.51315">
        <ele>72</ele>
        <time>2011-12-20T13:42:12Z</time>
      </trkpt>
      <trkpt lat="46.29893" lon="-0.51322">
        <ele>71</ele>
        <time>2011-12-20T13:42:17Z</time>
      </trkpt>
      <trkpt lat="46.29897" lon="-0.5133">
        <ele>71</ele>
        <time>2011-12-20T13:42:22Z</time>
      </trkpt>
      <trkpt lat="46.29899" lon="-0.51337">
        <ele>72</ele>
        <time>2011-12-20T13:42:27Z</time>
      </trkpt>
      <trkpt lat="46.29902" lon="-0.51346">
        <ele>72</ele>
        <time>2011-12-20T13:42:32Z</time>
      </trkpt>
      <trkpt lat="46.29904" lon="-0.51353">
        <ele>73</ele>
        <time>2011-12-20T13:42:37Z</time>
      </trkpt>
      <trkpt lat="46.29904" lon="-0.51363">
        <ele>75</ele>
        <time>2011-12-20T13:42:42Z</time>
      </trkpt>
      <trkpt lat="46.29903" lon="-0.51371">
        <ele>76</ele>
        <time>2011-12-20T13:42:47Z</time>
      </trkpt>
      <trkpt lat="46.29903" lon="-0.5138">
        <ele>77</ele>
        <time>2011-12-20T13:42:52Z</time>
      </trkpt>
      <trkpt lat="46.29902" lon="-0.51391">
        <ele>78</ele>
        <time>2011-12-20T13:42:57Z</time>
      </trkpt>
      <trkpt lat="46.29903" lon="-0.51399">
        <ele>79</ele>
        <time>2011-12-20T13:43:02Z</time>
      </trkpt>
      <trkpt lat="46.29903" lon="-0.51406">
        <ele>77</ele>
        <time>2011-12-20T13:43:07Z</time>
      </trkpt>
      <trkpt lat="46.29902" lon="-0.51414">
        <ele>77</ele>
        <time>2011-12-20T13:43:12Z</time>
      </trkpt>
      <trkpt lat="46.29899" lon="-0.51423">
        <ele>79</ele>
        <time>2011-12-20T13:43:17Z</time>
      </trkpt>
      <trkpt lat="46.29898" lon="-0.51431">
        <ele>78</ele>
        <time>2011-12-20T13:43:22Z</time>
      </trkpt>
      <trkpt lat="46.29898" lon="-0.51437">
        <ele>78</ele>
        <time>2011-12-20T13:43:27Z</time>
      </trkpt>
      <trkpt lat="46.29898" lon="-0.51445">
        <ele>77</ele>
        <time>2011-12-20T13:43:32Z</time>
      </trkpt>
      <trkpt lat="46.29897" lon="-0.51453">
        <ele>78</ele>
        <time>2011-12-20T13:43:37Z</time>
      </trkpt>
      <trkpt lat="46.29896" lon="-0.51462">
        <ele>78</ele>
        <time>2011-12-20T13:43:42Z</time>
      </trkpt>
      <trkpt lat="46.29897" lon="-0.51472">
        <ele>77</ele>
        <time>2011-12-20T13:43:47Z</time>
      </trkpt>
      <trkpt lat="46.29897" lon="-0.51481">
        <ele>76</ele>
        <time>2011-12-20T13:43:52Z</time>
      </trkpt>
      <trkpt lat="46.29898" lon="-0.51489">
        <ele>74</ele>
        <time>2011-12-20T13:43:57Z</time>
      </trkpt>
      <trkpt lat="46.29899" lon="-0.51496">
        <ele>73</ele>
        <time>2011-12-20T13:44:02Z</time>
      </trkpt>
      <trkpt lat="46.299" lon="-0.51505">
        <ele>75</ele>
        <time>2011-12-20T13:44:07Z</time>
      </trkpt>
      <trkpt lat="46.29902" lon="-0.51512">
        <ele>75</ele>
        <time>2011-12-20T13:44:12Z</time>
      </trkpt>
      <trkpt lat="46.29903" lon="-0.51519">
        <ele>76</ele>
        <time>2011-12-20T13:44:17Z</time>
      </trkpt>
      <trkpt lat="46.29904" lon="-0.51527">
        <ele>78</ele>
        <time>2011-12-20T13:44:22Z</time>
      </trkpt>
      <trkpt lat="46.29906" lon="-0.51535">
        <ele>78</ele>
        <time>2011-12-20T13:44:27Z</time>
      </trkpt>
      <trkpt lat="46.29906" lon="-0.5154">
        <ele>78</ele>
        <time>2011-12-20T13:44:32Z</time>
      </trkpt>
      <trkpt lat="46.29906" lon="-0.51552">
        <ele>79</ele>
        <time>2011-12-20T13:44:37Z</time>
      </trkpt>
      <trkpt lat="46.29909" lon="-0.51558">
        <ele>78</ele>
        <time>2011-12-20T13:44:42Z</time>
      </trkpt>
      <trkpt lat="46.29911" lon="-0.51565">
        <ele>78</ele>
        <time>2011-12-20T13:44:47Z</time>
      </trkpt>
      <trkpt lat="46.29913" lon="-0.51574">
        <ele>77</ele>
        <time>2011-12-20T13:44:52Z</time>
      </trkpt>
      <trkpt lat="46.29915" lon="-0.51582">
        <ele>78</ele>
        <time>2011-12-20T13:44:57Z</time>
      </trkpt>
      <trkpt lat="46.29915" lon="-0.5159">
        <ele>78</ele>
        <time>2011-12-20T13:45:02Z</time>
      </trkpt>
      <trkpt lat="46.29916" lon="-0.51597">
        <ele>78</ele>
        <time>2011-12-20T13:45:07Z</time>
      </trkpt>
      <trkpt lat="46.29916" lon="-0.51607">
        <ele>78</ele>
        <time>2011-12-20T13:45:12Z</time>
      </trkpt>
      <trkpt lat="46.29915" lon="-0.51616">
        <ele>78</ele>
        <time>2011-12-20T13:45:17Z</time>
      </trkpt>
      <trkpt lat="46.29916" lon="-0.51622">
        <ele>77</ele>
        <time>2011-12-20T13:45:22Z</time>
      </trkpt>
      <trkpt lat="46.29914" lon="-0.5163">
        <ele>77</ele>
        <time>2011-12-20T13:45:27Z</time>
      </trkpt>
      <trkpt lat="46.29915" lon="-0.51642">
        <ele>75</ele>
        <time>2011-12-20T13:45:32Z</time>
      </trkpt>
      <trkpt lat="46.29917" lon="-0.51646">
        <ele>73</ele>
        <time>2011-12-20T13:45:37Z</time>
      </trkpt>
      <trkpt lat="46.29913" lon="-0.51657">
        <ele>75</ele>
        <time>2011-12-20T13:45:42Z</time>
      </trkpt>
      <trkpt lat="46.29913" lon="-0.51664">
        <ele>73</ele>
        <time>2011-12-20T13:45:47Z</time>
      </trkpt>
      <trkpt lat="46.29914" lon="-0.51671">
        <ele>73</ele>
        <time>2011-12-20T13:45:52Z</time>
      </trkpt>
      <trkpt lat="46.29912" lon="-0.51674">
        <ele>74</ele>
        <time>2011-12-20T13:45:57Z</time>
      </trkpt>
      <trkpt lat="46.2991" lon="-0.51681">
        <ele>74</ele>
        <time>2011-12-20T13:46:02Z</time>
      </trkpt>
      <trkpt lat="46.2991" lon="-0.51693">
        <ele>74</ele>
        <time>2011-12-20T13:46:07Z</time>
      </trkpt>
      <trkpt lat="46.2991" lon="-0.51697">
        <ele>75</ele>
        <time>2011-12-20T13:46:12Z</time>
      </trkpt>
      <trkpt lat="46.29907" lon="-0.51708">
        <ele>77</ele>
        <time>2011-12-20T13:46:17Z</time>
      </trkpt>
      <trkpt lat="46.29907" lon="-0.51718">
        <ele>79</ele>
        <time>2011-12-20T13:46:22Z</time>
      </trkpt>
      <trkpt lat="46.29907" lon="-0.5173">
        <ele>77</ele>
        <time>2011-12-20T13:46:27Z</time>
      </trkpt>
      <trkpt lat="46.29907" lon="-0.51736">
        <ele>77</ele>
        <time>2011-12-20T13:46:32Z</time>
      </trkpt>
      <trkpt lat="46.29905" lon="-0.51742">
        <ele>77</ele>
        <time>2011-12-20T13:46:37Z</time>
      </trkpt>
      <trkpt lat="46.29906" lon="-0.51752">
        <ele>75</ele>
        <time>2011-12-20T13:46:42Z</time>
      </trkpt>
      <trkpt lat="46.29905" lon="-0.51764">
        <ele>80</ele>
        <time>2011-12-20T13:46:47Z</time>
      </trkpt>
      <trkpt lat="46.29905" lon="-0.51772">
        <ele>80</ele>
        <time>2011-12-20T13:46:52Z</time>
      </trkpt>
      <trkpt lat="46.29904" lon="-0.51778">
        <ele>80</ele>
        <time>2011-12-20T13:46:57Z</time>
      </trkpt>
      <trkpt lat="46.29902" lon="-0.51786">
        <ele>80</ele>
        <time>2011-12-20T13:47:02Z</time>
      </trkpt>
      <trkpt lat="46.29902" lon="-0.51794">
        <ele>80</ele>
        <time>2011-12-20T13:47:07Z</time>
      </trkpt>
      <trkpt lat="46.29899" lon="-0.51801">
        <ele>79</ele>
        <time>2011-12-20T13:47:12Z</time>
      </trkpt>
      <trkpt lat="46.29898" lon="-0.51808">
        <ele>79</ele>
        <time>2011-12-20T13:47:17Z</time>
      </trkpt>
      <trkpt lat="46.29898" lon="-0.51816">
        <ele>78</ele>
        <time>2011-12-20T13:47:22Z</time>
      </trkpt>
      <trkpt lat="46.29896" lon="-0.51821">
        <ele>79</ele>
        <time>2011-12-20T13:47:27Z</time>
      </trkpt>
      <trkpt lat="46.29894" lon="-0.51828">
        <ele>77</ele>
        <time>2011-12-20T13:47:32Z</time>
      </trkpt>
      <trkpt lat="46.29892" lon="-0.51835">
        <ele>77</ele>
        <time>2011-12-20T13:47:37Z</time>
      </trkpt>
      <trkpt lat="46.2989" lon="-0.51845">
        <ele>77</ele>
        <time>2011-12-20T13:47:42Z</time>
      </trkpt>
      <trkpt lat="46.29887" lon="-0.51852">
        <ele>79</ele>
        <time>2011-12-20T13:47:47Z</time>
      </trkpt>
      <trkpt lat="46.29885" lon="-0.51862">
        <ele>79</ele>
        <time>2011-12-20T13:47:52Z</time>
      </trkpt>
      <trkpt lat="46.29883" lon="-0.51869">
        <ele>80</ele>
        <time>2011-12-20T13:47:57Z</time>
      </trkpt>
      <trkpt lat="46.29881" lon="-0.51875">
        <ele>80</ele>
        <time>2011-12-20T13:48:02Z</time>
      </trkpt>
      <trkpt lat="46.29879" lon="-0.51884">
        <ele>80</ele>
        <time>2011-12-20T13:48:07Z</time>
      </trkpt>
      <trkpt lat="46.29877" lon="-0.5189">
        <ele>80</ele>
        <time>2011-12-20T13:48:12Z</time>
      </trkpt>
      <trkpt lat="46.29874" lon="-0.51901">
        <ele>80</ele>
        <time>2011-12-20T13:48:17Z</time>
      </trkpt>
      <trkpt lat="46.29873" lon="-0.5191">
        <ele>81</ele>
        <time>2011-12-20T13:48:22Z</time>
      </trkpt>
      <trkpt lat="46.29872" lon="-0.51917">
        <ele>82</ele>
        <time>2011-12-20T13:48:27Z</time>
      </trkpt>
      <trkpt lat="46.2987" lon="-0.51924">
        <ele>81</ele>
        <time>2011-12-20T13:48:32Z</time>
      </trkpt>
      <trkpt lat="46.2987" lon="-0.51928">
        <ele>80</ele>
        <time>2011-12-20T13:48:37Z</time>
      </trkpt>
      <trkpt lat="46.29869" lon="-0.51931">
        <ele>79</ele>
        <time>2011-12-20T13:48:42Z</time>
      </trkpt>
      <trkpt lat="46.29867" lon="-0.51938">
        <ele>80</ele>
        <time>2011-12-20T13:48:47Z</time>
      </trkpt>
      <trkpt lat="46.29867" lon="-0.51951">
        <ele>79</ele>
        <time>2011-12-20T13:48:52Z</time>
      </trkpt>
      <trkpt lat="46.29863" lon="-0.51955">
        <ele>79</ele>
        <time>2011-12-20T13:48:57Z</time>
      </trkpt>
      <trkpt lat="46.29862" lon="-0.51966">
        <ele>80</ele>
        <time>2011-12-20T13:49:02Z</time>
      </trkpt>
      <trkpt lat="46.29861" lon="-0.51973">
        <ele>80</ele>
        <time>2011-12-20T13:49:07Z</time>
      </trkpt>
      <trkpt lat="46.29859" lon="-0.51979">
        <ele>80</ele>
        <time>2011-12-20T13:49:12Z</time>
      </trkpt>
      <trkpt lat="46.29857" lon="-0.51988">
        <ele>80</ele>
        <time>2011-12-20T13:49:17Z</time>
      </trkpt>
      <trkpt lat="46.29853" lon="-0.51997">
        <ele>80</ele>
        <time>2011-12-20T13:49:22Z</time>
      </trkpt>
      <trkpt lat="46.29852" lon="-0.52004">
        <ele>80</ele>
        <time>2011-12-20T13:49:27Z</time>
      </trkpt>
      <trkpt lat="46.29848" lon="-0.52009">
        <ele>79</ele>
        <time>2011-12-20T13:49:32Z</time>
      </trkpt>
      <trkpt lat="46.29846" lon="-0.52017">
        <ele>79</ele>
        <time>2011-12-20T13:49:37Z</time>
      </trkpt>
      <trkpt lat="46.29843" lon="-0.52023">
        <ele>81</ele>
        <time>2011-12-20T13:49:42Z</time>
      </trkpt>
      <trkpt lat="46.29838" lon="-0.52028">
        <ele>82</ele>
        <time>2011-12-20T13:49:47Z</time>
      </trkpt>
      <trkpt lat="46.29834" lon="-0.52036">
        <ele>82</ele>
        <time>2011-12-20T13:49:52Z</time>
      </trkpt>
      <trkpt lat="46.2983" lon="-0.52043">
        <ele>82</ele>
        <time>2011-12-20T13:49:57Z</time>
      </trkpt>
      <trkpt lat="46.29827" lon="-0.5205">
        <ele>82</ele>
        <time>2011-12-20T13:50:02Z</time>
      </trkpt>
      <trkpt lat="46.29825" lon="-0.52056">
        <ele>80</ele>
        <time>2011-12-20T13:50:07Z</time>
      </trkpt>
      <trkpt lat="46.29818" lon="-0.52064">
        <ele>81</ele>
        <time>2011-12-20T13:50:12Z</time>
      </trkpt>
      <trkpt lat="46.29814" lon="-0.5207">
        <ele>81</ele>
        <time>2011-12-20T13:50:17Z</time>
      </trkpt>
      <trkpt lat="46.29812" lon="-0.52073">
        <ele>80</ele>
        <time>2011-12-20T13:50:22Z</time>
      </trkpt>
      <trkpt lat="46.29807" lon="-0.52083">
        <ele>80</ele>
        <time>2011-12-20T13:50:27Z</time>
      </trkpt>
      <trkpt lat="46.29806" lon="-0.52088">
        <ele>79</ele>
        <time>2011-12-20T13:50:32Z</time>
      </trkpt>
      <trkpt lat="46.29804" lon="-0.52092">
        <ele>79</ele>
        <time>2011-12-20T13:50:37Z</time>
      </trkpt>
      <trkpt lat="46.298" lon="-0.52099">
        <ele>79</ele>
        <time>2011-12-20T13:50:42Z</time>
      </trkpt>
      <trkpt lat="46.29795" lon="-0.52107">
        <ele>81</ele>
        <time>2011-12-20T13:50:47Z</time>
      </trkpt>
      <trkpt lat="46.29793" lon="-0.5211">
        <ele>80</ele>
        <time>2011-12-20T13:50:52Z</time>
      </trkpt>
      <trkpt lat="46.29788" lon="-0.5212">
        <ele>81</ele>
        <time>2011-12-20T13:50:57Z</time>
      </trkpt>
      <trkpt lat="46.29783" lon="-0.52132">
        <ele>82</ele>
        <time>2011-12-20T13:51:02Z</time>
      </trkpt>
      <trkpt lat="46.29782" lon="-0.52138">
        <ele>81</ele>
        <time>2011-12-20T13:51:07Z</time>
      </trkpt>
      <trkpt lat="46.2978" lon="-0.52146">
        <ele>79</ele>
        <time>2011-12-20T13:51:12Z</time>
      </trkpt>
      <trkpt lat="46.29778" lon="-0.52155">
        <ele>80</ele>
        <time>2011-12-20T13:51:17Z</time>
      </trkpt>
      <trkpt lat="46.29777" lon="-0.52161">
        <ele>79</ele>
        <time>2011-12-20T13:51:22Z</time>
      </trkpt>
      <trkpt lat="46.29774" lon="-0.52168">
        <ele>79</ele>
        <time>2011-12-20T13:51:27Z</time>
      </trkpt>
      <trkpt lat="46.29772" lon="-0.52175">
        <ele>77</ele>
        <time>2011-12-20T13:51:32Z</time>
      </trkpt>
      <trkpt lat="46.29768" lon="-0.52182">
        <ele>78</ele>
        <time>2011-12-20T13:51:37Z</time>
      </trkpt>
      <trkpt lat="46.29766" lon="-0.52191">
        <ele>78</ele>
        <time>2011-12-20T13:51:42Z</time>
      </trkpt>
      <trkpt lat="46.29763" lon="-0.52201">
        <ele>78</ele>
        <time>2011-12-20T13:51:47Z</time>
      </trkpt>
      <trkpt lat="46.29762" lon="-0.52208">
        <ele>79</ele>
        <time>2011-12-20T13:51:52Z</time>
      </trkpt>
      <trkpt lat="46.29759" lon="-0.52216">
        <ele>79</ele>
        <time>2011-12-20T13:51:57Z</time>
      </trkpt>
      <trkpt lat="46.29758" lon="-0.52224">
        <ele>79</ele>
        <time>2011-12-20T13:52:02Z</time>
      </trkpt>
      <trkpt lat="46.29756" lon="-0.52233">
        <ele>79</ele>
        <time>2011-12-20T13:52:07Z</time>
      </trkpt>
      <trkpt lat="46.2975" lon="-0.52245">
        <ele>80</ele>
        <time>2011-12-20T13:52:12Z</time>
      </trkpt>
      <trkpt lat="46.29749" lon="-0.52253">
        <ele>82</ele>
        <time>2011-12-20T13:52:17Z</time>
      </trkpt>
      <trkpt lat="46.29749" lon="-0.52261">
        <ele>83</ele>
        <time>2011-12-20T13:52:22Z</time>
      </trkpt>
      <trkpt lat="46.29748" lon="-0.52268">
        <ele>83</ele>
        <time>2011-12-20T13:52:27Z</time>
      </trkpt>
      <trkpt lat="46.29747" lon="-0.52274">
        <ele>82</ele>
        <time>2011-12-20T13:52:32Z</time>
      </trkpt>
      <trkpt lat="46.29746" lon="-0.52284">
        <ele>82</ele>
        <time>2011-12-20T13:52:37Z</time>
      </trkpt>
      <trkpt lat="46.29745" lon="-0.52289">
        <ele>82</ele>
        <time>2011-12-20T13:52:42Z</time>
      </trkpt>
      <trkpt lat="46.29746" lon="-0.52298">
        <ele>81</ele>
        <time>2011-12-20T13:52:47Z</time>
      </trkpt>
      <trkpt lat="46.29746" lon="-0.52308">
        <ele>80</ele>
        <time>2011-12-20T13:52:52Z</time>
      </trkpt>
      <trkpt lat="46.29747" lon="-0.52316">
        <ele>80</ele>
        <time>2011-12-20T13:52:57Z</time>
      </trkpt>
      <trkpt lat="46.29746" lon="-0.52324">
        <ele>80</ele>
        <time>2011-12-20T13:53:02Z</time>
      </trkpt>
      <trkpt lat="46.29747" lon="-0.52333">
        <ele>79</ele>
        <time>2011-12-20T13:53:07Z</time>
      </trkpt>
      <trkpt lat="46.29747" lon="-0.52341">
        <ele>79</ele>
        <time>2011-12-20T13:53:12Z</time>
      </trkpt>
      <trkpt lat="46.29745" lon="-0.52349">
        <ele>78</ele>
        <time>2011-12-20T13:53:17Z</time>
      </trkpt>
      <trkpt lat="46.29745" lon="-0.52354">
        <ele>77</ele>
        <time>2011-12-20T13:53:22Z</time>
      </trkpt>
      <trkpt lat="46.29744" lon="-0.52365">
        <ele>81</ele>
        <time>2011-12-20T13:53:27Z</time>
      </trkpt>
      <trkpt lat="46.29742" lon="-0.52374">
        <ele>81</ele>
        <time>2011-12-20T13:53:32Z</time>
      </trkpt>
      <trkpt lat="46.2974" lon="-0.52385">
        <ele>81</ele>
        <time>2011-12-20T13:53:37Z</time>
      </trkpt>
      <trkpt lat="46.29739" lon="-0.52393">
        <ele>81</ele>
        <time>2011-12-20T13:53:42Z</time>
      </trkpt>
      <trkpt lat="46.29735" lon="-0.524">
        <ele>81</ele>
        <time>2011-12-20T13:53:47Z</time>
      </trkpt>
      <trkpt lat="46.2973" lon="-0.52407">
        <ele>81</ele>
        <time>2011-12-20T13:53:52Z</time>
      </trkpt>
      <trkpt lat="46.29728" lon="-0.52413">
        <ele>79</ele>
        <time>2011-12-20T13:53:57Z</time>
      </trkpt>
      <trkpt lat="46.29727" lon="-0.52415">
        <ele>79</ele>
        <time>2011-12-20T13:54:02Z</time>
      </trkpt>
      <trkpt lat="46.29723" lon="-0.52419">
        <ele>80</ele>
        <time>2011-12-20T13:54:07Z</time>
      </trkpt>
      <trkpt lat="46.29719" lon="-0.52425">
        <ele>80</ele>
        <time>2011-12-20T13:54:12Z</time>
      </trkpt>
      <trkpt lat="46.29719" lon="-0.52427">
        <ele>79</ele>
        <time>2011-12-20T13:54:17Z</time>
      </trkpt>
      <trkpt lat="46.2972" lon="-0.52428">
        <ele>78</ele>
        <time>2011-12-20T13:54:22Z</time>
      </trkpt>
      <trkpt lat="46.29719" lon="-0.52428">
        <ele>78</ele>
        <time>2011-12-20T13:54:27Z</time>
      </trkpt>
      <trkpt lat="46.29715" lon="-0.52435">
        <ele>78</ele>
        <time>2011-12-20T13:54:32Z</time>
      </trkpt>
      <trkpt lat="46.29711" lon="-0.52439">
        <ele>78</ele>
        <time>2011-12-20T13:54:37Z</time>
      </trkpt>
      <trkpt lat="46.29707" lon="-0.52444">
        <ele>77</ele>
        <time>2011-12-20T13:54:42Z</time>
      </trkpt>
      <trkpt lat="46.29703" lon="-0.5245">
        <ele>78</ele>
        <time>2011-12-20T13:54:47Z</time>
      </trkpt>
      <trkpt lat="46.29698" lon="-0.52456">
        <ele>79</ele>
        <time>2011-12-20T13:54:52Z</time>
      </trkpt>
      <trkpt lat="46.29693" lon="-0.52463">
        <ele>80</ele>
        <time>2011-12-20T13:54:57Z</time>
      </trkpt>
      <trkpt lat="46.29688" lon="-0.52468">
        <ele>80</ele>
        <time>2011-12-20T13:55:02Z</time>
      </trkpt>
      <trkpt lat="46.29684" lon="-0.52472">
        <ele>81</ele>
        <time>2011-12-20T13:55:07Z</time>
      </trkpt>
      <trkpt lat="46.29678" lon="-0.52477">
        <ele>81</ele>
        <time>2011-12-20T13:55:12Z</time>
      </trkpt>
      <trkpt lat="46.29675" lon="-0.52483">
        <ele>79</ele>
        <time>2011-12-20T13:55:17Z</time>
      </trkpt>
      <trkpt lat="46.29671" lon="-0.52487">
        <ele>80</ele>
        <time>2011-12-20T13:55:22Z</time>
      </trkpt>
      <trkpt lat="46.29664" lon="-0.5249">
        <ele>82</ele>
        <time>2011-12-20T13:55:27Z</time>
      </trkpt>
      <trkpt lat="46.29661" lon="-0.52496">
        <ele>81</ele>
        <time>2011-12-20T13:55:32Z</time>
      </trkpt>
      <trkpt lat="46.29656" lon="-0.52502">
        <ele>81</ele>
        <time>2011-12-20T13:55:37Z</time>
      </trkpt>
      <trkpt lat="46.29652" lon="-0.52508">
        <ele>81</ele>
        <time>2011-12-20T13:55:42Z</time>
      </trkpt>
      <trkpt lat="46.29649" lon="-0.52514">
        <ele>80</ele>
        <time>2011-12-20T13:55:47Z</time>
      </trkpt>
      <trkpt lat="46.29646" lon="-0.5252">
        <ele>80</ele>
        <time>2011-12-20T13:55:52Z</time>
      </trkpt>
      <trkpt lat="46.29643" lon="-0.52526">
        <ele>81</ele>
        <time>2011-12-20T13:55:57Z</time>
      </trkpt>
      <trkpt lat="46.2964" lon="-0.52533">
        <ele>82</ele>
        <time>2011-12-20T13:56:02Z</time>
      </trkpt>
      <trkpt lat="46.29638" lon="-0.52541">
        <ele>81</ele>
        <time>2011-12-20T13:56:07Z</time>
      </trkpt>
      <trkpt lat="46.29635" lon="-0.52548">
        <ele>81</ele>
        <time>2011-12-20T13:56:12Z</time>
      </trkpt>
      <trkpt lat="46.29633" lon="-0.52555">
        <ele>81</ele>
        <time>2011-12-20T13:56:17Z</time>
      </trkpt>
      <trkpt lat="46.29632" lon="-0.52563">
        <ele>80</ele>
        <time>2011-12-20T13:56:22Z</time>
      </trkpt>
      <trkpt lat="46.29631" lon="-0.52571">
        <ele>80</ele>
        <time>2011-12-20T13:56:27Z</time>
      </trkpt>
      <trkpt lat="46.29629" lon="-0.52579">
        <ele>82</ele>
        <time>2011-12-20T13:56:32Z</time>
      </trkpt>
      <trkpt lat="46.29626" lon="-0.52584">
        <ele>81</ele>
        <time>2011-12-20T13:56:37Z</time>
      </trkpt>
      <trkpt lat="46.29624" lon="-0.52591">
        <ele>80</ele>
        <time>2011-12-20T13:56:42Z</time>
      </trkpt>
      <trkpt lat="46.29623" lon="-0.52598">
        <ele>79</ele>
        <time>2011-12-20T13:56:47Z</time>
      </trkpt>
      <trkpt lat="46.29622" lon="-0.52605">
        <ele>78</ele>
        <time>2011-12-20T13:56:52Z</time>
      </trkpt>
      <trkpt lat="46.2962" lon="-0.52615">
        <ele>77</ele>
        <time>2011-12-20T13:56:57Z</time>
      </trkpt>
      <trkpt lat="46.29618" lon="-0.52622">
        <ele>76</ele>
        <time>2011-12-20T13:57:02Z</time>
      </trkpt>
      <trkpt lat="46.29617" lon="-0.5263">
        <ele>77</ele>
        <time>2011-12-20T13:57:07Z</time>
      </trkpt>
      <trkpt lat="46.29618" lon="-0.52639">
        <ele>77</ele>
        <time>2011-12-20T13:57:12Z</time>
      </trkpt>
      <trkpt lat="46.29618" lon="-0.52646">
        <ele>76</ele>
        <time>2011-12-20T13:57:17Z</time>
      </trkpt>
      <trkpt lat="46.29617" lon="-0.52657">
        <ele>79</ele>
        <time>2011-12-20T13:57:22Z</time>
      </trkpt>
      <trkpt lat="46.29618" lon="-0.52661">
        <ele>77</ele>
        <time>2011-12-20T13:57:27Z</time>
      </trkpt>
      <trkpt lat="46.29618" lon="-0.52667">
        <ele>78</ele>
        <time>2011-12-20T13:57:32Z</time>
      </trkpt>
      <trkpt lat="46.29619" lon="-0.52675">
        <ele>76</ele>
        <time>2011-12-20T13:57:37Z</time>
      </trkpt>
      <trkpt lat="46.29618" lon="-0.52684">
        <ele>77</ele>
        <time>2011-12-20T13:57:42Z</time>
      </trkpt>
      <trkpt lat="46.29618" lon="-0.52694">
        <ele>78</ele>
        <time>2011-12-20T13:57:47Z</time>
      </trkpt>
      <trkpt lat="46.29618" lon="-0.527">
        <ele>77</ele>
        <time>2011-12-20T13:57:52Z</time>
      </trkpt>
      <trkpt lat="46.29617" lon="-0.52709">
        <ele>77</ele>
        <time>2011-12-20T13:57:57Z</time>
      </trkpt>
      <trkpt lat="46.29616" lon="-0.52719">
        <ele>77</ele>
        <time>2011-12-20T13:58:02Z</time>
      </trkpt>
      <trkpt lat="46.29616" lon="-0.52727">
        <ele>77</ele>
        <time>2011-12-20T13:58:07Z</time>
      </trkpt>
      <trkpt lat="46.29616" lon="-0.52735">
        <ele>76</ele>
        <time>2011-12-20T13:58:12Z</time>
      </trkpt>
      <trkpt lat="46.29616" lon="-0.52742">
        <ele>76</ele>
        <time>2011-12-20T13:58:17Z</time>
      </trkpt>
      <trkpt lat="46.29616" lon="-0.52749">
        <ele>76</ele>
        <time>2011-12-20T13:58:22Z</time>
      </trkpt>
      <trkpt lat="46.29613" lon="-0.52749">
        <ele>75</ele>
        <time>2011-12-20T13:58:27Z</time>
      </trkpt>
      <trkpt lat="46.29612" lon="-0.5275">
        <ele>74</ele>
        <time>2011-12-20T13:58:32Z</time>
      </trkpt>
      <trkpt lat="46.29606" lon="-0.52748">
        <ele>73</ele>
        <time>2011-12-20T13:58:37Z</time>
      </trkpt>
      <trkpt lat="46.29602" lon="-0.52745">
        <ele>73</ele>
        <time>2011-12-20T13:58:42Z</time>
      </trkpt>
      <trkpt lat="46.29595" lon="-0.52741">
        <ele>74</ele>
        <time>2011-12-20T13:58:47Z</time>
      </trkpt>
      <trkpt lat="46.29589" lon="-0.52738">
        <ele>73</ele>
        <time>2011-12-20T13:58:52Z</time>
      </trkpt>
      <trkpt lat="46.29586" lon="-0.52737">
        <ele>74</ele>
        <time>2011-12-20T13:58:57Z</time>
      </trkpt>
      <trkpt lat="46.2958" lon="-0.52736">
        <ele>73</ele>
        <time>2011-12-20T13:59:02Z</time>
      </trkpt>
      <trkpt lat="46.29573" lon="-0.52734">
        <ele>73</ele>
        <time>2011-12-20T13:59:07Z</time>
      </trkpt>
      <trkpt lat="46.29567" lon="-0.52732">
        <ele>74</ele>
        <time>2011-12-20T13:59:12Z</time>
      </trkpt>
      <trkpt lat="46.29561" lon="-0.52732">
        <ele>73</ele>
        <time>2011-12-20T13:59:17Z</time>
      </trkpt>
      <trkpt lat="46.29554" lon="-0.5273">
        <ele>73</ele>
        <time>2011-12-20T13:59:22Z</time>
      </trkpt>
      <trkpt lat="46.29548" lon="-0.52729">
        <ele>74</ele>
        <time>2011-12-20T13:59:27Z</time>
      </trkpt>
      <trkpt lat="46.29543" lon="-0.52729">
        <ele>73</ele>
        <time>2011-12-20T13:59:32Z</time>
      </trkpt>
      <trkpt lat="46.29538" lon="-0.52728">
        <ele>72</ele>
        <time>2011-12-20T13:59:37Z</time>
      </trkpt>
      <trkpt lat="46.29535" lon="-0.52728">
        <ele>71</ele>
        <time>2011-12-20T13:59:42Z</time>
      </trkpt>
      <trkpt lat="46.29529" lon="-0.52726">
        <ele>70</ele>
        <time>2011-12-20T13:59:47Z</time>
      </trkpt>
      <trkpt lat="46.29523" lon="-0.52727">
        <ele>70</ele>
        <time>2011-12-20T13:59:52Z</time>
      </trkpt>
      <trkpt lat="46.29518" lon="-0.52726">
        <ele>69</ele>
        <time>2011-12-20T13:59:57Z</time>
      </trkpt>
      <trkpt lat="46.29513" lon="-0.52726">
        <ele>68</ele>
        <time>2011-12-20T14:00:02Z</time>
      </trkpt>
      <trkpt lat="46.29506" lon="-0.52726">
        <ele>69</ele>
        <time>2011-12-20T14:00:07Z</time>
      </trkpt>
      <trkpt lat="46.295" lon="-0.52723">
        <ele>70</ele>
        <time>2011-12-20T14:00:12Z</time>
      </trkpt>
      <trkpt lat="46.29496" lon="-0.52724">
        <ele>71</ele>
        <time>2011-12-20T14:00:17Z</time>
      </trkpt>
      <trkpt lat="46.2949" lon="-0.5272">
        <ele>71</ele>
        <time>2011-12-20T14:00:22Z</time>
      </trkpt>
      <trkpt lat="46.29484" lon="-0.52723">
        <ele>70</ele>
        <time>2011-12-20T14:00:27Z</time>
      </trkpt>
      <trkpt lat="46.29478" lon="-0.52722">
        <ele>71</ele>
        <time>2011-12-20T14:00:32Z</time>
      </trkpt>
      <trkpt lat="46.29471" lon="-0.52721">
        <ele>70</ele>
        <time>2011-12-20T14:00:37Z</time>
      </trkpt>
      <trkpt lat="46.29465" lon="-0.52718">
        <ele>71</ele>
        <time>2011-12-20T14:00:42Z</time>
      </trkpt>
      <trkpt lat="46.29461" lon="-0.52718">
        <ele>72</ele>
        <time>2011-12-20T14:00:47Z</time>
      </trkpt>
      <trkpt lat="46.29454" lon="-0.5272">
        <ele>72</ele>
        <time>2011-12-20T14:00:52Z</time>
      </trkpt>
      <trkpt lat="46.2945" lon="-0.52719">
        <ele>71</ele>
        <time>2011-12-20T14:00:57Z</time>
      </trkpt>
      <trkpt lat="46.29451" lon="-0.52719">
        <ele>71</ele>
        <time>2011-12-20T14:01:02Z</time>
      </trkpt>
      <trkpt lat="46.2945" lon="-0.52719">
        <ele>72</ele>
        <time>2011-12-20T14:01:07Z</time>
      </trkpt>
      <trkpt lat="46.2945" lon="-0.52717">
        <ele>73</ele>
        <time>2011-12-20T14:01:12Z</time>
      </trkpt>
      <trkpt lat="46.29444" lon="-0.52718">
        <ele>72</ele>
        <time>2011-12-20T14:01:17Z</time>
      </trkpt>
      <trkpt lat="46.29438" lon="-0.52717">
        <ele>72</ele>
        <time>2011-12-20T14:01:22Z</time>
      </trkpt>
      <trkpt lat="46.29431" lon="-0.52715">
        <ele>72</ele>
        <time>2011-12-20T14:01:27Z</time>
      </trkpt>
      <trkpt lat="46.29424" lon="-0.52716">
        <ele>71</ele>
        <time>2011-12-20T14:01:32Z</time>
      </trkpt>
      <trkpt lat="46.29418" lon="-0.52715">
        <ele>72</ele>
        <time>2011-12-20T14:01:37Z</time>
      </trkpt>
      <trkpt lat="46.29414" lon="-0.52715">
        <ele>72</ele>
        <time>2011-12-20T14:01:42Z</time>
      </trkpt>
      <trkpt lat="46.29406" lon="-0.52714">
        <ele>71</ele>
        <time>2011-12-20T14:01:47Z</time>
      </trkpt>
      <trkpt lat="46.294" lon="-0.52714">
        <ele>71</ele>
        <time>2011-12-20T14:01:52Z</time>
      </trkpt>
      <trkpt lat="46.29393" lon="-0.52717">
        <ele>71</ele>
        <time>2011-12-20T14:01:57Z</time>
      </trkpt>
      <trkpt lat="46.29386" lon="-0.52717">
        <ele>71</ele>
        <time>2011-12-20T14:02:02Z</time>
      </trkpt>
      <trkpt lat="46.29378" lon="-0.52717">
        <ele>71</ele>
        <time>2011-12-20T14:02:07Z</time>
      </trkpt>
      <trkpt lat="46.29374" lon="-0.52718">
        <ele>71</ele>
        <time>2011-12-20T14:02:12Z</time>
      </trkpt>
      <trkpt lat="46.29367" lon="-0.52718">
        <ele>69</ele>
        <time>2011-12-20T14:02:17Z</time>
      </trkpt>
      <trkpt lat="46.29363" lon="-0.52719">
        <ele>70</ele>
        <time>2011-12-20T14:02:22Z</time>
      </trkpt>
      <trkpt lat="46.29356" lon="-0.52723">
        <ele>69</ele>
        <time>2011-12-20T14:02:27Z</time>
      </trkpt>
      <trkpt lat="46.29351" lon="-0.52721">
        <ele>68</ele>
        <time>2011-12-20T14:02:32Z</time>
      </trkpt>
      <trkpt lat="46.29343" lon="-0.52723">
        <ele>69</ele>
        <time>2011-12-20T14:02:37Z</time>
      </trkpt>
      <trkpt lat="46.29337" lon="-0.52723">
        <ele>70</ele>
        <time>2011-12-20T14:02:42Z</time>
      </trkpt>
      <trkpt lat="46.29331" lon="-0.52725">
        <ele>72</ele>
        <time>2011-12-20T14:02:47Z</time>
      </trkpt>
      <trkpt lat="46.29323" lon="-0.52727">
        <ele>73</ele>
        <time>2011-12-20T14:02:52Z</time>
      </trkpt>
      <trkpt lat="46.29316" lon="-0.52729">
        <ele>73</ele>
        <time>2011-12-20T14:02:57Z</time>
      </trkpt>
      <trkpt lat="46.29311" lon="-0.5273">
        <ele>73</ele>
        <time>2011-12-20T14:03:02Z</time>
      </trkpt>
      <trkpt lat="46.29306" lon="-0.5273">
        <ele>72</ele>
        <time>2011-12-20T14:03:07Z</time>
      </trkpt>
      <trkpt lat="46.29299" lon="-0.52734">
        <ele>71</ele>
        <time>2011-12-20T14:03:12Z</time>
      </trkpt>
      <trkpt lat="46.2929" lon="-0.52734">
        <ele>74</ele>
        <time>2011-12-20T14:03:17Z</time>
      </trkpt>
      <trkpt lat="46.29282" lon="-0.52735">
        <ele>75</ele>
        <time>2011-12-20T14:03:22Z</time>
      </trkpt>
      <trkpt lat="46.29277" lon="-0.52737">
        <ele>75</ele>
        <time>2011-12-20T14:03:27Z</time>
      </trkpt>
      <trkpt lat="46.29272" lon="-0.52738">
        <ele>73</ele>
        <time>2011-12-20T14:03:32Z</time>
      </trkpt>
      <trkpt lat="46.29269" lon="-0.52738">
        <ele>71</ele>
        <time>2011-12-20T14:03:37Z</time>
      </trkpt>
      <trkpt lat="46.29265" lon="-0.52743">
        <ele>70</ele>
        <time>2011-12-20T14:03:42Z</time>
      </trkpt>
      <trkpt lat="46.29264" lon="-0.52752">
        <ele>71</ele>
        <time>2011-12-20T14:03:47Z</time>
      </trkpt>
      <trkpt lat="46.29263" lon="-0.5276">
        <ele>71</ele>
        <time>2011-12-20T14:03:52Z</time>
      </trkpt>
      <trkpt lat="46.29262" lon="-0.52768">
        <ele>71</ele>
        <time>2011-12-20T14:03:57Z</time>
      </trkpt>
      <trkpt lat="46.2926" lon="-0.52777">
        <ele>71</ele>
        <time>2011-12-20T14:04:02Z</time>
      </trkpt>
      <trkpt lat="46.29259" lon="-0.52785">
        <ele>71</ele>
        <time>2011-12-20T14:04:07Z</time>
      </trkpt>
      <trkpt lat="46.29257" lon="-0.52793">
        <ele>71</ele>
        <time>2011-12-20T14:04:12Z</time>
      </trkpt>
      <trkpt lat="46.29255" lon="-0.52799">
        <ele>71</ele>
        <time>2011-12-20T14:04:17Z</time>
      </trkpt>
      <trkpt lat="46.29256" lon="-0.52814">
        <ele>73</ele>
        <time>2011-12-20T14:04:22Z</time>
      </trkpt>
      <trkpt lat="46.29254" lon="-0.52821">
        <ele>71</ele>
        <time>2011-12-20T14:04:27Z</time>
      </trkpt>
      <trkpt lat="46.2925" lon="-0.5283">
        <ele>72</ele>
        <time>2011-12-20T14:04:32Z</time>
      </trkpt>
      <trkpt lat="46.2925" lon="-0.52836">
        <ele>72</ele>
        <time>2011-12-20T14:04:37Z</time>
      </trkpt>
      <trkpt lat="46.2925" lon="-0.52845">
        <ele>73</ele>
        <time>2011-12-20T14:04:42Z</time>
      </trkpt>
      <trkpt lat="46.29248" lon="-0.52857">
        <ele>74</ele>
        <time>2011-12-20T14:04:47Z</time>
      </trkpt>
      <trkpt lat="46.29246" lon="-0.52861">
        <ele>74</ele>
        <time>2011-12-20T14:04:52Z</time>
      </trkpt>
      <trkpt lat="46.29247" lon="-0.52867">
        <ele>74</ele>
        <time>2011-12-20T14:04:57Z</time>
      </trkpt>
      <trkpt lat="46.29245" lon="-0.52877">
        <ele>73</ele>
        <time>2011-12-20T14:05:02Z</time>
      </trkpt>
      <trkpt lat="46.29244" lon="-0.52885">
        <ele>72</ele>
        <time>2011-12-20T14:05:07Z</time>
      </trkpt>
      <trkpt lat="46.29244" lon="-0.52893">
        <ele>71</ele>
        <time>2011-12-20T14:05:12Z</time>
      </trkpt>
      <trkpt lat="46.29241" lon="-0.529">
        <ele>74</ele>
        <time>2011-12-20T14:05:17Z</time>
      </trkpt>
      <trkpt lat="46.2924" lon="-0.52907">
        <ele>73</ele>
        <time>2011-12-20T14:05:22Z</time>
      </trkpt>
      <trkpt lat="46.29238" lon="-0.52915">
        <ele>72</ele>
        <time>2011-12-20T14:05:27Z</time>
      </trkpt>
      <trkpt lat="46.29238" lon="-0.52922">
        <ele>73</ele>
        <time>2011-12-20T14:05:32Z</time>
      </trkpt>
      <trkpt lat="46.29239" lon="-0.52932">
        <ele>75</ele>
        <time>2011-12-20T14:05:37Z</time>
      </trkpt>
      <trkpt lat="46.29236" lon="-0.52939">
        <ele>75</ele>
        <time>2011-12-20T14:05:42Z</time>
      </trkpt>
      <trkpt lat="46.29236" lon="-0.52946">
        <ele>73</ele>
        <time>2011-12-20T14:05:47Z</time>
      </trkpt>
      <trkpt lat="46.29236" lon="-0.52952">
        <ele>74</ele>
        <time>2011-12-20T14:05:52Z</time>
      </trkpt>
      <trkpt lat="46.29236" lon="-0.52955">
        <ele>71</ele>
        <time>2011-12-20T14:05:57Z</time>
      </trkpt>
      <trkpt lat="46.29234" lon="-0.52961">
        <ele>71</ele>
        <time>2011-12-20T14:06:02Z</time>
      </trkpt>
      <trkpt lat="46.29233" lon="-0.52969">
        <ele>72</ele>
        <time>2011-12-20T14:06:07Z</time>
      </trkpt>
      <trkpt lat="46.29231" lon="-0.52976">
        <ele>71</ele>
        <time>2011-12-20T14:06:12Z</time>
      </trkpt>
      <trkpt lat="46.29229" lon="-0.52982">
        <ele>70</ele>
        <time>2011-12-20T14:06:17Z</time>
      </trkpt>
      <trkpt lat="46.29228" lon="-0.52988">
        <ele>68</ele>
        <time>2011-12-20T14:06:22Z</time>
      </trkpt>
      <trkpt lat="46.29228" lon="-0.53002">
        <ele>72</ele>
        <time>2011-12-20T14:06:27Z</time>
      </trkpt>
      <trkpt lat="46.29227" lon="-0.53009">
        <ele>70</ele>
        <time>2011-12-20T14:06:32Z</time>
      </trkpt>
      <trkpt lat="46.29222" lon="-0.53014">
        <ele>68</ele>
        <time>2011-12-20T14:06:37Z</time>
      </trkpt>
      <trkpt lat="46.29217" lon="-0.53017">
        <ele>68</ele>
        <time>2011-12-20T14:06:42Z</time>
      </trkpt>
      <trkpt lat="46.29212" lon="-0.53019">
        <ele>67</ele>
        <time>2011-12-20T14:06:47Z</time>
      </trkpt>
      <trkpt lat="46.29209" lon="-0.53019">
        <ele>68</ele>
        <time>2011-12-20T14:06:52Z</time>
      </trkpt>
      <trkpt lat="46.29201" lon="-0.53019">
        <ele>66</ele>
        <time>2011-12-20T14:06:57Z</time>
      </trkpt>
      <trkpt lat="46.29192" lon="-0.5302">
        <ele>66</ele>
        <time>2011-12-20T14:07:02Z</time>
      </trkpt>
      <trkpt lat="46.2919" lon="-0.53025">
        <ele>66</ele>
        <time>2011-12-20T14:07:07Z</time>
      </trkpt>
      <trkpt lat="46.29183" lon="-0.53031">
        <ele>68</ele>
        <time>2011-12-20T14:07:12Z</time>
      </trkpt>
      <trkpt lat="46.29187" lon="-0.5304">
        <ele>68</ele>
        <time>2011-12-20T14:07:17Z</time>
      </trkpt>
      <trkpt lat="46.29189" lon="-0.53048">
        <ele>69</ele>
        <time>2011-12-20T14:07:22Z</time>
      </trkpt>
      <trkpt lat="46.29192" lon="-0.53056">
        <ele>71</ele>
        <time>2011-12-20T14:07:27Z</time>
      </trkpt>
      <trkpt lat="46.29194" lon="-0.53068">
        <ele>75</ele>
        <time>2011-12-20T14:07:32Z</time>
      </trkpt>
      <trkpt lat="46.29197" lon="-0.53077">
        <ele>76</ele>
        <time>2011-12-20T14:07:37Z</time>
      </trkpt>
      <trkpt lat="46.29197" lon="-0.5308">
        <ele>72</ele>
        <time>2011-12-20T14:07:42Z</time>
      </trkpt>
      <trkpt lat="46.292" lon="-0.53087">
        <ele>71</ele>
        <time>2011-12-20T14:07:47Z</time>
      </trkpt>
      <trkpt lat="46.29201" lon="-0.53095">
        <ele>73</ele>
        <time>2011-12-20T14:07:52Z</time>
      </trkpt>
      <trkpt lat="46.29203" lon="-0.53102">
        <ele>73</ele>
        <time>2011-12-20T14:07:57Z</time>
      </trkpt>
      <trkpt lat="46.29205" lon="-0.53111">
        <ele>74</ele>
        <time>2011-12-20T14:08:02Z</time>
      </trkpt>
      <trkpt lat="46.29207" lon="-0.53118">
        <ele>74</ele>
        <time>2011-12-20T14:08:07Z</time>
      </trkpt>
      <trkpt lat="46.29207" lon="-0.53128">
        <ele>73</ele>
        <time>2011-12-20T14:08:12Z</time>
      </trkpt>
      <trkpt lat="46.29208" lon="-0.53129">
        <ele>73</ele>
        <time>2011-12-20T14:08:17Z</time>
      </trkpt>
      <trkpt lat="46.29209" lon="-0.53131">
        <ele>73</ele>
        <time>2011-12-20T14:08:22Z</time>
      </trkpt>
      <trkpt lat="46.29211" lon="-0.53132">
        <ele>70</ele>
        <time>2011-12-20T14:08:27Z</time>
      </trkpt>
      <trkpt lat="46.29211" lon="-0.53132">
        <ele>69</ele>
        <time>2011-12-20T14:08:32Z</time>
      </trkpt>
      <trkpt lat="46.29212" lon="-0.53134">
        <ele>69</ele>
        <time>2011-12-20T14:08:37Z</time>
      </trkpt>
      <trkpt lat="46.29213" lon="-0.53139">
        <ele>68</ele>
        <time>2011-12-20T14:08:42Z</time>
      </trkpt>
      <trkpt lat="46.29215" lon="-0.53147">
        <ele>69</ele>
        <time>2011-12-20T14:08:47Z</time>
      </trkpt>
      <trkpt lat="46.29217" lon="-0.53154">
        <ele>71</ele>
        <time>2011-12-20T14:08:52Z</time>
      </trkpt>
      <trkpt lat="46.29219" lon="-0.53163">
        <ele>73</ele>
        <time>2011-12-20T14:08:57Z</time>
      </trkpt>
      <trkpt lat="46.29221" lon="-0.53169">
        <ele>71</ele>
        <time>2011-12-20T14:09:02Z</time>
      </trkpt>
      <trkpt lat="46.29222" lon="-0.53176">
        <ele>70</ele>
        <time>2011-12-20T14:09:07Z</time>
      </trkpt>
      <trkpt lat="46.29226" lon="-0.53183">
        <ele>69</ele>
        <time>2011-12-20T14:09:12Z</time>
      </trkpt>
      <trkpt lat="46.29225" lon="-0.5319">
        <ele>69</ele>
        <time>2011-12-20T14:09:17Z</time>
      </trkpt>
      <trkpt lat="46.29226" lon="-0.53194">
        <ele>65</ele>
        <time>2011-12-20T14:09:22Z</time>
      </trkpt>
      <trkpt lat="46.29228" lon="-0.53204">
        <ele>67</ele>
        <time>2011-12-20T14:09:27Z</time>
      </trkpt>
      <trkpt lat="46.29232" lon="-0.53211">
        <ele>67</ele>
        <time>2011-12-20T14:09:32Z</time>
      </trkpt>
      <trkpt lat="46.29233" lon="-0.5321">
        <ele>62</ele>
        <time>2011-12-20T14:09:37Z</time>
      </trkpt>
      <trkpt lat="46.29236" lon="-0.53218">
        <ele>63</ele>
        <time>2011-12-20T14:09:42Z</time>
      </trkpt>
      <trkpt lat="46.29238" lon="-0.53228">
        <ele>66</ele>
        <time>2011-12-20T14:09:47Z</time>
      </trkpt>
      <trkpt lat="46.2924" lon="-0.53236">
        <ele>67</ele>
        <time>2011-12-20T14:09:52Z</time>
      </trkpt>
      <trkpt lat="46.29244" lon="-0.53246">
        <ele>69</ele>
        <time>2011-12-20T14:09:57Z</time>
      </trkpt>
      <trkpt lat="46.29245" lon="-0.53257">
        <ele>69</ele>
        <time>2011-12-20T14:10:02Z</time>
      </trkpt>
      <trkpt lat="46.29244" lon="-0.53264">
        <ele>69</ele>
        <time>2011-12-20T14:10:07Z</time>
      </trkpt>
      <trkpt lat="46.29242" lon="-0.53269">
        <ele>68</ele>
        <time>2011-12-20T14:10:12Z</time>
      </trkpt>
      <trkpt lat="46.29241" lon="-0.53276">
        <ele>67</ele>
        <time>2011-12-20T14:10:17Z</time>
      </trkpt>
      <trkpt lat="46.29234" lon="-0.5328">
        <ele>67</ele>
        <time>2011-12-20T14:10:22Z</time>
      </trkpt>
      <trkpt lat="46.29228" lon="-0.5328">
        <ele>68</ele>
        <time>2011-12-20T14:10:27Z</time>
      </trkpt>
      <trkpt lat="46.29223" lon="-0.53279">
        <ele>70</ele>
        <time>2011-12-20T14:10:32Z</time>
      </trkpt>
      <trkpt lat="46.29219" lon="-0.53279">
        <ele>70</ele>
        <time>2011-12-20T14:10:37Z</time>
      </trkpt>
      <trkpt lat="46.29214" lon="-0.53278">
        <ele>69</ele>
        <time>2011-12-20T14:10:42Z</time>
      </trkpt>
      <trkpt lat="46.29208" lon="-0.53279">
        <ele>71</ele>
        <time>2011-12-20T14:10:47Z</time>
      </trkpt>
      <trkpt lat="46.29203" lon="-0.53283">
        <ele>70</ele>
        <time>2011-12-20T14:10:52Z</time>
      </trkpt>
      <trkpt lat="46.29203" lon="-0.53289">
        <ele>69</ele>
        <time>2011-12-20T14:10:57Z</time>
      </trkpt>
      <trkpt lat="46.29201" lon="-0.53294">
        <ele>70</ele>
        <time>2011-12-20T14:11:02Z</time>
      </trkpt>
      <trkpt lat="46.292" lon="-0.53302">
        <ele>70</ele>
        <time>2011-12-20T14:11:07Z</time>
      </trkpt>
      <trkpt lat="46.292" lon="-0.53309">
        <ele>70</ele>
        <time>2011-12-20T14:11:12Z</time>
      </trkpt>
      <trkpt lat="46.29198" lon="-0.53317">
        <ele>69</ele>
        <time>2011-12-20T14:11:17Z</time>
      </trkpt>
      <trkpt lat="46.29196" lon="-0.53326">
        <ele>70</ele>
        <time>2011-12-20T14:11:22Z</time>
      </trkpt>
      <trkpt lat="46.29192" lon="-0.53331">
        <ele>69</ele>
        <time>2011-12-20T14:11:27Z</time>
      </trkpt>
      <trkpt lat="46.29188" lon="-0.53342">
        <ele>70</ele>
        <time>2011-12-20T14:11:32Z</time>
      </trkpt>
      <trkpt lat="46.29186" lon="-0.53351">
        <ele>70</ele>
        <time>2011-12-20T14:11:37Z</time>
      </trkpt>
      <trkpt lat="46.29185" lon="-0.53357">
        <ele>71</ele>
        <time>2011-12-20T14:11:42Z</time>
      </trkpt>
      <trkpt lat="46.29184" lon="-0.53363">
        <ele>70</ele>
        <time>2011-12-20T14:11:47Z</time>
      </trkpt>
      <trkpt lat="46.29183" lon="-0.5337">
        <ele>70</ele>
        <time>2011-12-20T14:11:52Z</time>
      </trkpt>
      <trkpt lat="46.29182" lon="-0.53376">
        <ele>70</ele>
        <time>2011-12-20T14:11:57Z</time>
      </trkpt>
      <trkpt lat="46.29178" lon="-0.53383">
        <ele>68</ele>
        <time>2011-12-20T14:12:02Z</time>
      </trkpt>
      <trkpt lat="46.29177" lon="-0.53392">
        <ele>69</ele>
        <time>2011-12-20T14:12:07Z</time>
      </trkpt>
      <trkpt lat="46.29176" lon="-0.53398">
        <ele>69</ele>
        <time>2011-12-20T14:12:12Z</time>
      </trkpt>
      <trkpt lat="46.29173" lon="-0.53406">
        <ele>69</ele>
        <time>2011-12-20T14:12:17Z</time>
      </trkpt>
      <trkpt lat="46.29172" lon="-0.53412">
        <ele>69</ele>
        <time>2011-12-20T14:12:22Z</time>
      </trkpt>
      <trkpt lat="46.29171" lon="-0.53419">
        <ele>70</ele>
        <time>2011-12-20T14:12:27Z</time>
      </trkpt>
      <trkpt lat="46.29169" lon="-0.53424">
        <ele>68</ele>
        <time>2011-12-20T14:12:32Z</time>
      </trkpt>
      <trkpt lat="46.29166" lon="-0.53428">
        <ele>68</ele>
        <time>2011-12-20T14:12:37Z</time>
      </trkpt>
      <trkpt lat="46.29164" lon="-0.53434">
        <ele>66</ele>
        <time>2011-12-20T14:12:42Z</time>
      </trkpt>
      <trkpt lat="46.29162" lon="-0.53443">
        <ele>67</ele>
        <time>2011-12-20T14:12:47Z</time>
      </trkpt>
      <trkpt lat="46.29162" lon="-0.53451">
        <ele>66</ele>
        <time>2011-12-20T14:12:52Z</time>
      </trkpt>
      <trkpt lat="46.2916" lon="-0.53457">
        <ele>66</ele>
        <time>2011-12-20T14:12:57Z</time>
      </trkpt>
      <trkpt lat="46.29156" lon="-0.53461">
        <ele>65</ele>
        <time>2011-12-20T14:13:02Z</time>
      </trkpt>
      <trkpt lat="46.29155" lon="-0.53472">
        <ele>67</ele>
        <time>2011-12-20T14:13:07Z</time>
      </trkpt>
      <trkpt lat="46.29152" lon="-0.5348">
        <ele>64</ele>
        <time>2011-12-20T14:13:12Z</time>
      </trkpt>
      <trkpt lat="46.29149" lon="-0.53487">
        <ele>65</ele>
        <time>2011-12-20T14:13:17Z</time>
      </trkpt>
      <trkpt lat="46.29146" lon="-0.53493">
        <ele>62</ele>
        <time>2011-12-20T14:13:22Z</time>
      </trkpt>
      <trkpt lat="46.29145" lon="-0.53499">
        <ele>62</ele>
        <time>2011-12-20T14:13:27Z</time>
      </trkpt>
      <trkpt lat="46.29145" lon="-0.53505">
        <ele>62</ele>
        <time>2011-12-20T14:13:32Z</time>
      </trkpt>
      <trkpt lat="46.29143" lon="-0.53514">
        <ele>61</ele>
        <time>2011-12-20T14:13:37Z</time>
      </trkpt>
      <trkpt lat="46.2914" lon="-0.53526">
        <ele>61</ele>
        <time>2011-12-20T14:13:42Z</time>
      </trkpt>
      <trkpt lat="46.29139" lon="-0.53531">
        <ele>61</ele>
        <time>2011-12-20T14:13:47Z</time>
      </trkpt>
      <trkpt lat="46.29137" lon="-0.53537">
        <ele>62</ele>
        <time>2011-12-20T14:13:52Z</time>
      </trkpt>
      <trkpt lat="46.29135" lon="-0.53548">
        <ele>62</ele>
        <time>2011-12-20T14:13:57Z</time>
      </trkpt>
      <trkpt lat="46.29132" lon="-0.53555">
        <ele>63</ele>
        <time>2011-12-20T14:14:02Z</time>
      </trkpt>
      <trkpt lat="46.29129" lon="-0.53562">
        <ele>63</ele>
        <time>2011-12-20T14:14:07Z</time>
      </trkpt>
      <trkpt lat="46.29126" lon="-0.53572">
        <ele>66</ele>
        <time>2011-12-20T14:14:12Z</time>
      </trkpt>
      <trkpt lat="46.29123" lon="-0.53578">
        <ele>66</ele>
        <time>2011-12-20T14:14:17Z</time>
      </trkpt>
      <trkpt lat="46.29121" lon="-0.53582">
        <ele>64</ele>
        <time>2011-12-20T14:14:22Z</time>
      </trkpt>
      <trkpt lat="46.2912" lon="-0.53589">
        <ele>63</ele>
        <time>2011-12-20T14:14:27Z</time>
      </trkpt>
      <trkpt lat="46.29119" lon="-0.53597">
        <ele>64</ele>
        <time>2011-12-20T14:14:32Z</time>
      </trkpt>
      <trkpt lat="46.29117" lon="-0.53605">
        <ele>64</ele>
        <time>2011-12-20T14:14:37Z</time>
      </trkpt>
      <trkpt lat="46.29116" lon="-0.53609">
        <ele>63</ele>
        <time>2011-12-20T14:14:42Z</time>
      </trkpt>
      <trkpt lat="46.29114" lon="-0.53621">
        <ele>66</ele>
        <time>2011-12-20T14:14:47Z</time>
      </trkpt>
      <trkpt lat="46.29112" lon="-0.53626">
        <ele>64</ele>
        <time>2011-12-20T14:14:52Z</time>
      </trkpt>
      <trkpt lat="46.2911" lon="-0.53632">
        <ele>64</ele>
        <time>2011-12-20T14:14:57Z</time>
      </trkpt>
      <trkpt lat="46.29108" lon="-0.5364">
        <ele>64</ele>
        <time>2011-12-20T14:15:02Z</time>
      </trkpt>
      <trkpt lat="46.29105" lon="-0.5365">
        <ele>63</ele>
        <time>2011-12-20T14:15:07Z</time>
      </trkpt>
      <trkpt lat="46.29102" lon="-0.53655">
        <ele>65</ele>
        <time>2011-12-20T14:15:12Z</time>
      </trkpt>
      <trkpt lat="46.291" lon="-0.53663">
        <ele>64</ele>
        <time>2011-12-20T14:15:17Z</time>
      </trkpt>
      <trkpt lat="46.29096" lon="-0.5367">
        <ele>67</ele>
        <time>2011-12-20T14:15:22Z</time>
      </trkpt>
      <trkpt lat="46.29096" lon="-0.53681">
        <ele>68</ele>
        <time>2011-12-20T14:15:27Z</time>
      </trkpt>
      <trkpt lat="46.29093" lon="-0.53687">
        <ele>68</ele>
        <time>2011-12-20T14:15:32Z</time>
      </trkpt>
      <trkpt lat="46.29092" lon="-0.53695">
        <ele>66</ele>
        <time>2011-12-20T14:15:37Z</time>
      </trkpt>
      <trkpt lat="46.2909" lon="-0.53699">
        <ele>65</ele>
        <time>2011-12-20T14:15:42Z</time>
      </trkpt>
      <trkpt lat="46.29093" lon="-0.53704">
        <ele>65</ele>
        <time>2011-12-20T14:15:47Z</time>
      </trkpt>
      <trkpt lat="46.29099" lon="-0.5371">
        <ele>64</ele>
        <time>2011-12-20T14:15:52Z</time>
      </trkpt>
      <trkpt lat="46.29105" lon="-0.53716">
        <ele>64</ele>
        <time>2011-12-20T14:15:57Z</time>
      </trkpt>
      <trkpt lat="46.29111" lon="-0.5372">
        <ele>64</ele>
        <time>2011-12-20T14:16:02Z</time>
      </trkpt>
      <trkpt lat="46.29116" lon="-0.53724">
        <ele>64</ele>
        <time>2011-12-20T14:16:07Z</time>
      </trkpt>
      <trkpt lat="46.2912" lon="-0.53724">
        <ele>61</ele>
        <time>2011-12-20T14:16:12Z</time>
      </trkpt>
      <trkpt lat="46.29124" lon="-0.53726">
        <ele>62</ele>
        <time>2011-12-20T14:16:17Z</time>
      </trkpt>
      <trkpt lat="46.2913" lon="-0.53727">
        <ele>63</ele>
        <time>2011-12-20T14:16:22Z</time>
      </trkpt>
      <trkpt lat="46.29137" lon="-0.53731">
        <ele>63</ele>
        <time>2011-12-20T14:16:27Z</time>
      </trkpt>
      <trkpt lat="46.29141" lon="-0.53736">
        <ele>65</ele>
        <time>2011-12-20T14:16:32Z</time>
      </trkpt>
      <trkpt lat="46.29145" lon="-0.53736">
        <ele>64</ele>
        <time>2011-12-20T14:16:37Z</time>
      </trkpt>
      <trkpt lat="46.29148" lon="-0.53739">
        <ele>64</ele>
        <time>2011-12-20T14:16:42Z</time>
      </trkpt>
      <trkpt lat="46.29156" lon="-0.53746">
        <ele>64</ele>
        <time>2011-12-20T14:16:47Z</time>
      </trkpt>
      <trkpt lat="46.29161" lon="-0.53746">
        <ele>64</ele>
        <time>2011-12-20T14:16:52Z</time>
      </trkpt>
      <trkpt lat="46.29167" lon="-0.53749">
        <ele>64</ele>
        <time>2011-12-20T14:16:57Z</time>
      </trkpt>
      <trkpt lat="46.29172" lon="-0.53753">
        <ele>65</ele>
        <time>2011-12-20T14:17:02Z</time>
      </trkpt>
      <trkpt lat="46.29177" lon="-0.53755">
        <ele>65</ele>
        <time>2011-12-20T14:17:07Z</time>
      </trkpt>
      <trkpt lat="46.29182" lon="-0.53758">
        <ele>65</ele>
        <time>2011-12-20T14:17:12Z</time>
      </trkpt>
      <trkpt lat="46.29187" lon="-0.5376">
        <ele>65</ele>
        <time>2011-12-20T14:17:17Z</time>
      </trkpt>
      <trkpt lat="46.29192" lon="-0.53763">
        <ele>65</ele>
        <time>2011-12-20T14:17:22Z</time>
      </trkpt>
      <trkpt lat="46.29199" lon="-0.53766">
        <ele>64</ele>
        <time>2011-12-20T14:17:27Z</time>
      </trkpt>
      <trkpt lat="46.29207" lon="-0.5377">
        <ele>63</ele>
        <time>2011-12-20T14:17:32Z</time>
      </trkpt>
      <trkpt lat="46.29215" lon="-0.53776">
        <ele>67</ele>
        <time>2011-12-20T14:17:37Z</time>
      </trkpt>
      <trkpt lat="46.2922" lon="-0.53776">
        <ele>64</ele>
        <time>2011-12-20T14:17:42Z</time>
      </trkpt>
      <trkpt lat="46.29226" lon="-0.53778">
        <ele>64</ele>
        <time>2011-12-20T14:17:47Z</time>
      </trkpt>
      <trkpt lat="46.29233" lon="-0.53783">
        <ele>65</ele>
        <time>2011-12-20T14:17:52Z</time>
      </trkpt>
      <trkpt lat="46.29238" lon="-0.53786">
        <ele>63</ele>
        <time>2011-12-20T14:17:57Z</time>
      </trkpt>
      <trkpt lat="46.29243" lon="-0.53787">
        <ele>61</ele>
        <time>2011-12-20T14:18:02Z</time>
      </trkpt>
      <trkpt lat="46.29249" lon="-0.53793">
        <ele>62</ele>
        <time>2011-12-20T14:18:07Z</time>
      </trkpt>
      <trkpt lat="46.29254" lon="-0.53798">
        <ele>63</ele>
        <time>2011-12-20T14:18:12Z</time>
      </trkpt>
      <trkpt lat="46.2926" lon="-0.53802">
        <ele>64</ele>
        <time>2011-12-20T14:18:17Z</time>
      </trkpt>
      <trkpt lat="46.29265" lon="-0.53802">
        <ele>62</ele>
        <time>2011-12-20T14:18:22Z</time>
      </trkpt>
      <trkpt lat="46.29272" lon="-0.53806">
        <ele>61</ele>
        <time>2011-12-20T14:18:27Z</time>
      </trkpt>
      <trkpt lat="46.29279" lon="-0.53808">
        <ele>59</ele>
        <time>2011-12-20T14:18:32Z</time>
      </trkpt>
      <trkpt lat="46.29284" lon="-0.53814">
        <ele>57</ele>
        <time>2011-12-20T14:18:37Z</time>
      </trkpt>
      <trkpt lat="46.29291" lon="-0.53814">
        <ele>58</ele>
        <time>2011-12-20T14:18:42Z</time>
      </trkpt>
      <trkpt lat="46.29296" lon="-0.5382">
        <ele>59</ele>
        <time>2011-12-20T14:18:47Z</time>
      </trkpt>
      <trkpt lat="46.29301" lon="-0.53823">
        <ele>58</ele>
        <time>2011-12-20T14:18:52Z</time>
      </trkpt>
      <trkpt lat="46.29306" lon="-0.53824">
        <ele>58</ele>
        <time>2011-12-20T14:18:57Z</time>
      </trkpt>
      <trkpt lat="46.29311" lon="-0.53825">
        <ele>58</ele>
        <time>2011-12-20T14:19:02Z</time>
      </trkpt>
      <trkpt lat="46.29315" lon="-0.53828">
        <ele>59</ele>
        <time>2011-12-20T14:19:07Z</time>
      </trkpt>
      <trkpt lat="46.29318" lon="-0.5383">
        <ele>56</ele>
        <time>2011-12-20T14:19:12Z</time>
      </trkpt>
      <trkpt lat="46.29325" lon="-0.53834">
        <ele>54</ele>
        <time>2011-12-20T14:19:17Z</time>
      </trkpt>
      <trkpt lat="46.2933" lon="-0.53836">
        <ele>54</ele>
        <time>2011-12-20T14:19:22Z</time>
      </trkpt>
      <trkpt lat="46.29336" lon="-0.53841">
        <ele>54</ele>
        <time>2011-12-20T14:19:27Z</time>
      </trkpt>
      <trkpt lat="46.29341" lon="-0.53843">
        <ele>52</ele>
        <time>2011-12-20T14:19:32Z</time>
      </trkpt>
      <trkpt lat="46.29347" lon="-0.53846">
        <ele>53</ele>
        <time>2011-12-20T14:19:37Z</time>
      </trkpt>
      <trkpt lat="46.29352" lon="-0.5385">
        <ele>52</ele>
        <time>2011-12-20T14:19:42Z</time>
      </trkpt>
      <trkpt lat="46.29355" lon="-0.53856">
        <ele>51</ele>
        <time>2011-12-20T14:19:47Z</time>
      </trkpt>
      <trkpt lat="46.29357" lon="-0.5386">
        <ele>49</ele>
        <time>2011-12-20T14:19:52Z</time>
      </trkpt>
      <trkpt lat="46.29358" lon="-0.53867">
        <ele>49</ele>
        <time>2011-12-20T14:19:57Z</time>
      </trkpt>
      <trkpt lat="46.29357" lon="-0.53876">
        <ele>47</ele>
        <time>2011-12-20T14:20:02Z</time>
      </trkpt>
      <trkpt lat="46.29354" lon="-0.53884">
        <ele>47</ele>
        <time>2011-12-20T14:20:07Z</time>
      </trkpt>
      <trkpt lat="46.29351" lon="-0.53891">
        <ele>49</ele>
        <time>2011-12-20T14:20:12Z</time>
      </trkpt>
      <trkpt lat="46.29351" lon="-0.53902">
        <ele>49</ele>
        <time>2011-12-20T14:20:17Z</time>
      </trkpt>
      <trkpt lat="46.29349" lon="-0.53912">
        <ele>51</ele>
        <time>2011-12-20T14:20:22Z</time>
      </trkpt>
      <trkpt lat="46.29348" lon="-0.53921">
        <ele>51</ele>
        <time>2011-12-20T14:20:27Z</time>
      </trkpt>
      <trkpt lat="46.29345" lon="-0.53925">
        <ele>54</ele>
        <time>2011-12-20T14:20:32Z</time>
      </trkpt>
      <trkpt lat="46.29344" lon="-0.53933">
        <ele>52</ele>
        <time>2011-12-20T14:20:37Z</time>
      </trkpt>
      <trkpt lat="46.29343" lon="-0.53942">
        <ele>51</ele>
        <time>2011-12-20T14:20:42Z</time>
      </trkpt>
      <trkpt lat="46.29341" lon="-0.53949">
        <ele>53</ele>
        <time>2011-12-20T14:20:47Z</time>
      </trkpt>
      <trkpt lat="46.29339" lon="-0.53957">
        <ele>53</ele>
        <time>2011-12-20T14:20:52Z</time>
      </trkpt>
      <trkpt lat="46.29336" lon="-0.53966">
        <ele>53</ele>
        <time>2011-12-20T14:20:57Z</time>
      </trkpt>
      <trkpt lat="46.29335" lon="-0.53975">
        <ele>56</ele>
        <time>2011-12-20T14:21:02Z</time>
      </trkpt>
      <trkpt lat="46.29334" lon="-0.53983">
        <ele>56</ele>
        <time>2011-12-20T14:21:07Z</time>
      </trkpt>
      <trkpt lat="46.29333" lon="-0.5399">
        <ele>56</ele>
        <time>2011-12-20T14:21:12Z</time>
      </trkpt>
      <trkpt lat="46.29333" lon="-0.53998">
        <ele>56</ele>
        <time>2011-12-20T14:21:17Z</time>
      </trkpt>
      <trkpt lat="46.29332" lon="-0.54006">
        <ele>55</ele>
        <time>2011-12-20T14:21:22Z</time>
      </trkpt>
      <trkpt lat="46.29332" lon="-0.54014">
        <ele>54</ele>
        <time>2011-12-20T14:21:27Z</time>
      </trkpt>
      <trkpt lat="46.29332" lon="-0.54021">
        <ele>55</ele>
        <time>2011-12-20T14:21:32Z</time>
      </trkpt>
      <trkpt lat="46.2933" lon="-0.54029">
        <ele>54</ele>
        <time>2011-12-20T14:21:37Z</time>
      </trkpt>
      <trkpt lat="46.29329" lon="-0.54037">
        <ele>55</ele>
        <time>2011-12-20T14:21:42Z</time>
      </trkpt>
      <trkpt lat="46.29326" lon="-0.54046">
        <ele>58</ele>
        <time>2011-12-20T14:21:47Z</time>
      </trkpt>
      <trkpt lat="46.29327" lon="-0.54053">
        <ele>58</ele>
        <time>2011-12-20T14:21:52Z</time>
      </trkpt>
      <trkpt lat="46.29326" lon="-0.54062">
        <ele>54</ele>
        <time>2011-12-20T14:21:57Z</time>
      </trkpt>
      <trkpt lat="46.29323" lon="-0.54069">
        <ele>53</ele>
        <time>2011-12-20T14:22:02Z</time>
      </trkpt>
      <trkpt lat="46.29322" lon="-0.54078">
        <ele>54</ele>
        <time>2011-12-20T14:22:07Z</time>
      </trkpt>
      <trkpt lat="46.2932" lon="-0.5409">
        <ele>55</ele>
        <time>2011-12-20T14:22:12Z</time>
      </trkpt>
      <trkpt lat="46.29317" lon="-0.54095">
        <ele>58</ele>
        <time>2011-12-20T14:22:17Z</time>
      </trkpt>
      <trkpt lat="46.29316" lon="-0.54103">
        <ele>58</ele>
        <time>2011-12-20T14:22:22Z</time>
      </trkpt>
      <trkpt lat="46.29316" lon="-0.54109">
        <ele>57</ele>
        <time>2011-12-20T14:22:27Z</time>
      </trkpt>
      <trkpt lat="46.29315" lon="-0.54119">
        <ele>55</ele>
        <time>2011-12-20T14:22:32Z</time>
      </trkpt>
      <trkpt lat="46.29316" lon="-0.54127">
        <ele>55</ele>
        <time>2011-12-20T14:22:37Z</time>
      </trkpt>
      <trkpt lat="46.29314" lon="-0.54134">
        <ele>54</ele>
        <time>2011-12-20T14:22:42Z</time>
      </trkpt>
      <trkpt lat="46.29311" lon="-0.54143">
        <ele>54</ele>
        <time>2011-12-20T14:22:47Z</time>
      </trkpt>
      <trkpt lat="46.2931" lon="-0.54153">
        <ele>54</ele>
        <time>2011-12-20T14:22:52Z</time>
      </trkpt>
      <trkpt lat="46.29307" lon="-0.54161">
        <ele>56</ele>
        <time>2011-12-20T14:22:57Z</time>
      </trkpt>
      <trkpt lat="46.29306" lon="-0.54172">
        <ele>54</ele>
        <time>2011-12-20T14:23:02Z</time>
      </trkpt>
      <trkpt lat="46.29305" lon="-0.54179">
        <ele>54</ele>
        <time>2011-12-20T14:23:07Z</time>
      </trkpt>
      <trkpt lat="46.29305" lon="-0.54187">
        <ele>55</ele>
        <time>2011-12-20T14:23:12Z</time>
      </trkpt>
      <trkpt lat="46.29303" lon="-0.54196">
        <ele>55</ele>
        <time>2011-12-20T14:23:17Z</time>
      </trkpt>
      <trkpt lat="46.29301" lon="-0.54202">
        <ele>55</ele>
        <time>2011-12-20T14:23:22Z</time>
      </trkpt>
      <trkpt lat="46.29299" lon="-0.54211">
        <ele>54</ele>
        <time>2011-12-20T14:23:27Z</time>
      </trkpt>
      <trkpt lat="46.29299" lon="-0.54219">
        <ele>55</ele>
        <time>2011-12-20T14:23:32Z</time>
      </trkpt>
      <trkpt lat="46.29299" lon="-0.54225">
        <ele>52</ele>
        <time>2011-12-20T14:23:37Z</time>
      </trkpt>
      <trkpt lat="46.29298" lon="-0.54233">
        <ele>50</ele>
        <time>2011-12-20T14:23:42Z</time>
      </trkpt>
      <trkpt lat="46.29297" lon="-0.54242">
        <ele>50</ele>
        <time>2011-12-20T14:23:47Z</time>
      </trkpt>
      <trkpt lat="46.29296" lon="-0.5425">
        <ele>50</ele>
        <time>2011-12-20T14:23:52Z</time>
      </trkpt>
      <trkpt lat="46.29293" lon="-0.54258">
        <ele>51</ele>
        <time>2011-12-20T14:23:57Z</time>
      </trkpt>
      <trkpt lat="46.29291" lon="-0.54267">
        <ele>51</ele>
        <time>2011-12-20T14:24:02Z</time>
      </trkpt>
      <trkpt lat="46.29292" lon="-0.54279">
        <ele>48</ele>
        <time>2011-12-20T14:24:07Z</time>
      </trkpt>
      <trkpt lat="46.29292" lon="-0.54287">
        <ele>46</ele>
        <time>2011-12-20T14:24:12Z</time>
      </trkpt>
      <trkpt lat="46.2929" lon="-0.54294">
        <ele>46</ele>
        <time>2011-12-20T14:24:17Z</time>
      </trkpt>
      <trkpt lat="46.29289" lon="-0.54299">
        <ele>46</ele>
        <time>2011-12-20T14:24:22Z</time>
      </trkpt>
      <trkpt lat="46.2929" lon="-0.5431">
        <ele>46</ele>
        <time>2011-12-20T14:24:27Z</time>
      </trkpt>
      <trkpt lat="46.29286" lon="-0.54321">
        <ele>47</ele>
        <time>2011-12-20T14:24:32Z</time>
      </trkpt>
      <trkpt lat="46.29284" lon="-0.54329">
        <ele>47</ele>
        <time>2011-12-20T14:24:37Z</time>
      </trkpt>
      <trkpt lat="46.29284" lon="-0.54335">
        <ele>47</ele>
        <time>2011-12-20T14:24:42Z</time>
      </trkpt>
      <trkpt lat="46.29283" lon="-0.54342">
        <ele>48</ele>
        <time>2011-12-20T14:24:47Z</time>
      </trkpt>
      <trkpt lat="46.2928" lon="-0.54349">
        <ele>52</ele>
        <time>2011-12-20T14:24:52Z</time>
      </trkpt>
      <trkpt lat="46.29279" lon="-0.54358">
        <ele>51</ele>
        <time>2011-12-20T14:24:57Z</time>
      </trkpt>
      <trkpt lat="46.29278" lon="-0.54367">
        <ele>52</ele>
        <time>2011-12-20T14:25:02Z</time>
      </trkpt>
      <trkpt lat="46.29276" lon="-0.54374">
        <ele>53</ele>
        <time>2011-12-20T14:25:07Z</time>
      </trkpt>
      <trkpt lat="46.29273" lon="-0.54381">
        <ele>56</ele>
        <time>2011-12-20T14:25:12Z</time>
      </trkpt>
      <trkpt lat="46.29276" lon="-0.54388">
        <ele>53</ele>
        <time>2011-12-20T14:25:17Z</time>
      </trkpt>
      <trkpt lat="46.29272" lon="-0.54398">
        <ele>52</ele>
        <time>2011-12-20T14:25:22Z</time>
      </trkpt>
      <trkpt lat="46.29272" lon="-0.54405">
        <ele>52</ele>
        <time>2011-12-20T14:25:27Z</time>
      </trkpt>
      <trkpt lat="46.2927" lon="-0.54412">
        <ele>53</ele>
        <time>2011-12-20T14:25:32Z</time>
      </trkpt>
      <trkpt lat="46.29269" lon="-0.54419">
        <ele>52</ele>
        <time>2011-12-20T14:25:37Z</time>
      </trkpt>
      <trkpt lat="46.29269" lon="-0.54428">
        <ele>50</ele>
        <time>2011-12-20T14:25:42Z</time>
      </trkpt>
      <trkpt lat="46.29267" lon="-0.54438">
        <ele>50</ele>
        <time>2011-12-20T14:25:47Z</time>
      </trkpt>
      <trkpt lat="46.29267" lon="-0.54446">
        <ele>51</ele>
        <time>2011-12-20T14:25:52Z</time>
      </trkpt>
      <trkpt lat="46.29266" lon="-0.54452">
        <ele>51</ele>
        <time>2011-12-20T14:25:57Z</time>
      </trkpt>
      <trkpt lat="46.29264" lon="-0.54463">
        <ele>52</ele>
        <time>2011-12-20T14:26:02Z</time>
      </trkpt>
      <trkpt lat="46.29263" lon="-0.54471">
        <ele>52</ele>
        <time>2011-12-20T14:26:07Z</time>
      </trkpt>
      <trkpt lat="46.29259" lon="-0.54479">
        <ele>53</ele>
        <time>2011-12-20T14:26:12Z</time>
      </trkpt>
      <trkpt lat="46.29258" lon="-0.54486">
        <ele>53</ele>
        <time>2011-12-20T14:26:17Z</time>
      </trkpt>
      <trkpt lat="46.29257" lon="-0.54495">
        <ele>54</ele>
        <time>2011-12-20T14:26:22Z</time>
      </trkpt>
      <trkpt lat="46.29257" lon="-0.54502">
        <ele>53</ele>
        <time>2011-12-20T14:26:27Z</time>
      </trkpt>
      <trkpt lat="46.29254" lon="-0.54509">
        <ele>55</ele>
        <time>2011-12-20T14:26:32Z</time>
      </trkpt>
      <trkpt lat="46.29249" lon="-0.5452">
        <ele>55</ele>
        <time>2011-12-20T14:26:37Z</time>
      </trkpt>
      <trkpt lat="46.29246" lon="-0.54531">
        <ele>55</ele>
        <time>2011-12-20T14:26:42Z</time>
      </trkpt>
      <trkpt lat="46.2925" lon="-0.5454">
        <ele>56</ele>
        <time>2011-12-20T14:26:47Z</time>
      </trkpt>
      <trkpt lat="46.29245" lon="-0.54543">
        <ele>58</ele>
        <time>2011-12-20T14:26:52Z</time>
      </trkpt>
      <trkpt lat="46.29243" lon="-0.5455">
        <ele>61</ele>
        <time>2011-12-20T14:26:57Z</time>
      </trkpt>
      <trkpt lat="46.29242" lon="-0.54558">
        <ele>61</ele>
        <time>2011-12-20T14:27:02Z</time>
      </trkpt>
      <trkpt lat="46.29242" lon="-0.54565">
        <ele>62</ele>
        <time>2011-12-20T14:27:07Z</time>
      </trkpt>
      <trkpt lat="46.2924" lon="-0.54574">
        <ele>64</ele>
        <time>2011-12-20T14:27:12Z</time>
      </trkpt>
      <trkpt lat="46.29236" lon="-0.54581">
        <ele>66</ele>
        <time>2011-12-20T14:27:17Z</time>
      </trkpt>
      <trkpt lat="46.29239" lon="-0.5459">
        <ele>64</ele>
        <time>2011-12-20T14:27:22Z</time>
      </trkpt>
      <trkpt lat="46.29236" lon="-0.546">
        <ele>64</ele>
        <time>2011-12-20T14:27:27Z</time>
      </trkpt>
      <trkpt lat="46.29238" lon="-0.54611">
        <ele>63</ele>
        <time>2011-12-20T14:27:32Z</time>
      </trkpt>
      <trkpt lat="46.29237" lon="-0.54618">
        <ele>61</ele>
        <time>2011-12-20T14:27:37Z</time>
      </trkpt>
      <trkpt lat="46.29235" lon="-0.54626">
        <ele>56</ele>
        <time>2011-12-20T14:27:42Z</time>
      </trkpt>
      <trkpt lat="46.29234" lon="-0.54634">
        <ele>56</ele>
        <time>2011-12-20T14:27:47Z</time>
      </trkpt>
      <trkpt lat="46.29236" lon="-0.54642">
        <ele>54</ele>
        <time>2011-12-20T14:27:52Z</time>
      </trkpt>
      <trkpt lat="46.29234" lon="-0.54648">
        <ele>54</ele>
        <time>2011-12-20T14:27:57Z</time>
      </trkpt>
      <trkpt lat="46.29231" lon="-0.54659">
        <ele>54</ele>
        <time>2011-12-20T14:28:02Z</time>
      </trkpt>
      <trkpt lat="46.29231" lon="-0.54666">
        <ele>55</ele>
        <time>2011-12-20T14:28:07Z</time>
      </trkpt>
      <trkpt lat="46.29229" lon="-0.54676">
        <ele>55</ele>
        <time>2011-12-20T14:28:12Z</time>
      </trkpt>
      <trkpt lat="46.29229" lon="-0.54688">
        <ele>55</ele>
        <time>2011-12-20T14:28:17Z</time>
      </trkpt>
      <trkpt lat="46.2922" lon="-0.54693">
        <ele>60</ele>
        <time>2011-12-20T14:28:22Z</time>
      </trkpt>
      <trkpt lat="46.2922" lon="-0.54698">
        <ele>65</ele>
        <time>2011-12-20T14:28:27Z</time>
      </trkpt>
      <trkpt lat="46.29221" lon="-0.54708">
        <ele>63</ele>
        <time>2011-12-20T14:28:32Z</time>
      </trkpt>
      <trkpt lat="46.2922" lon="-0.54717">
        <ele>64</ele>
        <time>2011-12-20T14:28:37Z</time>
      </trkpt>
      <trkpt lat="46.29218" lon="-0.54723">
        <ele>63</ele>
        <time>2011-12-20T14:28:42Z</time>
      </trkpt>
      <trkpt lat="46.29215" lon="-0.5473">
        <ele>63</ele>
        <time>2011-12-20T14:28:47Z</time>
      </trkpt>
      <trkpt lat="46.29214" lon="-0.54739">
        <ele>63</ele>
        <time>2011-12-20T14:28:52Z</time>
      </trkpt>
      <trkpt lat="46.29214" lon="-0.54745">
        <ele>59</ele>
        <time>2011-12-20T14:28:57Z</time>
      </trkpt>
      <trkpt lat="46.29214" lon="-0.54753">
        <ele>61</ele>
        <time>2011-12-20T14:29:02Z</time>
      </trkpt>
      <trkpt lat="46.29214" lon="-0.54759">
        <ele>58</ele>
        <time>2011-12-20T14:29:07Z</time>
      </trkpt>
      <trkpt lat="46.29211" lon="-0.54766">
        <ele>57</ele>
        <time>2011-12-20T14:29:12Z</time>
      </trkpt>
      <trkpt lat="46.29207" lon="-0.54771">
        <ele>56</ele>
        <time>2011-12-20T14:29:17Z</time>
      </trkpt>
      <trkpt lat="46.29203" lon="-0.54776">
        <ele>57</ele>
        <time>2011-12-20T14:29:22Z</time>
      </trkpt>
      <trkpt lat="46.29199" lon="-0.54779">
        <ele>57</ele>
        <time>2011-12-20T14:29:27Z</time>
      </trkpt>
      <trkpt lat="46.29193" lon="-0.54781">
        <ele>58</ele>
        <time>2011-12-20T14:29:32Z</time>
      </trkpt>
      <trkpt lat="46.29189" lon="-0.54784">
        <ele>59</ele>
        <time>2011-12-20T14:29:37Z</time>
      </trkpt>
      <trkpt lat="46.29184" lon="-0.54789">
        <ele>60</ele>
        <time>2011-12-20T14:29:42Z</time>
      </trkpt>
      <trkpt lat="46.29181" lon="-0.5479">
        <ele>60</ele>
        <time>2011-12-20T14:29:47Z</time>
      </trkpt>
      <trkpt lat="46.29178" lon="-0.54792">
        <ele>60</ele>
        <time>2011-12-20T14:29:52Z</time>
      </trkpt>
      <trkpt lat="46.29177" lon="-0.54793">
        <ele>58</ele>
        <time>2011-12-20T14:29:57Z</time>
      </trkpt>
      <trkpt lat="46.29173" lon="-0.54798">
        <ele>57</ele>
        <time>2011-12-20T14:30:02Z</time>
      </trkpt>
      <trkpt lat="46.2917" lon="-0.54799">
        <ele>55</ele>
        <time>2011-12-20T14:30:07Z</time>
      </trkpt>
      <trkpt lat="46.29167" lon="-0.54801">
        <ele>57</ele>
        <time>2011-12-20T14:30:12Z</time>
      </trkpt>
      <trkpt lat="46.29164" lon="-0.54803">
        <ele>56</ele>
        <time>2011-12-20T14:30:17Z</time>
      </trkpt>
      <trkpt lat="46.29162" lon="-0.54804">
        <ele>56</ele>
        <time>2011-12-20T14:30:22Z</time>
      </trkpt>
      <trkpt lat="46.29155" lon="-0.54809">
        <ele>55</ele>
        <time>2011-12-20T14:30:27Z</time>
      </trkpt>
      <trkpt lat="46.29151" lon="-0.54815">
        <ele>55</ele>
        <time>2011-12-20T14:30:32Z</time>
      </trkpt>
      <trkpt lat="46.29147" lon="-0.54817">
        <ele>55</ele>
        <time>2011-12-20T14:30:37Z</time>
      </trkpt>
      <trkpt lat="46.29141" lon="-0.54818">
        <ele>54</ele>
        <time>2011-12-20T14:30:42Z</time>
      </trkpt>
      <trkpt lat="46.29137" lon="-0.54822">
        <ele>53</ele>
        <time>2011-12-20T14:30:47Z</time>
      </trkpt>
      <trkpt lat="46.29133" lon="-0.54824">
        <ele>50</ele>
        <time>2011-12-20T14:30:52Z</time>
      </trkpt>
      <trkpt lat="46.29126" lon="-0.54828">
        <ele>52</ele>
        <time>2011-12-20T14:30:57Z</time>
      </trkpt>
      <trkpt lat="46.29119" lon="-0.54832">
        <ele>53</ele>
        <time>2011-12-20T14:31:02Z</time>
      </trkpt>
      <trkpt lat="46.29118" lon="-0.54833">
        <ele>52</ele>
        <time>2011-12-20T14:31:07Z</time>
      </trkpt>
      <trkpt lat="46.29113" lon="-0.54836">
        <ele>52</ele>
        <time>2011-12-20T14:31:12Z</time>
      </trkpt>
      <trkpt lat="46.29112" lon="-0.54838">
        <ele>52</ele>
        <time>2011-12-20T14:31:17Z</time>
      </trkpt>
      <trkpt lat="46.29108" lon="-0.54844">
        <ele>52</ele>
        <time>2011-12-20T14:31:22Z</time>
      </trkpt>
      <trkpt lat="46.29103" lon="-0.5485">
        <ele>52</ele>
        <time>2011-12-20T14:31:27Z</time>
      </trkpt>
      <trkpt lat="46.29098" lon="-0.54855">
        <ele>52</ele>
        <time>2011-12-20T14:31:32Z</time>
      </trkpt>
      <trkpt lat="46.29094" lon="-0.54858">
        <ele>50</ele>
        <time>2011-12-20T14:31:37Z</time>
      </trkpt>
      <trkpt lat="46.29087" lon="-0.54861">
        <ele>48</ele>
        <time>2011-12-20T14:31:42Z</time>
      </trkpt>
      <trkpt lat="46.29082" lon="-0.54864">
        <ele>48</ele>
        <time>2011-12-20T14:31:47Z</time>
      </trkpt>
      <trkpt lat="46.29077" lon="-0.54867">
        <ele>48</ele>
        <time>2011-12-20T14:31:52Z</time>
      </trkpt>
      <trkpt lat="46.29074" lon="-0.54867">
        <ele>48</ele>
        <time>2011-12-20T14:31:57Z</time>
      </trkpt>
      <trkpt lat="46.29067" lon="-0.54869">
        <ele>50</ele>
        <time>2011-12-20T14:32:02Z</time>
      </trkpt>
      <trkpt lat="46.29064" lon="-0.54873">
        <ele>50</ele>
        <time>2011-12-20T14:32:07Z</time>
      </trkpt>
      <trkpt lat="46.29059" lon="-0.54877">
        <ele>50</ele>
        <time>2011-12-20T14:32:12Z</time>
      </trkpt>
      <trkpt lat="46.29053" lon="-0.54884">
        <ele>52</ele>
        <time>2011-12-20T14:32:17Z</time>
      </trkpt>
      <trkpt lat="46.29048" lon="-0.5489">
        <ele>53</ele>
        <time>2011-12-20T14:32:22Z</time>
      </trkpt>
      <trkpt lat="46.29041" lon="-0.54896">
        <ele>53</ele>
        <time>2011-12-20T14:32:27Z</time>
      </trkpt>
      <trkpt lat="46.29037" lon="-0.54899">
        <ele>52</ele>
        <time>2011-12-20T14:32:32Z</time>
      </trkpt>
      <trkpt lat="46.29033" lon="-0.54901">
        <ele>52</ele>
        <time>2011-12-20T14:32:37Z</time>
      </trkpt>
      <trkpt lat="46.29029" lon="-0.54907">
        <ele>51</ele>
        <time>2011-12-20T14:32:42Z</time>
      </trkpt>
      <trkpt lat="46.29024" lon="-0.54911">
        <ele>52</ele>
        <time>2011-12-20T14:32:47Z</time>
      </trkpt>
      <trkpt lat="46.29022" lon="-0.54912">
        <ele>54</ele>
        <time>2011-12-20T14:32:52Z</time>
      </trkpt>
      <trkpt lat="46.29015" lon="-0.54915">
        <ele>55</ele>
        <time>2011-12-20T14:32:57Z</time>
      </trkpt>
      <trkpt lat="46.2901" lon="-0.54917">
        <ele>57</ele>
        <time>2011-12-20T14:33:02Z</time>
      </trkpt>
      <trkpt lat="46.29008" lon="-0.5492">
        <ele>60</ele>
        <time>2011-12-20T14:33:07Z</time>
      </trkpt>
      <trkpt lat="46.29004" lon="-0.54924">
        <ele>60</ele>
        <time>2011-12-20T14:33:12Z</time>
      </trkpt>
      <trkpt lat="46.28999" lon="-0.54926">
        <ele>59</ele>
        <time>2011-12-20T14:33:17Z</time>
      </trkpt>
      <trkpt lat="46.28997" lon="-0.54934">
        <ele>59</ele>
        <time>2011-12-20T14:33:22Z</time>
      </trkpt>
      <trkpt lat="46.28991" lon="-0.54937">
        <ele>58</ele>
        <time>2011-12-20T14:33:27Z</time>
      </trkpt>
      <trkpt lat="46.28989" lon="-0.54939">
        <ele>58</ele>
        <time>2011-12-20T14:33:32Z</time>
      </trkpt>
      <trkpt lat="46.28985" lon="-0.54942">
        <ele>59</ele>
        <time>2011-12-20T14:33:37Z</time>
      </trkpt>
      <trkpt lat="46.28983" lon="-0.54943">
        <ele>60</ele>
        <time>2011-12-20T14:33:42Z</time>
      </trkpt>
      <trkpt lat="46.2898" lon="-0.54945">
        <ele>60</ele>
        <time>2011-12-20T14:33:47Z</time>
      </trkpt>
      <trkpt lat="46.28971" lon="-0.5495">
        <ele>61</ele>
        <time>2011-12-20T14:33:52Z</time>
      </trkpt>
      <trkpt lat="46.28962" lon="-0.5495">
        <ele>58</ele>
        <time>2011-12-20T14:33:57Z</time>
      </trkpt>
      <trkpt lat="46.28957" lon="-0.54953">
        <ele>57</ele>
        <time>2011-12-20T14:34:02Z</time>
      </trkpt>
      <trkpt lat="46.28953" lon="-0.54954">
        <ele>53</ele>
        <time>2011-12-20T14:34:07Z</time>
      </trkpt>
      <trkpt lat="46.28949" lon="-0.54957">
        <ele>49</ele>
        <time>2011-12-20T14:34:12Z</time>
      </trkpt>
      <trkpt lat="46.28945" lon="-0.54958">
        <ele>47</ele>
        <time>2011-12-20T14:34:17Z</time>
      </trkpt>
      <trkpt lat="46.2894" lon="-0.54963">
        <ele>44</ele>
        <time>2011-12-20T14:34:22Z</time>
      </trkpt>
      <trkpt lat="46.28933" lon="-0.54967">
        <ele>44</ele>
        <time>2011-12-20T14:34:27Z</time>
      </trkpt>
      <trkpt lat="46.28933" lon="-0.54971">
        <ele>38</ele>
        <time>2011-12-20T14:34:32Z</time>
      </trkpt>
      <trkpt lat="46.28927" lon="-0.54976">
        <ele>36</ele>
        <time>2011-12-20T14:34:37Z</time>
      </trkpt>
      <trkpt lat="46.28923" lon="-0.54979">
        <ele>35</ele>
        <time>2011-12-20T14:34:42Z</time>
      </trkpt>
      <trkpt lat="46.2892" lon="-0.54984">
        <ele>33</ele>
        <time>2011-12-20T14:34:47Z</time>
      </trkpt>
      <trkpt lat="46.28912" lon="-0.54985">
        <ele>36</ele>
        <time>2011-12-20T14:34:52Z</time>
      </trkpt>
      <trkpt lat="46.28904" lon="-0.54987">
        <ele>38</ele>
        <time>2011-12-20T14:34:57Z</time>
      </trkpt>
      <trkpt lat="46.28898" lon="-0.54989">
        <ele>39</ele>
        <time>2011-12-20T14:35:02Z</time>
      </trkpt>
      <trkpt lat="46.28892" lon="-0.54993">
        <ele>41</ele>
        <time>2011-12-20T14:35:07Z</time>
      </trkpt>
      <trkpt lat="46.28883" lon="-0.54994">
        <ele>44</ele>
        <time>2011-12-20T14:35:12Z</time>
      </trkpt>
      <trkpt lat="46.28879" lon="-0.54997">
        <ele>44</ele>
        <time>2011-12-20T14:35:17Z</time>
      </trkpt>
      <trkpt lat="46.28874" lon="-0.55002">
        <ele>45</ele>
        <time>2011-12-20T14:35:22Z</time>
      </trkpt>
      <trkpt lat="46.28865" lon="-0.55006">
        <ele>49</ele>
        <time>2011-12-20T14:35:27Z</time>
      </trkpt>
      <trkpt lat="46.28861" lon="-0.55012">
        <ele>49</ele>
        <time>2011-12-20T14:35:32Z</time>
      </trkpt>
      <trkpt lat="46.28857" lon="-0.55015">
        <ele>47</ele>
        <time>2011-12-20T14:35:37Z</time>
      </trkpt>
      <trkpt lat="46.28853" lon="-0.55019">
        <ele>47</ele>
        <time>2011-12-20T14:35:42Z</time>
      </trkpt>
      <trkpt lat="46.2885" lon="-0.55022">
        <ele>46</ele>
        <time>2011-12-20T14:35:47Z</time>
      </trkpt>
      <trkpt lat="46.28842" lon="-0.55024">
        <ele>47</ele>
        <time>2011-12-20T14:35:52Z</time>
      </trkpt>
      <trkpt lat="46.28836" lon="-0.55027">
        <ele>48</ele>
        <time>2011-12-20T14:35:57Z</time>
      </trkpt>
      <trkpt lat="46.28832" lon="-0.55028">
        <ele>50</ele>
        <time>2011-12-20T14:36:02Z</time>
      </trkpt>
      <trkpt lat="46.28824" lon="-0.55029">
        <ele>51</ele>
        <time>2011-12-20T14:36:07Z</time>
      </trkpt>
      <trkpt lat="46.28823" lon="-0.55028">
        <ele>51</ele>
        <time>2011-12-20T14:36:12Z</time>
      </trkpt>
      <trkpt lat="46.28823" lon="-0.55027">
        <ele>50</ele>
        <time>2011-12-20T14:36:17Z</time>
      </trkpt>
      <trkpt lat="46.2882" lon="-0.55026">
        <ele>47</ele>
        <time>2011-12-20T14:36:22Z</time>
      </trkpt>
      <trkpt lat="46.28814" lon="-0.55024">
        <ele>47</ele>
        <time>2011-12-20T14:36:27Z</time>
      </trkpt>
      <trkpt lat="46.28806" lon="-0.55021">
        <ele>48</ele>
        <time>2011-12-20T14:36:32Z</time>
      </trkpt>
      <trkpt lat="46.28802" lon="-0.55016">
        <ele>48</ele>
        <time>2011-12-20T14:36:37Z</time>
      </trkpt>
      <trkpt lat="46.28796" lon="-0.55013">
        <ele>48</ele>
        <time>2011-12-20T14:36:42Z</time>
      </trkpt>
      <trkpt lat="46.28795" lon="-0.55014">
        <ele>48</ele>
        <time>2011-12-20T14:36:47Z</time>
      </trkpt>
      <trkpt lat="46.28794" lon="-0.55016">
        <ele>48</ele>
        <time>2011-12-20T14:36:52Z</time>
      </trkpt>
      <trkpt lat="46.28792" lon="-0.55022">
        <ele>48</ele>
        <time>2011-12-20T14:36:57Z</time>
      </trkpt>
      <trkpt lat="46.28789" lon="-0.55028">
        <ele>47</ele>
        <time>2011-12-20T14:37:02Z</time>
      </trkpt>
      <trkpt lat="46.28787" lon="-0.55031">
        <ele>49</ele>
        <time>2011-12-20T14:37:07Z</time>
      </trkpt>
      <trkpt lat="46.28781" lon="-0.55028">
        <ele>50</ele>
        <time>2011-12-20T14:37:12Z</time>
      </trkpt>
      <trkpt lat="46.28778" lon="-0.55026">
        <ele>50</ele>
        <time>2011-12-20T14:37:17Z</time>
      </trkpt>
      <trkpt lat="46.28773" lon="-0.55023">
        <ele>48</ele>
        <time>2011-12-20T14:37:22Z</time>
      </trkpt>
      <trkpt lat="46.28768" lon="-0.55022">
        <ele>48</ele>
        <time>2011-12-20T14:37:27Z</time>
      </trkpt>
      <trkpt lat="46.28763" lon="-0.55023">
        <ele>47</ele>
        <time>2011-12-20T14:37:32Z</time>
      </trkpt>
      <trkpt lat="46.28757" lon="-0.55021">
        <ele>48</ele>
        <time>2011-12-20T14:37:37Z</time>
      </trkpt>
      <trkpt lat="46.28753" lon="-0.55021">
        <ele>48</ele>
        <time>2011-12-20T14:37:42Z</time>
      </trkpt>
      <trkpt lat="46.28747" lon="-0.55021">
        <ele>50</ele>
        <time>2011-12-20T14:37:47Z</time>
      </trkpt>
      <trkpt lat="46.2874" lon="-0.55022">
        <ele>50</ele>
        <time>2011-12-20T14:37:52Z</time>
      </trkpt>
      <trkpt lat="46.28735" lon="-0.55022">
        <ele>51</ele>
        <time>2011-12-20T14:37:57Z</time>
      </trkpt>
      <trkpt lat="46.2873" lon="-0.55024">
        <ele>51</ele>
        <time>2011-12-20T14:38:02Z</time>
      </trkpt>
      <trkpt lat="46.28726" lon="-0.55024">
        <ele>50</ele>
        <time>2011-12-20T14:38:07Z</time>
      </trkpt>
      <trkpt lat="46.28719" lon="-0.55026">
        <ele>51</ele>
        <time>2011-12-20T14:38:12Z</time>
      </trkpt>
      <trkpt lat="46.28713" lon="-0.55028">
        <ele>51</ele>
        <time>2011-12-20T14:38:17Z</time>
      </trkpt>
      <trkpt lat="46.28708" lon="-0.55032">
        <ele>50</ele>
        <time>2011-12-20T14:38:22Z</time>
      </trkpt>
      <trkpt lat="46.28704" lon="-0.55033">
        <ele>48</ele>
        <time>2011-12-20T14:38:27Z</time>
      </trkpt>
      <trkpt lat="46.28702" lon="-0.55035">
        <ele>45</ele>
        <time>2011-12-20T14:38:32Z</time>
      </trkpt>
      <trkpt lat="46.28697" lon="-0.55035">
        <ele>46</ele>
        <time>2011-12-20T14:38:37Z</time>
      </trkpt>
      <trkpt lat="46.2869" lon="-0.55037">
        <ele>47</ele>
        <time>2011-12-20T14:38:42Z</time>
      </trkpt>
      <trkpt lat="46.28685" lon="-0.55041">
        <ele>47</ele>
        <time>2011-12-20T14:38:47Z</time>
      </trkpt>
      <trkpt lat="46.2868" lon="-0.55046">
        <ele>48</ele>
        <time>2011-12-20T14:38:52Z</time>
      </trkpt>
      <trkpt lat="46.28676" lon="-0.55053">
        <ele>48</ele>
        <time>2011-12-20T14:38:57Z</time>
      </trkpt>
      <trkpt lat="46.28677" lon="-0.5506">
        <ele>49</ele>
        <time>2011-12-20T14:39:02Z</time>
      </trkpt>
      <trkpt lat="46.2868" lon="-0.55067">
        <ele>48</ele>
        <time>2011-12-20T14:39:07Z</time>
      </trkpt>
      <trkpt lat="46.28683" lon="-0.55081">
        <ele>49</ele>
        <time>2011-12-20T14:39:12Z</time>
      </trkpt>
      <trkpt lat="46.28684" lon="-0.55088">
        <ele>49</ele>
        <time>2011-12-20T14:39:17Z</time>
      </trkpt>
      <trkpt lat="46.28685" lon="-0.55093">
        <ele>51</ele>
        <time>2011-12-20T14:39:22Z</time>
      </trkpt>
      <trkpt lat="46.28688" lon="-0.551">
        <ele>52</ele>
        <time>2011-12-20T14:39:27Z</time>
      </trkpt>
      <trkpt lat="46.28689" lon="-0.55107">
        <ele>52</ele>
        <time>2011-12-20T14:39:32Z</time>
      </trkpt>
      <trkpt lat="46.2869" lon="-0.55116">
        <ele>52</ele>
        <time>2011-12-20T14:39:37Z</time>
      </trkpt>
      <trkpt lat="46.28692" lon="-0.55123">
        <ele>53</ele>
        <time>2011-12-20T14:39:42Z</time>
      </trkpt>
      <trkpt lat="46.28693" lon="-0.55132">
        <ele>52</ele>
        <time>2011-12-20T14:39:47Z</time>
      </trkpt>
      <trkpt lat="46.28693" lon="-0.55138">
        <ele>50</ele>
        <time>2011-12-20T14:39:52Z</time>
      </trkpt>
      <trkpt lat="46.28695" lon="-0.55144">
        <ele>50</ele>
        <time>2011-12-20T14:39:57Z</time>
      </trkpt>
      <trkpt lat="46.28696" lon="-0.55152">
        <ele>50</ele>
        <time>2011-12-20T14:40:02Z</time>
      </trkpt>
      <trkpt lat="46.28699" lon="-0.55159">
        <ele>52</ele>
        <time>2011-12-20T14:40:07Z</time>
      </trkpt>
      <trkpt lat="46.28703" lon="-0.55163">
        <ele>54</ele>
        <time>2011-12-20T14:40:12Z</time>
      </trkpt>
      <trkpt lat="46.28706" lon="-0.55176">
        <ele>56</ele>
        <time>2011-12-20T14:40:17Z</time>
      </trkpt>
      <trkpt lat="46.28707" lon="-0.55185">
        <ele>58</ele>
        <time>2011-12-20T14:40:22Z</time>
      </trkpt>
      <trkpt lat="46.28708" lon="-0.55189">
        <ele>58</ele>
        <time>2011-12-20T14:40:27Z</time>
      </trkpt>
      <trkpt lat="46.28709" lon="-0.55193">
        <ele>59</ele>
        <time>2011-12-20T14:40:32Z</time>
      </trkpt>
      <trkpt lat="46.28707" lon="-0.55193">
        <ele>55</ele>
        <time>2011-12-20T14:40:37Z</time>
      </trkpt>
      <trkpt lat="46.28706" lon="-0.55195">
        <ele>56</ele>
        <time>2011-12-20T14:40:42Z</time>
      </trkpt>
      <trkpt lat="46.28708" lon="-0.55192">
        <ele>56</ele>
        <time>2011-12-20T14:40:47Z</time>
      </trkpt>
      <trkpt lat="46.28708" lon="-0.55194">
        <ele>57</ele>
        <time>2011-12-20T14:40:52Z</time>
      </trkpt>
      <trkpt lat="46.28708" lon="-0.55194">
        <ele>57</ele>
        <time>2011-12-20T14:40:57Z</time>
      </trkpt>
      <trkpt lat="46.28708" lon="-0.55194">
        <ele>56</ele>
        <time>2011-12-20T14:41:02Z</time>
      </trkpt>
      <trkpt lat="46.28707" lon="-0.55196">
        <ele>57</ele>
        <time>2011-12-20T14:41:07Z</time>
      </trkpt>
      <trkpt lat="46.28707" lon="-0.55196">
        <ele>56</ele>
        <time>2011-12-20T14:41:12Z</time>
      </trkpt>
      <trkpt lat="46.28707" lon="-0.55196">
        <ele>56</ele>
        <time>2011-12-20T14:41:37Z</time>
      </trkpt>
      <trkpt lat="46.28707" lon="-0.55196">
        <ele>56</ele>
        <time>2011-12-20T14:41:42Z</time>
      </trkpt>
      <trkpt lat="46.28707" lon="-0.55196">
        <ele>56</ele>
        <time>2011-12-20T14:41:47Z</time>
      </trkpt>
      <trkpt lat="46.28707" lon="-0.55195">
        <ele>56</ele>
        <time>2011-12-20T14:41:52Z</time>
      </trkpt>
      <trkpt lat="46.28707" lon="-0.55196">
        <ele>56</ele>
        <time>2011-12-20T14:41:57Z</time>
      </trkpt>
      <trkpt lat="46.28708" lon="-0.55195">
        <ele>58</ele>
        <time>2011-12-20T14:42:12Z</time>
      </trkpt>
      <trkpt lat="46.28708" lon="-0.55192">
        <ele>58</ele>
        <time>2011-12-20T14:42:17Z</time>
      </trkpt>
      <trkpt lat="46.28707" lon="-0.55192">
        <ele>58</ele>
        <time>2011-12-20T14:42:22Z</time>
      </trkpt>
      <trkpt lat="46.28707" lon="-0.55193">
        <ele>58</ele>
        <time>2011-12-20T14:42:27Z</time>
      </trkpt>
      <trkpt lat="46.28708" lon="-0.55193">
        <ele>58</ele>
        <time>2011-12-20T14:42:37Z</time>
      </trkpt>
      <trkpt lat="46.28707" lon="-0.55196">
        <ele>58</ele>
        <time>2011-12-20T14:42:42Z</time>
      </trkpt>
      <trkpt lat="46.28707" lon="-0.55196">
        <ele>58</ele>
        <time>2011-12-20T14:42:47Z</time>
      </trkpt>
      <trkpt lat="46.28706" lon="-0.55194">
        <ele>57</ele>
        <time>2011-12-20T14:42:52Z</time>
      </trkpt>
      <trkpt lat="46.28707" lon="-0.55196">
        <ele>58</ele>
        <time>2011-12-20T14:43:02Z</time>
      </trkpt>
      <trkpt lat="46.28708" lon="-0.55196">
        <ele>59</ele>
        <time>2011-12-20T14:43:07Z</time>
      </trkpt>
      <trkpt lat="46.28708" lon="-0.55196">
        <ele>59</ele>
        <time>2011-12-20T14:43:12Z</time>
      </trkpt>
      <trkpt lat="46.28707" lon="-0.5519">
        <ele>58</ele>
        <time>2011-12-20T14:43:22Z</time>
      </trkpt>
      <trkpt lat="46.28707" lon="-0.55181">
        <ele>60</ele>
        <time>2011-12-20T14:43:27Z</time>
      </trkpt>
      <trkpt lat="46.28705" lon="-0.55171">
        <ele>61</ele>
        <time>2011-12-20T14:43:32Z</time>
      </trkpt>
      <trkpt lat="46.28705" lon="-0.55162">
        <ele>63</ele>
        <time>2011-12-20T14:43:37Z</time>
      </trkpt>
      <trkpt lat="46.28704" lon="-0.55158">
        <ele>63</ele>
        <time>2011-12-20T14:43:42Z</time>
      </trkpt>
      <trkpt lat="46.28703" lon="-0.55153">
        <ele>62</ele>
        <time>2011-12-20T14:43:47Z</time>
      </trkpt>
      <trkpt lat="46.28701" lon="-0.55139">
        <ele>64</ele>
        <time>2011-12-20T14:43:52Z</time>
      </trkpt>
      <trkpt lat="46.287" lon="-0.55134">
        <ele>64</ele>
        <time>2011-12-20T14:43:57Z</time>
      </trkpt>
      <trkpt lat="46.28699" lon="-0.55131">
        <ele>63</ele>
        <time>2011-12-20T14:44:02Z</time>
      </trkpt>
      <trkpt lat="46.28695" lon="-0.55116">
        <ele>64</ele>
        <time>2011-12-20T14:44:07Z</time>
      </trkpt>
      <trkpt lat="46.28694" lon="-0.55111">
        <ele>64</ele>
        <time>2011-12-20T14:44:12Z</time>
      </trkpt>
      <trkpt lat="46.28689" lon="-0.55095">
        <ele>63</ele>
        <time>2011-12-20T14:44:17Z</time>
      </trkpt>
      <trkpt lat="46.28685" lon="-0.55092">
        <ele>62</ele>
        <time>2011-12-20T14:44:22Z</time>
      </trkpt>
      <trkpt lat="46.28683" lon="-0.55083">
        <ele>61</ele>
        <time>2011-12-20T14:44:27Z</time>
      </trkpt>
      <trkpt lat="46.28685" lon="-0.55078">
        <ele>61</ele>
        <time>2011-12-20T14:44:32Z</time>
      </trkpt>
      <trkpt lat="46.28684" lon="-0.55068">
        <ele>59</ele>
        <time>2011-12-20T14:44:37Z</time>
      </trkpt>
      <trkpt lat="46.28683" lon="-0.55058">
        <ele>59</ele>
        <time>2011-12-20T14:44:42Z</time>
      </trkpt>
      <trkpt lat="46.28682" lon="-0.55059">
        <ele>56</ele>
        <time>2011-12-20T14:44:47Z</time>
      </trkpt>
      <trkpt lat="46.28682" lon="-0.55058">
        <ele>58</ele>
        <time>2011-12-20T14:44:52Z</time>
      </trkpt>
      <trkpt lat="46.28683" lon="-0.55058">
        <ele>59</ele>
        <time>2011-12-20T14:44:57Z</time>
      </trkpt>
      <trkpt lat="46.28684" lon="-0.55054">
        <ele>60</ele>
        <time>2011-12-20T14:45:02Z</time>
      </trkpt>
      <trkpt lat="46.28684" lon="-0.55054">
        <ele>60</ele>
        <time>2011-12-20T14:45:07Z</time>
      </trkpt>
      <trkpt lat="46.28683" lon="-0.55053">
        <ele>60</ele>
        <time>2011-12-20T14:45:12Z</time>
      </trkpt>
      <trkpt lat="46.28683" lon="-0.55053">
        <ele>60</ele>
        <time>2011-12-20T14:45:32Z</time>
      </trkpt>
      <trkpt lat="46.28682" lon="-0.55052">
        <ele>59</ele>
        <time>2011-12-20T14:46:37Z</time>
      </trkpt>
      <trkpt lat="46.28684" lon="-0.55047">
        <ele>57</ele>
        <time>2011-12-20T14:46:42Z</time>
      </trkpt>
      <trkpt lat="46.2869" lon="-0.55042">
        <ele>56</ele>
        <time>2011-12-20T14:46:47Z</time>
      </trkpt>
      <trkpt lat="46.28693" lon="-0.55039">
        <ele>56</ele>
        <time>2011-12-20T14:46:52Z</time>
      </trkpt>
      <trkpt lat="46.28695" lon="-0.55038">
        <ele>56</ele>
        <time>2011-12-20T14:46:57Z</time>
      </trkpt>
      <trkpt lat="46.287" lon="-0.55036">
        <ele>56</ele>
        <time>2011-12-20T14:47:02Z</time>
      </trkpt>
      <trkpt lat="46.28708" lon="-0.55035">
        <ele>54</ele>
        <time>2011-12-20T14:47:07Z</time>
      </trkpt>
      <trkpt lat="46.28713" lon="-0.55032">
        <ele>54</ele>
        <time>2011-12-20T14:47:12Z</time>
      </trkpt>
      <trkpt lat="46.28718" lon="-0.5503">
        <ele>53</ele>
        <time>2011-12-20T14:47:17Z</time>
      </trkpt>
      <trkpt lat="46.28721" lon="-0.55029">
        <ele>52</ele>
        <time>2011-12-20T14:47:22Z</time>
      </trkpt>
      <trkpt lat="46.28721" lon="-0.55029">
        <ele>52</ele>
        <time>2011-12-20T14:47:27Z</time>
      </trkpt>
      <trkpt lat="46.28727" lon="-0.55028">
        <ele>50</ele>
        <time>2011-12-20T14:47:32Z</time>
      </trkpt>
      <trkpt lat="46.28734" lon="-0.55028">
        <ele>51</ele>
        <time>2011-12-20T14:47:37Z</time>
      </trkpt>
      <trkpt lat="46.2874" lon="-0.55027">
        <ele>50</ele>
        <time>2011-12-20T14:47:42Z</time>
      </trkpt>
      <trkpt lat="46.28746" lon="-0.55026">
        <ele>52</ele>
        <time>2011-12-20T14:47:47Z</time>
      </trkpt>
      <trkpt lat="46.28752" lon="-0.55027">
        <ele>52</ele>
        <time>2011-12-20T14:47:52Z</time>
      </trkpt>
      <trkpt lat="46.28761" lon="-0.55025">
        <ele>53</ele>
        <time>2011-12-20T14:47:57Z</time>
      </trkpt>
      <trkpt lat="46.28764" lon="-0.55024">
        <ele>53</ele>
        <time>2011-12-20T14:48:02Z</time>
      </trkpt>
      <trkpt lat="46.2877" lon="-0.55026">
        <ele>54</ele>
        <time>2011-12-20T14:48:07Z</time>
      </trkpt>
      <trkpt lat="46.28777" lon="-0.55027">
        <ele>53</ele>
        <time>2011-12-20T14:48:12Z</time>
      </trkpt>
      <trkpt lat="46.28781" lon="-0.55031">
        <ele>52</ele>
        <time>2011-12-20T14:48:17Z</time>
      </trkpt>
      <trkpt lat="46.28787" lon="-0.55034">
        <ele>53</ele>
        <time>2011-12-20T14:48:22Z</time>
      </trkpt>
      <trkpt lat="46.28794" lon="-0.5503">
        <ele>50</ele>
        <time>2011-12-20T14:48:27Z</time>
      </trkpt>
      <trkpt lat="46.28796" lon="-0.55024">
        <ele>52</ele>
        <time>2011-12-20T14:48:32Z</time>
      </trkpt>
      <trkpt lat="46.28799" lon="-0.5502">
        <ele>50</ele>
        <time>2011-12-20T14:48:37Z</time>
      </trkpt>
      <trkpt lat="46.28803" lon="-0.55019">
        <ele>49</ele>
        <time>2011-12-20T14:48:42Z</time>
      </trkpt>
      <trkpt lat="46.28806" lon="-0.55019">
        <ele>51</ele>
        <time>2011-12-20T14:48:47Z</time>
      </trkpt>
      <trkpt lat="46.2881" lon="-0.55022">
        <ele>50</ele>
        <time>2011-12-20T14:48:52Z</time>
      </trkpt>
      <trkpt lat="46.28813" lon="-0.55023">
        <ele>50</ele>
        <time>2011-12-20T14:48:57Z</time>
      </trkpt>
      <trkpt lat="46.28816" lon="-0.55026">
        <ele>49</ele>
        <time>2011-12-20T14:49:02Z</time>
      </trkpt>
      <trkpt lat="46.28821" lon="-0.55026">
        <ele>47</ele>
        <time>2011-12-20T14:49:07Z</time>
      </trkpt>
      <trkpt lat="46.28824" lon="-0.55027">
        <ele>48</ele>
        <time>2011-12-20T14:49:12Z</time>
      </trkpt>
      <trkpt lat="46.2883" lon="-0.55026">
        <ele>49</ele>
        <time>2011-12-20T14:49:17Z</time>
      </trkpt>
      <trkpt lat="46.28835" lon="-0.55026">
        <ele>49</ele>
        <time>2011-12-20T14:49:22Z</time>
      </trkpt>
      <trkpt lat="46.28842" lon="-0.55023">
        <ele>51</ele>
        <time>2011-12-20T14:49:27Z</time>
      </trkpt>
      <trkpt lat="46.28849" lon="-0.55022">
        <ele>53</ele>
        <time>2011-12-20T14:49:32Z</time>
      </trkpt>
      <trkpt lat="46.28853" lon="-0.55019">
        <ele>53</ele>
        <time>2011-12-20T14:49:37Z</time>
      </trkpt>
      <trkpt lat="46.28859" lon="-0.55016">
        <ele>55</ele>
        <time>2011-12-20T14:49:42Z</time>
      </trkpt>
      <trkpt lat="46.28862" lon="-0.55015">
        <ele>53</ele>
        <time>2011-12-20T14:49:47Z</time>
      </trkpt>
      <trkpt lat="46.28865" lon="-0.55014">
        <ele>54</ele>
        <time>2011-12-20T14:49:52Z</time>
      </trkpt>
      <trkpt lat="46.28872" lon="-0.5501">
        <ele>54</ele>
        <time>2011-12-20T14:49:57Z</time>
      </trkpt>
      <trkpt lat="46.28877" lon="-0.55005">
        <ele>53</ele>
        <time>2011-12-20T14:50:02Z</time>
      </trkpt>
      <trkpt lat="46.28881" lon="-0.55001">
        <ele>53</ele>
        <time>2011-12-20T14:50:07Z</time>
      </trkpt>
      <trkpt lat="46.28882" lon="-0.55001">
        <ele>53</ele>
        <time>2011-12-20T14:50:12Z</time>
      </trkpt>
      <trkpt lat="46.28893" lon="-0.54998">
        <ele>54</ele>
        <time>2011-12-20T14:50:17Z</time>
      </trkpt>
      <trkpt lat="46.28898" lon="-0.54993">
        <ele>55</ele>
        <time>2011-12-20T14:50:22Z</time>
      </trkpt>
      <trkpt lat="46.28904" lon="-0.5499">
        <ele>54</ele>
        <time>2011-12-20T14:50:27Z</time>
      </trkpt>
      <trkpt lat="46.28911" lon="-0.54987">
        <ele>56</ele>
        <time>2011-12-20T14:50:32Z</time>
      </trkpt>
      <trkpt lat="46.28916" lon="-0.54984">
        <ele>56</ele>
        <time>2011-12-20T14:50:37Z</time>
      </trkpt>
      <trkpt lat="46.2892" lon="-0.54981">
        <ele>57</ele>
        <time>2011-12-20T14:50:42Z</time>
      </trkpt>
      <trkpt lat="46.28923" lon="-0.5498">
        <ele>58</ele>
        <time>2011-12-20T14:50:47Z</time>
      </trkpt>
      <trkpt lat="46.28926" lon="-0.54979">
        <ele>57</ele>
        <time>2011-12-20T14:50:52Z</time>
      </trkpt>
      <trkpt lat="46.28932" lon="-0.54977">
        <ele>56</ele>
        <time>2011-12-20T14:50:57Z</time>
      </trkpt>
      <trkpt lat="46.28938" lon="-0.54973">
        <ele>55</ele>
        <time>2011-12-20T14:51:02Z</time>
      </trkpt>
      <trkpt lat="46.28943" lon="-0.54967">
        <ele>52</ele>
        <time>2011-12-20T14:51:07Z</time>
      </trkpt>
      <trkpt lat="46.28947" lon="-0.54966">
        <ele>53</ele>
        <time>2011-12-20T14:51:12Z</time>
      </trkpt>
      <trkpt lat="46.28953" lon="-0.54963">
        <ele>53</ele>
        <time>2011-12-20T14:51:17Z</time>
      </trkpt>
      <trkpt lat="46.28955" lon="-0.54962">
        <ele>50</ele>
        <time>2011-12-20T14:51:22Z</time>
      </trkpt>
      <trkpt lat="46.28958" lon="-0.5496">
        <ele>50</ele>
        <time>2011-12-20T14:51:27Z</time>
      </trkpt>
      <trkpt lat="46.28963" lon="-0.54957">
        <ele>50</ele>
        <time>2011-12-20T14:51:32Z</time>
      </trkpt>
      <trkpt lat="46.28968" lon="-0.54952">
        <ele>47</ele>
        <time>2011-12-20T14:51:37Z</time>
      </trkpt>
      <trkpt lat="46.28972" lon="-0.54949">
        <ele>50</ele>
        <time>2011-12-20T14:51:42Z</time>
      </trkpt>
      <trkpt lat="46.28979" lon="-0.54946">
        <ele>50</ele>
        <time>2011-12-20T14:51:47Z</time>
      </trkpt>
      <trkpt lat="46.28985" lon="-0.54941">
        <ele>52</ele>
        <time>2011-12-20T14:51:52Z</time>
      </trkpt>
      <trkpt lat="46.28992" lon="-0.54935">
        <ele>51</ele>
        <time>2011-12-20T14:51:57Z</time>
      </trkpt>
      <trkpt lat="46.28999" lon="-0.54932">
        <ele>54</ele>
        <time>2011-12-20T14:52:02Z</time>
      </trkpt>
      <trkpt lat="46.29002" lon="-0.54931">
        <ele>55</ele>
        <time>2011-12-20T14:52:07Z</time>
      </trkpt>
      <trkpt lat="46.29005" lon="-0.5493">
        <ele>55</ele>
        <time>2011-12-20T14:52:12Z</time>
      </trkpt>
      <trkpt lat="46.2901" lon="-0.54925">
        <ele>57</ele>
        <time>2011-12-20T14:52:17Z</time>
      </trkpt>
      <trkpt lat="46.29017" lon="-0.54923">
        <ele>58</ele>
        <time>2011-12-20T14:52:22Z</time>
      </trkpt>
      <trkpt lat="46.29026" lon="-0.5492">
        <ele>57</ele>
        <time>2011-12-20T14:52:27Z</time>
      </trkpt>
      <trkpt lat="46.29029" lon="-0.54917">
        <ele>55</ele>
        <time>2011-12-20T14:52:32Z</time>
      </trkpt>
      <trkpt lat="46.29034" lon="-0.54914">
        <ele>57</ele>
        <time>2011-12-20T14:52:37Z</time>
      </trkpt>
      <trkpt lat="46.29034" lon="-0.54912">
        <ele>55</ele>
        <time>2011-12-20T14:52:42Z</time>
      </trkpt>
      <trkpt lat="46.29038" lon="-0.5491">
        <ele>55</ele>
        <time>2011-12-20T14:52:47Z</time>
      </trkpt>
      <trkpt lat="46.29041" lon="-0.54906">
        <ele>52</ele>
        <time>2011-12-20T14:52:52Z</time>
      </trkpt>
      <trkpt lat="46.29044" lon="-0.54904">
        <ele>53</ele>
        <time>2011-12-20T14:52:57Z</time>
      </trkpt>
      <trkpt lat="46.29049" lon="-0.549">
        <ele>55</ele>
        <time>2011-12-20T14:53:02Z</time>
      </trkpt>
      <trkpt lat="46.29058" lon="-0.54892">
        <ele>51</ele>
        <time>2011-12-20T14:53:07Z</time>
      </trkpt>
      <trkpt lat="46.29066" lon="-0.54887">
        <ele>54</ele>
        <time>2011-12-20T14:53:12Z</time>
      </trkpt>
      <trkpt lat="46.29068" lon="-0.54883">
        <ele>55</ele>
        <time>2011-12-20T14:53:17Z</time>
      </trkpt>
      <trkpt lat="46.29072" lon="-0.54879">
        <ele>53</ele>
        <time>2011-12-20T14:53:22Z</time>
      </trkpt>
      <trkpt lat="46.29076" lon="-0.54877">
        <ele>53</ele>
        <time>2011-12-20T14:53:27Z</time>
      </trkpt>
      <trkpt lat="46.29077" lon="-0.54877">
        <ele>52</ele>
        <time>2011-12-20T14:53:32Z</time>
      </trkpt>
      <trkpt lat="46.29081" lon="-0.54878">
        <ele>54</ele>
        <time>2011-12-20T14:53:37Z</time>
      </trkpt>
      <trkpt lat="46.29084" lon="-0.54874">
        <ele>54</ele>
        <time>2011-12-20T14:53:42Z</time>
      </trkpt>
      <trkpt lat="46.2909" lon="-0.54873">
        <ele>53</ele>
        <time>2011-12-20T14:53:47Z</time>
      </trkpt>
      <trkpt lat="46.29095" lon="-0.54869">
        <ele>52</ele>
        <time>2011-12-20T14:53:52Z</time>
      </trkpt>
      <trkpt lat="46.29096" lon="-0.54869">
        <ele>52</ele>
        <time>2011-12-20T14:53:57Z</time>
      </trkpt>
      <trkpt lat="46.29106" lon="-0.54864">
        <ele>53</ele>
        <time>2011-12-20T14:54:02Z</time>
      </trkpt>
      <trkpt lat="46.29116" lon="-0.54854">
        <ele>54</ele>
        <time>2011-12-20T14:54:07Z</time>
      </trkpt>
      <trkpt lat="46.29125" lon="-0.5485">
        <ele>55</ele>
        <time>2011-12-20T14:54:12Z</time>
      </trkpt>
      <trkpt lat="46.2913" lon="-0.54848">
        <ele>56</ele>
        <time>2011-12-20T14:54:17Z</time>
      </trkpt>
      <trkpt lat="46.29133" lon="-0.54848">
        <ele>58</ele>
        <time>2011-12-20T14:54:22Z</time>
      </trkpt>
      <trkpt lat="46.29135" lon="-0.54847">
        <ele>60</ele>
        <time>2011-12-20T14:54:27Z</time>
      </trkpt>
      <trkpt lat="46.29135" lon="-0.54846">
        <ele>60</ele>
        <time>2011-12-20T14:54:32Z</time>
      </trkpt>
      <trkpt lat="46.29142" lon="-0.54836">
        <ele>54</ele>
        <time>2011-12-20T14:54:37Z</time>
      </trkpt>
      <trkpt lat="46.29148" lon="-0.54828">
        <ele>51</ele>
        <time>2011-12-20T14:54:42Z</time>
      </trkpt>
      <trkpt lat="46.29151" lon="-0.54828">
        <ele>52</ele>
        <time>2011-12-20T14:54:47Z</time>
      </trkpt>
      <trkpt lat="46.29159" lon="-0.54821">
        <ele>53</ele>
        <time>2011-12-20T14:54:52Z</time>
      </trkpt>
      <trkpt lat="46.2916" lon="-0.5482">
        <ele>53</ele>
        <time>2011-12-20T14:54:57Z</time>
      </trkpt>
      <trkpt lat="46.29161" lon="-0.54818">
        <ele>54</ele>
        <time>2011-12-20T14:55:02Z</time>
      </trkpt>
      <trkpt lat="46.29161" lon="-0.54818">
        <ele>54</ele>
        <time>2011-12-20T14:55:07Z</time>
      </trkpt>
      <trkpt lat="46.29164" lon="-0.54814">
        <ele>53</ele>
        <time>2011-12-20T14:55:12Z</time>
      </trkpt>
      <trkpt lat="46.29176" lon="-0.54808">
        <ele>52</ele>
        <time>2011-12-20T14:55:17Z</time>
      </trkpt>
      <trkpt lat="46.29183" lon="-0.54799">
        <ele>53</ele>
        <time>2011-12-20T14:55:22Z</time>
      </trkpt>
      <trkpt lat="46.29192" lon="-0.54793">
        <ele>54</ele>
        <time>2011-12-20T14:55:27Z</time>
      </trkpt>
      <trkpt lat="46.29198" lon="-0.54788">
        <ele>57</ele>
        <time>2011-12-20T14:55:32Z</time>
      </trkpt>
      <trkpt lat="46.29207" lon="-0.54784">
        <ele>61</ele>
        <time>2011-12-20T14:55:37Z</time>
      </trkpt>
      <trkpt lat="46.2921" lon="-0.54783">
        <ele>61</ele>
        <time>2011-12-20T14:55:42Z</time>
      </trkpt>
      <trkpt lat="46.29213" lon="-0.54781">
        <ele>62</ele>
        <time>2011-12-20T14:55:47Z</time>
      </trkpt>
      <trkpt lat="46.29221" lon="-0.54776">
        <ele>67</ele>
        <time>2011-12-20T14:55:52Z</time>
      </trkpt>
      <trkpt lat="46.29223" lon="-0.54774">
        <ele>68</ele>
        <time>2011-12-20T14:55:57Z</time>
      </trkpt>
      <trkpt lat="46.29228" lon="-0.54765">
        <ele>65</ele>
        <time>2011-12-20T14:56:02Z</time>
      </trkpt>
      <trkpt lat="46.29227" lon="-0.54763">
        <ele>66</ele>
        <time>2011-12-20T14:56:07Z</time>
      </trkpt>
      <trkpt lat="46.29227" lon="-0.54751">
        <ele>63</ele>
        <time>2011-12-20T14:56:12Z</time>
      </trkpt>
      <trkpt lat="46.29227" lon="-0.54746">
        <ele>62</ele>
        <time>2011-12-20T14:56:17Z</time>
      </trkpt>
      <trkpt lat="46.29226" lon="-0.54733">
        <ele>59</ele>
        <time>2011-12-20T14:56:22Z</time>
      </trkpt>
      <trkpt lat="46.29228" lon="-0.54715">
        <ele>59</ele>
        <time>2011-12-20T14:56:27Z</time>
      </trkpt>
      <trkpt lat="46.2923" lon="-0.54707">
        <ele>57</ele>
        <time>2011-12-20T14:56:32Z</time>
      </trkpt>
      <trkpt lat="46.2923" lon="-0.54703">
        <ele>57</ele>
        <time>2011-12-20T14:56:37Z</time>
      </trkpt>
      <trkpt lat="46.29232" lon="-0.54695">
        <ele>56</ele>
        <time>2011-12-20T14:56:42Z</time>
      </trkpt>
      <trkpt lat="46.29234" lon="-0.5469">
        <ele>57</ele>
        <time>2011-12-20T14:56:47Z</time>
      </trkpt>
      <trkpt lat="46.29233" lon="-0.54686">
        <ele>57</ele>
        <time>2011-12-20T14:56:52Z</time>
      </trkpt>
      <trkpt lat="46.29234" lon="-0.54683">
        <ele>56</ele>
        <time>2011-12-20T14:56:57Z</time>
      </trkpt>
      <trkpt lat="46.29234" lon="-0.5468">
        <ele>56</ele>
        <time>2011-12-20T14:57:02Z</time>
      </trkpt>
      <trkpt lat="46.29234" lon="-0.54679">
        <ele>56</ele>
        <time>2011-12-20T14:57:07Z</time>
      </trkpt>
      <trkpt lat="46.29237" lon="-0.54678">
        <ele>55</ele>
        <time>2011-12-20T14:57:12Z</time>
      </trkpt>
      <trkpt lat="46.29238" lon="-0.54663">
        <ele>55</ele>
        <time>2011-12-20T14:57:17Z</time>
      </trkpt>
      <trkpt lat="46.29238" lon="-0.54654">
        <ele>55</ele>
        <time>2011-12-20T14:57:22Z</time>
      </trkpt>
      <trkpt lat="46.29238" lon="-0.54647">
        <ele>57</ele>
        <time>2011-12-20T14:57:27Z</time>
      </trkpt>
      <trkpt lat="46.29241" lon="-0.5463">
        <ele>59</ele>
        <time>2011-12-20T14:57:32Z</time>
      </trkpt>
      <trkpt lat="46.29242" lon="-0.54628">
        <ele>58</ele>
        <time>2011-12-20T14:57:37Z</time>
      </trkpt>
      <trkpt lat="46.29242" lon="-0.54622">
        <ele>60</ele>
        <time>2011-12-20T14:57:42Z</time>
      </trkpt>
      <trkpt lat="46.29244" lon="-0.54607">
        <ele>58</ele>
        <time>2011-12-20T14:57:47Z</time>
      </trkpt>
      <trkpt lat="46.29244" lon="-0.54604">
        <ele>57</ele>
        <time>2011-12-20T14:57:52Z</time>
      </trkpt>
      <trkpt lat="46.29248" lon="-0.54598">
        <ele>58</ele>
        <time>2011-12-20T14:57:57Z</time>
      </trkpt>
      <trkpt lat="46.29249" lon="-0.54589">
        <ele>59</ele>
        <time>2011-12-20T14:58:02Z</time>
      </trkpt>
      <trkpt lat="46.29248" lon="-0.54582">
        <ele>58</ele>
        <time>2011-12-20T14:58:07Z</time>
      </trkpt>
      <trkpt lat="46.29248" lon="-0.5457">
        <ele>54</ele>
        <time>2011-12-20T14:58:12Z</time>
      </trkpt>
      <trkpt lat="46.2925" lon="-0.54559">
        <ele>49</ele>
        <time>2011-12-20T14:58:17Z</time>
      </trkpt>
      <trkpt lat="46.29251" lon="-0.54548">
        <ele>48</ele>
        <time>2011-12-20T14:58:22Z</time>
      </trkpt>
      <trkpt lat="46.29255" lon="-0.54536">
        <ele>49</ele>
        <time>2011-12-20T14:58:27Z</time>
      </trkpt>
      <trkpt lat="46.29258" lon="-0.54522">
        <ele>49</ele>
        <time>2011-12-20T14:58:32Z</time>
      </trkpt>
      <trkpt lat="46.2926" lon="-0.54515">
        <ele>50</ele>
        <time>2011-12-20T14:58:37Z</time>
      </trkpt>
      <trkpt lat="46.29263" lon="-0.54506">
        <ele>49</ele>
        <time>2011-12-20T14:58:42Z</time>
      </trkpt>
      <trkpt lat="46.29263" lon="-0.54502">
        <ele>48</ele>
        <time>2011-12-20T14:58:47Z</time>
      </trkpt>
      <trkpt lat="46.29266" lon="-0.5449">
        <ele>47</ele>
        <time>2011-12-20T14:58:52Z</time>
      </trkpt>
      <trkpt lat="46.29266" lon="-0.54479">
        <ele>49</ele>
        <time>2011-12-20T14:58:57Z</time>
      </trkpt>
      <trkpt lat="46.29267" lon="-0.54474">
        <ele>48</ele>
        <time>2011-12-20T14:59:02Z</time>
      </trkpt>
      <trkpt lat="46.29271" lon="-0.54469">
        <ele>49</ele>
        <time>2011-12-20T14:59:07Z</time>
      </trkpt>
      <trkpt lat="46.29273" lon="-0.54454">
        <ele>48</ele>
        <time>2011-12-20T14:59:12Z</time>
      </trkpt>
      <trkpt lat="46.29274" lon="-0.54445">
        <ele>48</ele>
        <time>2011-12-20T14:59:17Z</time>
      </trkpt>
      <trkpt lat="46.29276" lon="-0.54437">
        <ele>49</ele>
        <time>2011-12-20T14:59:22Z</time>
      </trkpt>
      <trkpt lat="46.29276" lon="-0.54433">
        <ele>49</ele>
        <time>2011-12-20T14:59:27Z</time>
      </trkpt>
      <trkpt lat="46.29277" lon="-0.54427">
        <ele>49</ele>
        <time>2011-12-20T14:59:32Z</time>
      </trkpt>
      <trkpt lat="46.29277" lon="-0.5442">
        <ele>47</ele>
        <time>2011-12-20T14:59:37Z</time>
      </trkpt>
      <trkpt lat="46.29278" lon="-0.54411">
        <ele>46</ele>
        <time>2011-12-20T14:59:42Z</time>
      </trkpt>
      <trkpt lat="46.29279" lon="-0.54401">
        <ele>46</ele>
        <time>2011-12-20T14:59:47Z</time>
      </trkpt>
      <trkpt lat="46.29281" lon="-0.54387">
        <ele>49</ele>
        <time>2011-12-20T14:59:52Z</time>
      </trkpt>
      <trkpt lat="46.29281" lon="-0.5438">
        <ele>50</ele>
        <time>2011-12-20T14:59:57Z</time>
      </trkpt>
      <trkpt lat="46.29282" lon="-0.54372">
        <ele>51</ele>
        <time>2011-12-20T15:00:02Z</time>
      </trkpt>
      <trkpt lat="46.29282" lon="-0.54364">
        <ele>50</ele>
        <time>2011-12-20T15:00:07Z</time>
      </trkpt>
      <trkpt lat="46.29281" lon="-0.54355">
        <ele>51</ele>
        <time>2011-12-20T15:00:12Z</time>
      </trkpt>
      <trkpt lat="46.29284" lon="-0.54346">
        <ele>52</ele>
        <time>2011-12-20T15:00:17Z</time>
      </trkpt>
      <trkpt lat="46.29283" lon="-0.54343">
        <ele>51</ele>
        <time>2011-12-20T15:00:22Z</time>
      </trkpt>
      <trkpt lat="46.29284" lon="-0.54331">
        <ele>53</ele>
        <time>2011-12-20T15:00:27Z</time>
      </trkpt>
      <trkpt lat="46.29285" lon="-0.54322">
        <ele>53</ele>
        <time>2011-12-20T15:00:32Z</time>
      </trkpt>
      <trkpt lat="46.29287" lon="-0.54316">
        <ele>55</ele>
        <time>2011-12-20T15:00:37Z</time>
      </trkpt>
      <trkpt lat="46.29288" lon="-0.54308">
        <ele>54</ele>
        <time>2011-12-20T15:00:42Z</time>
      </trkpt>
      <trkpt lat="46.29288" lon="-0.54301">
        <ele>52</ele>
        <time>2011-12-20T15:00:47Z</time>
      </trkpt>
      <trkpt lat="46.29291" lon="-0.54292">
        <ele>52</ele>
        <time>2011-12-20T15:00:52Z</time>
      </trkpt>
      <trkpt lat="46.29292" lon="-0.54284">
        <ele>52</ele>
        <time>2011-12-20T15:00:57Z</time>
      </trkpt>
      <trkpt lat="46.29293" lon="-0.54274">
        <ele>54</ele>
        <time>2011-12-20T15:01:02Z</time>
      </trkpt>
      <trkpt lat="46.29295" lon="-0.54271">
        <ele>51</ele>
        <time>2011-12-20T15:01:07Z</time>
      </trkpt>
      <trkpt lat="46.29296" lon="-0.54262">
        <ele>51</ele>
        <time>2011-12-20T15:01:12Z</time>
      </trkpt>
      <trkpt lat="46.29296" lon="-0.54258">
        <ele>51</ele>
        <time>2011-12-20T15:01:17Z</time>
      </trkpt>
      <trkpt lat="46.29297" lon="-0.54246">
        <ele>52</ele>
        <time>2011-12-20T15:01:22Z</time>
      </trkpt>
      <trkpt lat="46.29301" lon="-0.54239">
        <ele>51</ele>
        <time>2011-12-20T15:01:27Z</time>
      </trkpt>
      <trkpt lat="46.29302" lon="-0.54235">
        <ele>50</ele>
        <time>2011-12-20T15:01:32Z</time>
      </trkpt>
      <trkpt lat="46.29302" lon="-0.54222">
        <ele>52</ele>
        <time>2011-12-20T15:01:37Z</time>
      </trkpt>
      <trkpt lat="46.29303" lon="-0.54212">
        <ele>54</ele>
        <time>2011-12-20T15:01:42Z</time>
      </trkpt>
      <trkpt lat="46.29305" lon="-0.54206">
        <ele>53</ele>
        <time>2011-12-20T15:01:47Z</time>
      </trkpt>
      <trkpt lat="46.29306" lon="-0.542">
        <ele>51</ele>
        <time>2011-12-20T15:01:52Z</time>
      </trkpt>
      <trkpt lat="46.29308" lon="-0.54192">
        <ele>51</ele>
        <time>2011-12-20T15:01:57Z</time>
      </trkpt>
      <trkpt lat="46.29309" lon="-0.54185">
        <ele>50</ele>
        <time>2011-12-20T15:02:02Z</time>
      </trkpt>
      <trkpt lat="46.29311" lon="-0.54172">
        <ele>51</ele>
        <time>2011-12-20T15:02:07Z</time>
      </trkpt>
      <trkpt lat="46.29312" lon="-0.54164">
        <ele>49</ele>
        <time>2011-12-20T15:02:12Z</time>
      </trkpt>
      <trkpt lat="46.29314" lon="-0.54158">
        <ele>49</ele>
        <time>2011-12-20T15:02:17Z</time>
      </trkpt>
      <trkpt lat="46.29315" lon="-0.54149">
        <ele>48</ele>
        <time>2011-12-20T15:02:22Z</time>
      </trkpt>
      <trkpt lat="46.29317" lon="-0.54143">
        <ele>48</ele>
        <time>2011-12-20T15:02:27Z</time>
      </trkpt>
      <trkpt lat="46.29319" lon="-0.54133">
        <ele>49</ele>
        <time>2011-12-20T15:02:32Z</time>
      </trkpt>
      <trkpt lat="46.29318" lon="-0.54125">
        <ele>49</ele>
        <time>2011-12-20T15:02:37Z</time>
      </trkpt>
      <trkpt lat="46.29319" lon="-0.5412">
        <ele>49</ele>
        <time>2011-12-20T15:02:42Z</time>
      </trkpt>
      <trkpt lat="46.2932" lon="-0.54111">
        <ele>47</ele>
        <time>2011-12-20T15:02:47Z</time>
      </trkpt>
      <trkpt lat="46.29321" lon="-0.54106">
        <ele>46</ele>
        <time>2011-12-20T15:02:52Z</time>
      </trkpt>
      <trkpt lat="46.29323" lon="-0.54096">
        <ele>47</ele>
        <time>2011-12-20T15:02:57Z</time>
      </trkpt>
      <trkpt lat="46.29326" lon="-0.54089">
        <ele>46</ele>
        <time>2011-12-20T15:03:02Z</time>
      </trkpt>
      <trkpt lat="46.29326" lon="-0.54082">
        <ele>47</ele>
        <time>2011-12-20T15:03:07Z</time>
      </trkpt>
      <trkpt lat="46.29328" lon="-0.54074">
        <ele>46</ele>
        <time>2011-12-20T15:03:12Z</time>
      </trkpt>
      <trkpt lat="46.2933" lon="-0.5406">
        <ele>48</ele>
        <time>2011-12-20T15:03:17Z</time>
      </trkpt>
      <trkpt lat="46.29332" lon="-0.54048">
        <ele>49</ele>
        <time>2011-12-20T15:03:22Z</time>
      </trkpt>
      <trkpt lat="46.29332" lon="-0.54042">
        <ele>49</ele>
        <time>2011-12-20T15:03:27Z</time>
      </trkpt>
      <trkpt lat="46.29332" lon="-0.5404">
        <ele>49</ele>
        <time>2011-12-20T15:03:32Z</time>
      </trkpt>
      <trkpt lat="46.29334" lon="-0.5403">
        <ele>49</ele>
        <time>2011-12-20T15:03:37Z</time>
      </trkpt>
      <trkpt lat="46.29333" lon="-0.54027">
        <ele>48</ele>
        <time>2011-12-20T15:03:42Z</time>
      </trkpt>
      <trkpt lat="46.29333" lon="-0.54024">
        <ele>49</ele>
        <time>2011-12-20T15:03:47Z</time>
      </trkpt>
      <trkpt lat="46.29335" lon="-0.54019">
        <ele>50</ele>
        <time>2011-12-20T15:03:52Z</time>
      </trkpt>
      <trkpt lat="46.29336" lon="-0.5401">
        <ele>51</ele>
        <time>2011-12-20T15:03:57Z</time>
      </trkpt>
      <trkpt lat="46.29335" lon="-0.54007">
        <ele>54</ele>
        <time>2011-12-20T15:04:02Z</time>
      </trkpt>
      <trkpt lat="46.29337" lon="-0.53996">
        <ele>55</ele>
        <time>2011-12-20T15:04:07Z</time>
      </trkpt>
      <trkpt lat="46.29339" lon="-0.5399">
        <ele>55</ele>
        <time>2011-12-20T15:04:12Z</time>
      </trkpt>
      <trkpt lat="46.29341" lon="-0.53981">
        <ele>56</ele>
        <time>2011-12-20T15:04:17Z</time>
      </trkpt>
      <trkpt lat="46.29342" lon="-0.53969">
        <ele>56</ele>
        <time>2011-12-20T15:04:22Z</time>
      </trkpt>
      <trkpt lat="46.29344" lon="-0.53959">
        <ele>55</ele>
        <time>2011-12-20T15:04:27Z</time>
      </trkpt>
      <trkpt lat="46.29343" lon="-0.53959">
        <ele>56</ele>
        <time>2011-12-20T15:04:32Z</time>
      </trkpt>
      <trkpt lat="46.29345" lon="-0.53953">
        <ele>52</ele>
        <time>2011-12-20T15:04:37Z</time>
      </trkpt>
      <trkpt lat="46.29344" lon="-0.53948">
        <ele>51</ele>
        <time>2011-12-20T15:04:42Z</time>
      </trkpt>
      <trkpt lat="46.29348" lon="-0.5393">
        <ele>51</ele>
        <time>2011-12-20T15:04:47Z</time>
      </trkpt>
      <trkpt lat="46.29351" lon="-0.53916">
        <ele>50</ele>
        <time>2011-12-20T15:04:52Z</time>
      </trkpt>
      <trkpt lat="46.29352" lon="-0.53909">
        <ele>50</ele>
        <time>2011-12-20T15:04:57Z</time>
      </trkpt>
      <trkpt lat="46.29353" lon="-0.53908">
        <ele>49</ele>
        <time>2011-12-20T15:05:02Z</time>
      </trkpt>
      <trkpt lat="46.29353" lon="-0.53907">
        <ele>49</ele>
        <time>2011-12-20T15:05:07Z</time>
      </trkpt>
      <trkpt lat="46.29357" lon="-0.53887">
        <ele>45</ele>
        <time>2011-12-20T15:05:17Z</time>
      </trkpt>
      <trkpt lat="46.29359" lon="-0.5388">
        <ele>45</ele>
        <time>2011-12-20T15:05:22Z</time>
      </trkpt>
      <trkpt lat="46.29359" lon="-0.53872">
        <ele>45</ele>
        <time>2011-12-20T15:05:27Z</time>
      </trkpt>
      <trkpt lat="46.29358" lon="-0.53858">
        <ele>47</ele>
        <time>2011-12-20T15:05:32Z</time>
      </trkpt>
      <trkpt lat="46.29355" lon="-0.53851">
        <ele>48</ele>
        <time>2011-12-20T15:05:37Z</time>
      </trkpt>
      <trkpt lat="46.29352" lon="-0.53842">
        <ele>51</ele>
        <time>2011-12-20T15:05:42Z</time>
      </trkpt>
      <trkpt lat="46.29346" lon="-0.53838">
        <ele>52</ele>
        <time>2011-12-20T15:05:47Z</time>
      </trkpt>
      <trkpt lat="46.29343" lon="-0.53836">
        <ele>52</ele>
        <time>2011-12-20T15:05:52Z</time>
      </trkpt>
      <trkpt lat="46.29337" lon="-0.53833">
        <ele>52</ele>
        <time>2011-12-20T15:05:57Z</time>
      </trkpt>
      <trkpt lat="46.29333" lon="-0.53835">
        <ele>51</ele>
        <time>2011-12-20T15:06:02Z</time>
      </trkpt>
      <trkpt lat="46.29326" lon="-0.53827">
        <ele>53</ele>
        <time>2011-12-20T15:06:07Z</time>
      </trkpt>
      <trkpt lat="46.29324" lon="-0.53828">
        <ele>53</ele>
        <time>2011-12-20T15:06:12Z</time>
      </trkpt>
      <trkpt lat="46.2932" lon="-0.53832">
        <ele>51</ele>
        <time>2011-12-20T15:06:17Z</time>
      </trkpt>
      <trkpt lat="46.29316" lon="-0.53831">
        <ele>52</ele>
        <time>2011-12-20T15:06:22Z</time>
      </trkpt>
      <trkpt lat="46.29313" lon="-0.53834">
        <ele>53</ele>
        <time>2011-12-20T15:06:27Z</time>
      </trkpt>
      <trkpt lat="46.29307" lon="-0.53827">
        <ele>56</ele>
        <time>2011-12-20T15:06:32Z</time>
      </trkpt>
      <trkpt lat="46.29302" lon="-0.53824">
        <ele>58</ele>
        <time>2011-12-20T15:06:37Z</time>
      </trkpt>
      <trkpt lat="46.29296" lon="-0.53821">
        <ele>59</ele>
        <time>2011-12-20T15:06:42Z</time>
      </trkpt>
      <trkpt lat="46.29291" lon="-0.53815">
        <ele>58</ele>
        <time>2011-12-20T15:06:47Z</time>
      </trkpt>
      <trkpt lat="46.29287" lon="-0.53812">
        <ele>57</ele>
        <time>2011-12-20T15:06:52Z</time>
      </trkpt>
      <trkpt lat="46.29282" lon="-0.53809">
        <ele>57</ele>
        <time>2011-12-20T15:06:57Z</time>
      </trkpt>
      <trkpt lat="46.29278" lon="-0.53805">
        <ele>57</ele>
        <time>2011-12-20T15:07:02Z</time>
      </trkpt>
      <trkpt lat="46.29273" lon="-0.53804">
        <ele>58</ele>
        <time>2011-12-20T15:07:07Z</time>
      </trkpt>
      <trkpt lat="46.29269" lon="-0.53799">
        <ele>57</ele>
        <time>2011-12-20T15:07:12Z</time>
      </trkpt>
      <trkpt lat="46.29264" lon="-0.53798">
        <ele>56</ele>
        <time>2011-12-20T15:07:17Z</time>
      </trkpt>
      <trkpt lat="46.2926" lon="-0.53795">
        <ele>55</ele>
        <time>2011-12-20T15:07:22Z</time>
      </trkpt>
      <trkpt lat="46.29255" lon="-0.53793">
        <ele>56</ele>
        <time>2011-12-20T15:07:27Z</time>
      </trkpt>
      <trkpt lat="46.2925" lon="-0.53791">
        <ele>56</ele>
        <time>2011-12-20T15:07:32Z</time>
      </trkpt>
      <trkpt lat="46.29244" lon="-0.53788">
        <ele>56</ele>
        <time>2011-12-20T15:07:37Z</time>
      </trkpt>
      <trkpt lat="46.29241" lon="-0.53788">
        <ele>55</ele>
        <time>2011-12-20T15:07:42Z</time>
      </trkpt>
      <trkpt lat="46.29237" lon="-0.53787">
        <ele>55</ele>
        <time>2011-12-20T15:07:47Z</time>
      </trkpt>
      <trkpt lat="46.29234" lon="-0.53785">
        <ele>53</ele>
        <time>2011-12-20T15:07:52Z</time>
      </trkpt>
      <trkpt lat="46.29228" lon="-0.53782">
        <ele>53</ele>
        <time>2011-12-20T15:07:57Z</time>
      </trkpt>
      <trkpt lat="46.29222" lon="-0.53778">
        <ele>55</ele>
        <time>2011-12-20T15:08:02Z</time>
      </trkpt>
      <trkpt lat="46.29218" lon="-0.53776">
        <ele>56</ele>
        <time>2011-12-20T15:08:07Z</time>
      </trkpt>
      <trkpt lat="46.29213" lon="-0.53773">
        <ele>57</ele>
        <time>2011-12-20T15:08:12Z</time>
      </trkpt>
      <trkpt lat="46.2921" lon="-0.53769">
        <ele>57</ele>
        <time>2011-12-20T15:08:17Z</time>
      </trkpt>
      <trkpt lat="46.29205" lon="-0.5377">
        <ele>58</ele>
        <time>2011-12-20T15:08:22Z</time>
      </trkpt>
      <trkpt lat="46.29201" lon="-0.5377">
        <ele>58</ele>
        <time>2011-12-20T15:08:27Z</time>
      </trkpt>
      <trkpt lat="46.29195" lon="-0.53764">
        <ele>58</ele>
        <time>2011-12-20T15:08:32Z</time>
      </trkpt>
      <trkpt lat="46.29191" lon="-0.5376">
        <ele>59</ele>
        <time>2011-12-20T15:08:37Z</time>
      </trkpt>
      <trkpt lat="46.29187" lon="-0.53762">
        <ele>60</ele>
        <time>2011-12-20T15:08:42Z</time>
      </trkpt>
      <trkpt lat="46.29182" lon="-0.53756">
        <ele>61</ele>
        <time>2011-12-20T15:08:47Z</time>
      </trkpt>
      <trkpt lat="46.29176" lon="-0.53754">
        <ele>62</ele>
        <time>2011-12-20T15:08:52Z</time>
      </trkpt>
      <trkpt lat="46.29176" lon="-0.53755">
        <ele>63</ele>
        <time>2011-12-20T15:08:57Z</time>
      </trkpt>
      <trkpt lat="46.2917" lon="-0.53755">
        <ele>65</ele>
        <time>2011-12-20T15:09:02Z</time>
      </trkpt>
      <trkpt lat="46.29164" lon="-0.53754">
        <ele>65</ele>
        <time>2011-12-20T15:09:07Z</time>
      </trkpt>
      <trkpt lat="46.29159" lon="-0.53754">
        <ele>66</ele>
        <time>2011-12-20T15:09:12Z</time>
      </trkpt>
      <trkpt lat="46.29154" lon="-0.5375">
        <ele>67</ele>
        <time>2011-12-20T15:09:17Z</time>
      </trkpt>
      <trkpt lat="46.2915" lon="-0.53742">
        <ele>66</ele>
        <time>2011-12-20T15:09:22Z</time>
      </trkpt>
      <trkpt lat="46.29144" lon="-0.53737">
        <ele>66</ele>
        <time>2011-12-20T15:09:27Z</time>
      </trkpt>
      <trkpt lat="46.29141" lon="-0.53736">
        <ele>65</ele>
        <time>2011-12-20T15:09:32Z</time>
      </trkpt>
      <trkpt lat="46.29138" lon="-0.53737">
        <ele>66</ele>
        <time>2011-12-20T15:09:37Z</time>
      </trkpt>
      <trkpt lat="46.29135" lon="-0.53734">
        <ele>65</ele>
        <time>2011-12-20T15:09:42Z</time>
      </trkpt>
      <trkpt lat="46.29131" lon="-0.53733">
        <ele>65</ele>
        <time>2011-12-20T15:09:47Z</time>
      </trkpt>
      <trkpt lat="46.29127" lon="-0.53732">
        <ele>66</ele>
        <time>2011-12-20T15:09:52Z</time>
      </trkpt>
      <trkpt lat="46.29127" lon="-0.53731">
        <ele>65</ele>
        <time>2011-12-20T15:10:02Z</time>
      </trkpt>
      <trkpt lat="46.29122" lon="-0.53728">
        <ele>65</ele>
        <time>2011-12-20T15:10:22Z</time>
      </trkpt>
      <trkpt lat="46.29117" lon="-0.53727">
        <ele>63</ele>
        <time>2011-12-20T15:10:27Z</time>
      </trkpt>
      <trkpt lat="46.29113" lon="-0.53724">
        <ele>63</ele>
        <time>2011-12-20T15:10:32Z</time>
      </trkpt>
      <trkpt lat="46.29107" lon="-0.5372">
        <ele>62</ele>
        <time>2011-12-20T15:10:37Z</time>
      </trkpt>
      <trkpt lat="46.29102" lon="-0.53719">
        <ele>61</ele>
        <time>2011-12-20T15:10:42Z</time>
      </trkpt>
      <trkpt lat="46.29096" lon="-0.53716">
        <ele>61</ele>
        <time>2011-12-20T15:10:47Z</time>
      </trkpt>
      <trkpt lat="46.29093" lon="-0.5371">
        <ele>60</ele>
        <time>2011-12-20T15:10:52Z</time>
      </trkpt>
      <trkpt lat="46.29093" lon="-0.53705">
        <ele>61</ele>
        <time>2011-12-20T15:10:57Z</time>
      </trkpt>
      <trkpt lat="46.29093" lon="-0.53702">
        <ele>62</ele>
        <time>2011-12-20T15:11:02Z</time>
      </trkpt>
      <trkpt lat="46.29094" lon="-0.53694">
        <ele>64</ele>
        <time>2011-12-20T15:11:07Z</time>
      </trkpt>
      <trkpt lat="46.29097" lon="-0.53683">
        <ele>64</ele>
        <time>2011-12-20T15:11:12Z</time>
      </trkpt>
      <trkpt lat="46.29098" lon="-0.53677">
        <ele>64</ele>
        <time>2011-12-20T15:11:17Z</time>
      </trkpt>
      <trkpt lat="46.29102" lon="-0.53665">
        <ele>63</ele>
        <time>2011-12-20T15:11:22Z</time>
      </trkpt>
      <trkpt lat="46.29104" lon="-0.53655">
        <ele>63</ele>
        <time>2011-12-20T15:11:27Z</time>
      </trkpt>
      <trkpt lat="46.29106" lon="-0.53645">
        <ele>63</ele>
        <time>2011-12-20T15:11:32Z</time>
      </trkpt>
      <trkpt lat="46.2911" lon="-0.53635">
        <ele>63</ele>
        <time>2011-12-20T15:11:37Z</time>
      </trkpt>
      <trkpt lat="46.29112" lon="-0.53627">
        <ele>63</ele>
        <time>2011-12-20T15:11:42Z</time>
      </trkpt>
      <trkpt lat="46.29112" lon="-0.53624">
        <ele>62</ele>
        <time>2011-12-20T15:11:47Z</time>
      </trkpt>
      <trkpt lat="46.29113" lon="-0.5362">
        <ele>62</ele>
        <time>2011-12-20T15:11:52Z</time>
      </trkpt>
      <trkpt lat="46.29117" lon="-0.53611">
        <ele>62</ele>
        <time>2011-12-20T15:11:57Z</time>
      </trkpt>
      <trkpt lat="46.2912" lon="-0.53602">
        <ele>62</ele>
        <time>2011-12-20T15:12:02Z</time>
      </trkpt>
      <trkpt lat="46.29122" lon="-0.53594">
        <ele>62</ele>
        <time>2011-12-20T15:12:07Z</time>
      </trkpt>
      <trkpt lat="46.29124" lon="-0.53585">
        <ele>61</ele>
        <time>2011-12-20T15:12:12Z</time>
      </trkpt>
      <trkpt lat="46.29125" lon="-0.53579">
        <ele>62</ele>
        <time>2011-12-20T15:12:17Z</time>
      </trkpt>
      <trkpt lat="46.29127" lon="-0.53569">
        <ele>62</ele>
        <time>2011-12-20T15:12:22Z</time>
      </trkpt>
      <trkpt lat="46.29129" lon="-0.53562">
        <ele>61</ele>
        <time>2011-12-20T15:12:27Z</time>
      </trkpt>
      <trkpt lat="46.29132" lon="-0.53554">
        <ele>61</ele>
        <time>2011-12-20T15:12:32Z</time>
      </trkpt>
      <trkpt lat="46.29135" lon="-0.53545">
        <ele>62</ele>
        <time>2011-12-20T15:12:37Z</time>
      </trkpt>
      <trkpt lat="46.29136" lon="-0.53537">
        <ele>62</ele>
        <time>2011-12-20T15:12:42Z</time>
      </trkpt>
      <trkpt lat="46.29139" lon="-0.53528">
        <ele>62</ele>
        <time>2011-12-20T15:12:47Z</time>
      </trkpt>
      <trkpt lat="46.2914" lon="-0.5352">
        <ele>62</ele>
        <time>2011-12-20T15:12:52Z</time>
      </trkpt>
      <trkpt lat="46.29144" lon="-0.53512">
        <ele>62</ele>
        <time>2011-12-20T15:12:57Z</time>
      </trkpt>
      <trkpt lat="46.29145" lon="-0.53504">
        <ele>63</ele>
        <time>2011-12-20T15:13:02Z</time>
      </trkpt>
      <trkpt lat="46.29147" lon="-0.53496">
        <ele>62</ele>
        <time>2011-12-20T15:13:07Z</time>
      </trkpt>
      <trkpt lat="46.2915" lon="-0.53489">
        <ele>63</ele>
        <time>2011-12-20T15:13:12Z</time>
      </trkpt>
      <trkpt lat="46.29152" lon="-0.53482">
        <ele>62</ele>
        <time>2011-12-20T15:13:17Z</time>
      </trkpt>
      <trkpt lat="46.29153" lon="-0.53475">
        <ele>62</ele>
        <time>2011-12-20T15:13:22Z</time>
      </trkpt>
      <trkpt lat="46.29155" lon="-0.53466">
        <ele>63</ele>
        <time>2011-12-20T15:13:27Z</time>
      </trkpt>
      <trkpt lat="46.29156" lon="-0.53459">
        <ele>63</ele>
        <time>2011-12-20T15:13:32Z</time>
      </trkpt>
      <trkpt lat="46.29159" lon="-0.53449">
        <ele>63</ele>
        <time>2011-12-20T15:13:37Z</time>
      </trkpt>
      <trkpt lat="46.29161" lon="-0.53444">
        <ele>61</ele>
        <time>2011-12-20T15:13:42Z</time>
      </trkpt>
      <trkpt lat="46.29161" lon="-0.53444">
        <ele>61</ele>
        <time>2011-12-20T15:13:47Z</time>
      </trkpt>
      <trkpt lat="46.29163" lon="-0.5343">
        <ele>62</ele>
        <time>2011-12-20T15:13:52Z</time>
      </trkpt>
      <trkpt lat="46.29166" lon="-0.53423">
        <ele>64</ele>
        <time>2011-12-20T15:13:57Z</time>
      </trkpt>
      <trkpt lat="46.2917" lon="-0.5341">
        <ele>63</ele>
        <time>2011-12-20T15:14:02Z</time>
      </trkpt>
      <trkpt lat="46.29173" lon="-0.53402">
        <ele>64</ele>
        <time>2011-12-20T15:14:07Z</time>
      </trkpt>
      <trkpt lat="46.29176" lon="-0.53397">
        <ele>63</ele>
        <time>2011-12-20T15:14:12Z</time>
      </trkpt>
      <trkpt lat="46.29177" lon="-0.5339">
        <ele>63</ele>
        <time>2011-12-20T15:14:17Z</time>
      </trkpt>
      <trkpt lat="46.29179" lon="-0.53383">
        <ele>63</ele>
        <time>2011-12-20T15:14:22Z</time>
      </trkpt>
      <trkpt lat="46.29179" lon="-0.53374">
        <ele>63</ele>
        <time>2011-12-20T15:14:27Z</time>
      </trkpt>
      <trkpt lat="46.2918" lon="-0.5337">
        <ele>64</ele>
        <time>2011-12-20T15:14:32Z</time>
      </trkpt>
      <trkpt lat="46.29182" lon="-0.53361">
        <ele>65</ele>
        <time>2011-12-20T15:14:37Z</time>
      </trkpt>
      <trkpt lat="46.29187" lon="-0.53349">
        <ele>63</ele>
        <time>2011-12-20T15:14:42Z</time>
      </trkpt>
      <trkpt lat="46.2919" lon="-0.53341">
        <ele>65</ele>
        <time>2011-12-20T15:14:47Z</time>
      </trkpt>
      <trkpt lat="46.29192" lon="-0.53335">
        <ele>64</ele>
        <time>2011-12-20T15:14:52Z</time>
      </trkpt>
      <trkpt lat="46.29196" lon="-0.53323">
        <ele>64</ele>
        <time>2011-12-20T15:14:57Z</time>
      </trkpt>
      <trkpt lat="46.29199" lon="-0.53316">
        <ele>63</ele>
        <time>2011-12-20T15:15:02Z</time>
      </trkpt>
      <trkpt lat="46.29198" lon="-0.53309">
        <ele>63</ele>
        <time>2011-12-20T15:15:07Z</time>
      </trkpt>
      <trkpt lat="46.29199" lon="-0.53306">
        <ele>63</ele>
        <time>2011-12-20T15:15:12Z</time>
      </trkpt>
      <trkpt lat="46.292" lon="-0.533">
        <ele>64</ele>
        <time>2011-12-20T15:15:17Z</time>
      </trkpt>
      <trkpt lat="46.29204" lon="-0.53296">
        <ele>62</ele>
        <time>2011-12-20T15:15:22Z</time>
      </trkpt>
      <trkpt lat="46.29208" lon="-0.53284">
        <ele>63</ele>
        <time>2011-12-20T15:15:27Z</time>
      </trkpt>
      <trkpt lat="46.29215" lon="-0.53282">
        <ele>64</ele>
        <time>2011-12-20T15:15:32Z</time>
      </trkpt>
      <trkpt lat="46.2922" lon="-0.5328">
        <ele>64</ele>
        <time>2011-12-20T15:15:37Z</time>
      </trkpt>
      <trkpt lat="46.29227" lon="-0.5328">
        <ele>64</ele>
        <time>2011-12-20T15:15:42Z</time>
      </trkpt>
      <trkpt lat="46.29233" lon="-0.53276">
        <ele>67</ele>
        <time>2011-12-20T15:15:47Z</time>
      </trkpt>
      <trkpt lat="46.29238" lon="-0.53273">
        <ele>68</ele>
        <time>2011-12-20T15:15:52Z</time>
      </trkpt>
      <trkpt lat="46.29242" lon="-0.53267">
        <ele>65</ele>
        <time>2011-12-20T15:15:57Z</time>
      </trkpt>
      <trkpt lat="46.29241" lon="-0.5326">
        <ele>63</ele>
        <time>2011-12-20T15:16:02Z</time>
      </trkpt>
      <trkpt lat="46.29242" lon="-0.53251">
        <ele>63</ele>
        <time>2011-12-20T15:16:07Z</time>
      </trkpt>
      <trkpt lat="46.2924" lon="-0.53242">
        <ele>63</ele>
        <time>2011-12-20T15:16:12Z</time>
      </trkpt>
      <trkpt lat="46.29239" lon="-0.53232">
        <ele>63</ele>
        <time>2011-12-20T15:16:17Z</time>
      </trkpt>
      <trkpt lat="46.29236" lon="-0.53226">
        <ele>62</ele>
        <time>2011-12-20T15:16:22Z</time>
      </trkpt>
      <trkpt lat="46.29234" lon="-0.53217">
        <ele>63</ele>
        <time>2011-12-20T15:16:27Z</time>
      </trkpt>
      <trkpt lat="46.29234" lon="-0.53214">
        <ele>63</ele>
        <time>2011-12-20T15:16:32Z</time>
      </trkpt>
      <trkpt lat="46.29233" lon="-0.53211">
        <ele>63</ele>
        <time>2011-12-20T15:16:37Z</time>
      </trkpt>
      <trkpt lat="46.29233" lon="-0.53205">
        <ele>62</ele>
        <time>2011-12-20T15:16:42Z</time>
      </trkpt>
      <trkpt lat="46.2923" lon="-0.53198">
        <ele>61</ele>
        <time>2011-12-20T15:16:47Z</time>
      </trkpt>
      <trkpt lat="46.29228" lon="-0.53189">
        <ele>61</ele>
        <time>2011-12-20T15:16:52Z</time>
      </trkpt>
      <trkpt lat="46.29224" lon="-0.53176">
        <ele>61</ele>
        <time>2011-12-20T15:16:57Z</time>
      </trkpt>
      <trkpt lat="46.2922" lon="-0.53168">
        <ele>61</ele>
        <time>2011-12-20T15:17:02Z</time>
      </trkpt>
      <trkpt lat="46.29219" lon="-0.5316">
        <ele>62</ele>
        <time>2011-12-20T15:17:07Z</time>
      </trkpt>
      <trkpt lat="46.29219" lon="-0.53157">
        <ele>62</ele>
        <time>2011-12-20T15:17:12Z</time>
      </trkpt>
      <trkpt lat="46.29218" lon="-0.53154">
        <ele>62</ele>
        <time>2011-12-20T15:17:17Z</time>
      </trkpt>
      <trkpt lat="46.29215" lon="-0.53144">
        <ele>63</ele>
        <time>2011-12-20T15:17:22Z</time>
      </trkpt>
      <trkpt lat="46.2921" lon="-0.53135">
        <ele>63</ele>
        <time>2011-12-20T15:17:27Z</time>
      </trkpt>
      <trkpt lat="46.29207" lon="-0.5313">
        <ele>65</ele>
        <time>2011-12-20T15:17:32Z</time>
      </trkpt>
      <trkpt lat="46.29207" lon="-0.53125">
        <ele>66</ele>
        <time>2011-12-20T15:17:37Z</time>
      </trkpt>
      <trkpt lat="46.29205" lon="-0.53115">
        <ele>66</ele>
        <time>2011-12-20T15:17:42Z</time>
      </trkpt>
      <trkpt lat="46.29203" lon="-0.53108">
        <ele>65</ele>
        <time>2011-12-20T15:17:47Z</time>
      </trkpt>
      <trkpt lat="46.292" lon="-0.53092">
        <ele>65</ele>
        <time>2011-12-20T15:17:52Z</time>
      </trkpt>
      <trkpt lat="46.29198" lon="-0.53083">
        <ele>65</ele>
        <time>2011-12-20T15:17:57Z</time>
      </trkpt>
      <trkpt lat="46.29197" lon="-0.53078">
        <ele>66</ele>
        <time>2011-12-20T15:18:02Z</time>
      </trkpt>
      <trkpt lat="46.29194" lon="-0.53071">
        <ele>67</ele>
        <time>2011-12-20T15:18:07Z</time>
      </trkpt>
      <trkpt lat="46.29192" lon="-0.5306">
        <ele>68</ele>
        <time>2011-12-20T15:18:12Z</time>
      </trkpt>
      <trkpt lat="46.29189" lon="-0.53056">
        <ele>66</ele>
        <time>2011-12-20T15:18:17Z</time>
      </trkpt>
      <trkpt lat="46.29187" lon="-0.53046">
        <ele>65</ele>
        <time>2011-12-20T15:18:22Z</time>
      </trkpt>
      <trkpt lat="46.29186" lon="-0.53039">
        <ele>64</ele>
        <time>2011-12-20T15:18:27Z</time>
      </trkpt>
      <trkpt lat="46.29183" lon="-0.53029">
        <ele>65</ele>
        <time>2011-12-20T15:18:32Z</time>
      </trkpt>
      <trkpt lat="46.29188" lon="-0.53025">
        <ele>65</ele>
        <time>2011-12-20T15:18:37Z</time>
      </trkpt>
      <trkpt lat="46.29192" lon="-0.5302">
        <ele>64</ele>
        <time>2011-12-20T15:18:42Z</time>
      </trkpt>
      <trkpt lat="46.29198" lon="-0.53018">
        <ele>65</ele>
        <time>2011-12-20T15:18:47Z</time>
      </trkpt>
      <trkpt lat="46.29198" lon="-0.53018">
        <ele>65</ele>
        <time>2011-12-20T15:18:52Z</time>
      </trkpt>
      <trkpt lat="46.29203" lon="-0.5302">
        <ele>65</ele>
        <time>2011-12-20T15:18:57Z</time>
      </trkpt>
      <trkpt lat="46.29204" lon="-0.53021">
        <ele>65</ele>
        <time>2011-12-20T15:19:02Z</time>
      </trkpt>
      <trkpt lat="46.29216" lon="-0.53019">
        <ele>64</ele>
        <time>2011-12-20T15:19:07Z</time>
      </trkpt>
      <trkpt lat="46.29222" lon="-0.53017">
        <ele>65</ele>
        <time>2011-12-20T15:19:12Z</time>
      </trkpt>
      <trkpt lat="46.29228" lon="-0.53011">
        <ele>65</ele>
        <time>2011-12-20T15:19:17Z</time>
      </trkpt>
      <trkpt lat="46.29229" lon="-0.53004">
        <ele>65</ele>
        <time>2011-12-20T15:19:22Z</time>
      </trkpt>
      <trkpt lat="46.29229" lon="-0.52998">
        <ele>65</ele>
        <time>2011-12-20T15:19:27Z</time>
      </trkpt>
      <trkpt lat="46.2923" lon="-0.52995">
        <ele>65</ele>
        <time>2011-12-20T15:19:32Z</time>
      </trkpt>
      <trkpt lat="46.2923" lon="-0.52988">
        <ele>65</ele>
        <time>2011-12-20T15:19:37Z</time>
      </trkpt>
      <trkpt lat="46.29233" lon="-0.52973">
        <ele>66</ele>
        <time>2011-12-20T15:19:42Z</time>
      </trkpt>
      <trkpt lat="46.29233" lon="-0.52962">
        <ele>66</ele>
        <time>2011-12-20T15:19:47Z</time>
      </trkpt>
      <trkpt lat="46.29234" lon="-0.52955">
        <ele>67</ele>
        <time>2011-12-20T15:19:52Z</time>
      </trkpt>
      <trkpt lat="46.29236" lon="-0.52947">
        <ele>67</ele>
        <time>2011-12-20T15:19:57Z</time>
      </trkpt>
      <trkpt lat="46.29237" lon="-0.52941">
        <ele>66</ele>
        <time>2011-12-20T15:20:02Z</time>
      </trkpt>
      <trkpt lat="46.29237" lon="-0.52936">
        <ele>66</ele>
        <time>2011-12-20T15:20:07Z</time>
      </trkpt>
      <trkpt lat="46.29238" lon="-0.52928">
        <ele>66</ele>
        <time>2011-12-20T15:20:12Z</time>
      </trkpt>
      <trkpt lat="46.2924" lon="-0.52923">
        <ele>68</ele>
        <time>2011-12-20T15:20:17Z</time>
      </trkpt>
      <trkpt lat="46.29241" lon="-0.52915">
        <ele>68</ele>
        <time>2011-12-20T15:20:22Z</time>
      </trkpt>
      <trkpt lat="46.29242" lon="-0.52907">
        <ele>69</ele>
        <time>2011-12-20T15:20:27Z</time>
      </trkpt>
      <trkpt lat="46.29242" lon="-0.52903">
        <ele>69</ele>
        <time>2011-12-20T15:20:32Z</time>
      </trkpt>
      <trkpt lat="46.29244" lon="-0.5289">
        <ele>70</ele>
        <time>2011-12-20T15:20:37Z</time>
      </trkpt>
      <trkpt lat="46.29244" lon="-0.52886">
        <ele>68</ele>
        <time>2011-12-20T15:20:42Z</time>
      </trkpt>
      <trkpt lat="46.29245" lon="-0.52878">
        <ele>69</ele>
        <time>2011-12-20T15:20:47Z</time>
      </trkpt>
      <trkpt lat="46.29246" lon="-0.5287">
        <ele>69</ele>
        <time>2011-12-20T15:20:52Z</time>
      </trkpt>
      <trkpt lat="46.29247" lon="-0.52864">
        <ele>69</ele>
        <time>2011-12-20T15:20:57Z</time>
      </trkpt>
      <trkpt lat="46.29247" lon="-0.5286">
        <ele>68</ele>
        <time>2011-12-20T15:21:02Z</time>
      </trkpt>
      <trkpt lat="46.29247" lon="-0.52852">
        <ele>67</ele>
        <time>2011-12-20T15:21:07Z</time>
      </trkpt>
      <trkpt lat="46.29248" lon="-0.52847">
        <ele>67</ele>
        <time>2011-12-20T15:21:12Z</time>
      </trkpt>
      <trkpt lat="46.2925" lon="-0.52838">
        <ele>68</ele>
        <time>2011-12-20T15:21:17Z</time>
      </trkpt>
      <trkpt lat="46.2925" lon="-0.5283">
        <ele>66</ele>
        <time>2011-12-20T15:21:22Z</time>
      </trkpt>
      <trkpt lat="46.29252" lon="-0.52822">
        <ele>65</ele>
        <time>2011-12-20T15:21:27Z</time>
      </trkpt>
      <trkpt lat="46.29252" lon="-0.52813">
        <ele>64</ele>
        <time>2011-12-20T15:21:32Z</time>
      </trkpt>
      <trkpt lat="46.29254" lon="-0.52804">
        <ele>65</ele>
        <time>2011-12-20T15:21:37Z</time>
      </trkpt>
      <trkpt lat="46.29255" lon="-0.52797">
        <ele>65</ele>
        <time>2011-12-20T15:21:42Z</time>
      </trkpt>
      <trkpt lat="46.29256" lon="-0.52792">
        <ele>65</ele>
        <time>2011-12-20T15:21:47Z</time>
      </trkpt>
      <trkpt lat="46.29258" lon="-0.52783">
        <ele>66</ele>
        <time>2011-12-20T15:21:52Z</time>
      </trkpt>
      <trkpt lat="46.29258" lon="-0.52777">
        <ele>65</ele>
        <time>2011-12-20T15:21:57Z</time>
      </trkpt>
      <trkpt lat="46.29259" lon="-0.5277">
        <ele>65</ele>
        <time>2011-12-20T15:22:02Z</time>
      </trkpt>
      <trkpt lat="46.29261" lon="-0.52762">
        <ele>66</ele>
        <time>2011-12-20T15:22:07Z</time>
      </trkpt>
      <trkpt lat="46.29262" lon="-0.52755">
        <ele>66</ele>
        <time>2011-12-20T15:22:12Z</time>
      </trkpt>
      <trkpt lat="46.29264" lon="-0.52746">
        <ele>66</ele>
        <time>2011-12-20T15:22:17Z</time>
      </trkpt>
      <trkpt lat="46.29265" lon="-0.52739">
        <ele>66</ele>
        <time>2011-12-20T15:22:22Z</time>
      </trkpt>
      <trkpt lat="46.29269" lon="-0.52734">
        <ele>66</ele>
        <time>2011-12-20T15:22:27Z</time>
      </trkpt>
      <trkpt lat="46.29273" lon="-0.52735">
        <ele>69</ele>
        <time>2011-12-20T15:22:32Z</time>
      </trkpt>
      <trkpt lat="46.29278" lon="-0.52737">
        <ele>70</ele>
        <time>2011-12-20T15:22:37Z</time>
      </trkpt>
      <trkpt lat="46.29282" lon="-0.52737">
        <ele>69</ele>
        <time>2011-12-20T15:22:42Z</time>
      </trkpt>
      <trkpt lat="46.29286" lon="-0.52734">
        <ele>69</ele>
        <time>2011-12-20T15:22:47Z</time>
      </trkpt>
      <trkpt lat="46.29292" lon="-0.52735">
        <ele>69</ele>
        <time>2011-12-20T15:22:52Z</time>
      </trkpt>
      <trkpt lat="46.29294" lon="-0.52734">
        <ele>68</ele>
        <time>2011-12-20T15:22:57Z</time>
      </trkpt>
      <trkpt lat="46.29302" lon="-0.52729">
        <ele>67</ele>
        <time>2011-12-20T15:23:02Z</time>
      </trkpt>
      <trkpt lat="46.29303" lon="-0.5273">
        <ele>67</ele>
        <time>2011-12-20T15:23:07Z</time>
      </trkpt>
      <trkpt lat="46.29312" lon="-0.52728">
        <ele>67</ele>
        <time>2011-12-20T15:23:12Z</time>
      </trkpt>
      <trkpt lat="46.29315" lon="-0.52727">
        <ele>66</ele>
        <time>2011-12-20T15:23:17Z</time>
      </trkpt>
      <trkpt lat="46.29324" lon="-0.52724">
        <ele>66</ele>
        <time>2011-12-20T15:23:22Z</time>
      </trkpt>
      <trkpt lat="46.2933" lon="-0.52725">
        <ele>66</ele>
        <time>2011-12-20T15:23:27Z</time>
      </trkpt>
      <trkpt lat="46.29333" lon="-0.52724">
        <ele>65</ele>
        <time>2011-12-20T15:23:32Z</time>
      </trkpt>
      <trkpt lat="46.29342" lon="-0.52723">
        <ele>66</ele>
        <time>2011-12-20T15:23:37Z</time>
      </trkpt>
      <trkpt lat="46.29347" lon="-0.52721">
        <ele>70</ele>
        <time>2011-12-20T15:23:42Z</time>
      </trkpt>
      <trkpt lat="46.29354" lon="-0.5272">
        <ele>71</ele>
        <time>2011-12-20T15:23:47Z</time>
      </trkpt>
      <trkpt lat="46.2936" lon="-0.5272">
        <ele>71</ele>
        <time>2011-12-20T15:23:52Z</time>
      </trkpt>
      <trkpt lat="46.29366" lon="-0.52718">
        <ele>70</ele>
        <time>2011-12-20T15:23:57Z</time>
      </trkpt>
      <trkpt lat="46.29371" lon="-0.52716">
        <ele>71</ele>
        <time>2011-12-20T15:24:02Z</time>
      </trkpt>
      <trkpt lat="46.29376" lon="-0.52715">
        <ele>72</ele>
        <time>2011-12-20T15:24:07Z</time>
      </trkpt>
      <trkpt lat="46.29381" lon="-0.52715">
        <ele>72</ele>
        <time>2011-12-20T15:24:12Z</time>
      </trkpt>
      <trkpt lat="46.29384" lon="-0.52716">
        <ele>74</ele>
        <time>2011-12-20T15:24:17Z</time>
      </trkpt>
      <trkpt lat="46.2939" lon="-0.52715">
        <ele>73</ele>
        <time>2011-12-20T15:24:22Z</time>
      </trkpt>
      <trkpt lat="46.29392" lon="-0.52716">
        <ele>74</ele>
        <time>2011-12-20T15:24:27Z</time>
      </trkpt>
      <trkpt lat="46.29398" lon="-0.52715">
        <ele>73</ele>
        <time>2011-12-20T15:24:32Z</time>
      </trkpt>
      <trkpt lat="46.29405" lon="-0.52716">
        <ele>72</ele>
        <time>2011-12-20T15:24:37Z</time>
      </trkpt>
      <trkpt lat="46.29409" lon="-0.52716">
        <ele>71</ele>
        <time>2011-12-20T15:24:42Z</time>
      </trkpt>
      <trkpt lat="46.29413" lon="-0.52716">
        <ele>72</ele>
        <time>2011-12-20T15:24:47Z</time>
      </trkpt>
      <trkpt lat="46.29421" lon="-0.52715">
        <ele>73</ele>
        <time>2011-12-20T15:24:52Z</time>
      </trkpt>
      <trkpt lat="46.29426" lon="-0.52716">
        <ele>74</ele>
        <time>2011-12-20T15:24:57Z</time>
      </trkpt>
      <trkpt lat="46.29429" lon="-0.52716">
        <ele>72</ele>
        <time>2011-12-20T15:25:02Z</time>
      </trkpt>
      <trkpt lat="46.29433" lon="-0.52716">
        <ele>73</ele>
        <time>2011-12-20T15:25:07Z</time>
      </trkpt>
      <trkpt lat="46.2944" lon="-0.52717">
        <ele>73</ele>
        <time>2011-12-20T15:25:12Z</time>
      </trkpt>
      <trkpt lat="46.29446" lon="-0.52718">
        <ele>72</ele>
        <time>2011-12-20T15:25:17Z</time>
      </trkpt>
      <trkpt lat="46.29451" lon="-0.52719">
        <ele>72</ele>
        <time>2011-12-20T15:25:22Z</time>
      </trkpt>
      <trkpt lat="46.29457" lon="-0.52719">
        <ele>71</ele>
        <time>2011-12-20T15:25:27Z</time>
      </trkpt>
      <trkpt lat="46.29462" lon="-0.52721">
        <ele>71</ele>
        <time>2011-12-20T15:25:32Z</time>
      </trkpt>
      <trkpt lat="46.29468" lon="-0.52722">
        <ele>71</ele>
        <time>2011-12-20T15:25:37Z</time>
      </trkpt>
      <trkpt lat="46.29471" lon="-0.52722">
        <ele>71</ele>
        <time>2011-12-20T15:25:42Z</time>
      </trkpt>
      <trkpt lat="46.29477" lon="-0.52723">
        <ele>70</ele>
        <time>2011-12-20T15:25:47Z</time>
      </trkpt>
      <trkpt lat="46.29482" lon="-0.52722">
        <ele>71</ele>
        <time>2011-12-20T15:25:52Z</time>
      </trkpt>
      <trkpt lat="46.29488" lon="-0.52722">
        <ele>70</ele>
        <time>2011-12-20T15:25:57Z</time>
      </trkpt>
      <trkpt lat="46.29493" lon="-0.52723">
        <ele>70</ele>
        <time>2011-12-20T15:26:02Z</time>
      </trkpt>
      <trkpt lat="46.29495" lon="-0.52723">
        <ele>70</ele>
        <time>2011-12-20T15:26:07Z</time>
      </trkpt>
      <trkpt lat="46.29504" lon="-0.52725">
        <ele>70</ele>
        <time>2011-12-20T15:26:12Z</time>
      </trkpt>
      <trkpt lat="46.29511" lon="-0.52723">
        <ele>70</ele>
        <time>2011-12-20T15:26:17Z</time>
      </trkpt>
      <trkpt lat="46.29517" lon="-0.52723">
        <ele>70</ele>
        <time>2011-12-20T15:26:22Z</time>
      </trkpt>
      <trkpt lat="46.29521" lon="-0.52724">
        <ele>70</ele>
        <time>2011-12-20T15:26:27Z</time>
      </trkpt>
      <trkpt lat="46.29521" lon="-0.52726">
        <ele>70</ele>
        <time>2011-12-20T15:26:32Z</time>
      </trkpt>
      <trkpt lat="46.29526" lon="-0.52727">
        <ele>70</ele>
        <time>2011-12-20T15:26:37Z</time>
      </trkpt>
      <trkpt lat="46.29535" lon="-0.52728">
        <ele>73</ele>
        <time>2011-12-20T15:26:42Z</time>
      </trkpt>
      <trkpt lat="46.2954" lon="-0.52728">
        <ele>73</ele>
        <time>2011-12-20T15:26:47Z</time>
      </trkpt>
      <trkpt lat="46.29546" lon="-0.52728">
        <ele>73</ele>
        <time>2011-12-20T15:26:52Z</time>
      </trkpt>
      <trkpt lat="46.29551" lon="-0.52732">
        <ele>73</ele>
        <time>2011-12-20T15:26:57Z</time>
      </trkpt>
      <trkpt lat="46.29556" lon="-0.52734">
        <ele>73</ele>
        <time>2011-12-20T15:27:02Z</time>
      </trkpt>
      <trkpt lat="46.29561" lon="-0.52735">
        <ele>73</ele>
        <time>2011-12-20T15:27:07Z</time>
      </trkpt>
      <trkpt lat="46.29565" lon="-0.52737">
        <ele>73</ele>
        <time>2011-12-20T15:27:12Z</time>
      </trkpt>
      <trkpt lat="46.29573" lon="-0.52738">
        <ele>73</ele>
        <time>2011-12-20T15:27:17Z</time>
      </trkpt>
      <trkpt lat="46.29581" lon="-0.52737">
        <ele>73</ele>
        <time>2011-12-20T15:27:22Z</time>
      </trkpt>
      <trkpt lat="46.29585" lon="-0.52738">
        <ele>71</ele>
        <time>2011-12-20T15:27:27Z</time>
      </trkpt>
      <trkpt lat="46.2959" lon="-0.52739">
        <ele>72</ele>
        <time>2011-12-20T15:27:32Z</time>
      </trkpt>
      <trkpt lat="46.29593" lon="-0.52742">
        <ele>72</ele>
        <time>2011-12-20T15:27:37Z</time>
      </trkpt>
      <trkpt lat="46.29598" lon="-0.52745">
        <ele>73</ele>
        <time>2011-12-20T15:27:42Z</time>
      </trkpt>
      <trkpt lat="46.29601" lon="-0.52746">
        <ele>74</ele>
        <time>2011-12-20T15:27:47Z</time>
      </trkpt>
      <trkpt lat="46.29606" lon="-0.52748">
        <ele>72</ele>
        <time>2011-12-20T15:27:52Z</time>
      </trkpt>
      <trkpt lat="46.2961" lon="-0.52751">
        <ele>72</ele>
        <time>2011-12-20T15:27:57Z</time>
      </trkpt>
      <trkpt lat="46.29612" lon="-0.52751">
        <ele>72</ele>
        <time>2011-12-20T15:28:02Z</time>
      </trkpt>
      <trkpt lat="46.29616" lon="-0.52745">
        <ele>72</ele>
        <time>2011-12-20T15:28:07Z</time>
      </trkpt>
      <trkpt lat="46.29619" lon="-0.52739">
        <ele>73</ele>
        <time>2011-12-20T15:28:12Z</time>
      </trkpt>
      <trkpt lat="46.2962" lon="-0.52733">
        <ele>73</ele>
        <time>2011-12-20T15:28:17Z</time>
      </trkpt>
      <trkpt lat="46.2962" lon="-0.52722">
        <ele>71</ele>
        <time>2011-12-20T15:28:22Z</time>
      </trkpt>
      <trkpt lat="46.2962" lon="-0.52712">
        <ele>71</ele>
        <time>2011-12-20T15:28:27Z</time>
      </trkpt>
      <trkpt lat="46.2962" lon="-0.52704">
        <ele>69</ele>
        <time>2011-12-20T15:28:32Z</time>
      </trkpt>
      <trkpt lat="46.2962" lon="-0.52698">
        <ele>68</ele>
        <time>2011-12-20T15:28:37Z</time>
      </trkpt>
      <trkpt lat="46.2962" lon="-0.52689">
        <ele>69</ele>
        <time>2011-12-20T15:28:42Z</time>
      </trkpt>
      <trkpt lat="46.29622" lon="-0.52679">
        <ele>68</ele>
        <time>2011-12-20T15:28:47Z</time>
      </trkpt>
      <trkpt lat="46.29619" lon="-0.52679">
        <ele>69</ele>
        <time>2011-12-20T15:28:52Z</time>
      </trkpt>
      <trkpt lat="46.29618" lon="-0.52675">
        <ele>70</ele>
        <time>2011-12-20T15:28:57Z</time>
      </trkpt>
      <trkpt lat="46.29618" lon="-0.52664">
        <ele>70</ele>
        <time>2011-12-20T15:29:02Z</time>
      </trkpt>
      <trkpt lat="46.29618" lon="-0.52656">
        <ele>72</ele>
        <time>2011-12-20T15:29:07Z</time>
      </trkpt>
      <trkpt lat="46.29618" lon="-0.52646">
        <ele>71</ele>
        <time>2011-12-20T15:29:12Z</time>
      </trkpt>
      <trkpt lat="46.29618" lon="-0.52644">
        <ele>71</ele>
        <time>2011-12-20T15:29:17Z</time>
      </trkpt>
      <trkpt lat="46.2962" lon="-0.52629">
        <ele>71</ele>
        <time>2011-12-20T15:29:22Z</time>
      </trkpt>
      <trkpt lat="46.29623" lon="-0.52621">
        <ele>71</ele>
        <time>2011-12-20T15:29:27Z</time>
      </trkpt>
      <trkpt lat="46.29624" lon="-0.5261">
        <ele>71</ele>
        <time>2011-12-20T15:29:32Z</time>
      </trkpt>
      <trkpt lat="46.29624" lon="-0.52603">
        <ele>70</ele>
        <time>2011-12-20T15:29:37Z</time>
      </trkpt>
      <trkpt lat="46.29625" lon="-0.52598">
        <ele>67</ele>
        <time>2011-12-20T15:29:42Z</time>
      </trkpt>
      <trkpt lat="46.29626" lon="-0.52592">
        <ele>66</ele>
        <time>2011-12-20T15:29:47Z</time>
      </trkpt>
      <trkpt lat="46.29628" lon="-0.52586">
        <ele>67</ele>
        <time>2011-12-20T15:29:52Z</time>
      </trkpt>
      <trkpt lat="46.29631" lon="-0.52576">
        <ele>69</ele>
        <time>2011-12-20T15:29:57Z</time>
      </trkpt>
      <trkpt lat="46.29632" lon="-0.52571">
        <ele>68</ele>
        <time>2011-12-20T15:30:02Z</time>
      </trkpt>
      <trkpt lat="46.29634" lon="-0.52566">
        <ele>68</ele>
        <time>2011-12-20T15:30:07Z</time>
      </trkpt>
      <trkpt lat="46.29635" lon="-0.52559">
        <ele>67</ele>
        <time>2011-12-20T15:30:12Z</time>
      </trkpt>
      <trkpt lat="46.29639" lon="-0.5255">
        <ele>68</ele>
        <time>2011-12-20T15:30:17Z</time>
      </trkpt>
      <trkpt lat="46.29639" lon="-0.52543">
        <ele>68</ele>
        <time>2011-12-20T15:30:22Z</time>
      </trkpt>
      <trkpt lat="46.29641" lon="-0.52539">
        <ele>67</ele>
        <time>2011-12-20T15:30:27Z</time>
      </trkpt>
      <trkpt lat="46.29645" lon="-0.5253">
        <ele>66</ele>
        <time>2011-12-20T15:30:32Z</time>
      </trkpt>
      <trkpt lat="46.29648" lon="-0.52525">
        <ele>67</ele>
        <time>2011-12-20T15:30:37Z</time>
      </trkpt>
      <trkpt lat="46.2965" lon="-0.52518">
        <ele>67</ele>
        <time>2011-12-20T15:30:42Z</time>
      </trkpt>
      <trkpt lat="46.29655" lon="-0.52512">
        <ele>69</ele>
        <time>2011-12-20T15:30:47Z</time>
      </trkpt>
      <trkpt lat="46.29657" lon="-0.52506">
        <ele>70</ele>
        <time>2011-12-20T15:30:52Z</time>
      </trkpt>
      <trkpt lat="46.29661" lon="-0.52499">
        <ele>71</ele>
        <time>2011-12-20T15:30:57Z</time>
      </trkpt>
      <trkpt lat="46.29665" lon="-0.52494">
        <ele>70</ele>
        <time>2011-12-20T15:31:02Z</time>
      </trkpt>
      <trkpt lat="46.29669" lon="-0.5249">
        <ele>69</ele>
        <time>2011-12-20T15:31:07Z</time>
      </trkpt>
      <trkpt lat="46.29673" lon="-0.52487">
        <ele>66</ele>
        <time>2011-12-20T15:31:12Z</time>
      </trkpt>
      <trkpt lat="46.29678" lon="-0.52483">
        <ele>65</ele>
        <time>2011-12-20T15:31:17Z</time>
      </trkpt>
      <trkpt lat="46.29682" lon="-0.52477">
        <ele>64</ele>
        <time>2011-12-20T15:31:22Z</time>
      </trkpt>
      <trkpt lat="46.29686" lon="-0.52473">
        <ele>64</ele>
        <time>2011-12-20T15:31:27Z</time>
      </trkpt>
      <trkpt lat="46.2969" lon="-0.52468">
        <ele>65</ele>
        <time>2011-12-20T15:31:32Z</time>
      </trkpt>
      <trkpt lat="46.29694" lon="-0.52464">
        <ele>66</ele>
        <time>2011-12-20T15:31:37Z</time>
      </trkpt>
      <trkpt lat="46.29699" lon="-0.52459">
        <ele>67</ele>
        <time>2011-12-20T15:31:42Z</time>
      </trkpt>
      <trkpt lat="46.29704" lon="-0.52454">
        <ele>69</ele>
        <time>2011-12-20T15:31:47Z</time>
      </trkpt>
      <trkpt lat="46.29707" lon="-0.5245">
        <ele>71</ele>
        <time>2011-12-20T15:31:52Z</time>
      </trkpt>
      <trkpt lat="46.29709" lon="-0.52443">
        <ele>70</ele>
        <time>2011-12-20T15:31:57Z</time>
      </trkpt>
      <trkpt lat="46.29712" lon="-0.52438">
        <ele>69</ele>
        <time>2011-12-20T15:32:02Z</time>
      </trkpt>
      <trkpt lat="46.29718" lon="-0.52433">
        <ele>68</ele>
        <time>2011-12-20T15:32:07Z</time>
      </trkpt>
      <trkpt lat="46.29722" lon="-0.52426">
        <ele>66</ele>
        <time>2011-12-20T15:32:12Z</time>
      </trkpt>
      <trkpt lat="46.29725" lon="-0.52422">
        <ele>68</ele>
        <time>2011-12-20T15:32:17Z</time>
      </trkpt>
      <trkpt lat="46.2973" lon="-0.52416">
        <ele>68</ele>
        <time>2011-12-20T15:32:22Z</time>
      </trkpt>
      <trkpt lat="46.29733" lon="-0.5241">
        <ele>69</ele>
        <time>2011-12-20T15:32:27Z</time>
      </trkpt>
      <trkpt lat="46.29736" lon="-0.52404">
        <ele>68</ele>
        <time>2011-12-20T15:32:32Z</time>
      </trkpt>
      <trkpt lat="46.29738" lon="-0.524">
        <ele>67</ele>
        <time>2011-12-20T15:32:37Z</time>
      </trkpt>
      <trkpt lat="46.2974" lon="-0.52393">
        <ele>67</ele>
        <time>2011-12-20T15:32:42Z</time>
      </trkpt>
      <trkpt lat="46.29743" lon="-0.52388">
        <ele>66</ele>
        <time>2011-12-20T15:32:47Z</time>
      </trkpt>
      <trkpt lat="46.29745" lon="-0.52383">
        <ele>67</ele>
        <time>2011-12-20T15:32:52Z</time>
      </trkpt>
      <trkpt lat="46.29748" lon="-0.52375">
        <ele>67</ele>
        <time>2011-12-20T15:32:57Z</time>
      </trkpt>
      <trkpt lat="46.29747" lon="-0.52371">
        <ele>67</ele>
        <time>2011-12-20T15:33:02Z</time>
      </trkpt>
      <trkpt lat="46.29746" lon="-0.52361">
        <ele>67</ele>
        <time>2011-12-20T15:33:07Z</time>
      </trkpt>
      <trkpt lat="46.29746" lon="-0.52353">
        <ele>68</ele>
        <time>2011-12-20T15:33:12Z</time>
      </trkpt>
      <trkpt lat="46.29748" lon="-0.52345">
        <ele>68</ele>
        <time>2011-12-20T15:33:17Z</time>
      </trkpt>
      <trkpt lat="46.29748" lon="-0.52339">
        <ele>70</ele>
        <time>2011-12-20T15:33:22Z</time>
      </trkpt>
      <trkpt lat="46.29748" lon="-0.52332">
        <ele>70</ele>
        <time>2011-12-20T15:33:27Z</time>
      </trkpt>
      <trkpt lat="46.29748" lon="-0.52321">
        <ele>70</ele>
        <time>2011-12-20T15:33:32Z</time>
      </trkpt>
      <trkpt lat="46.29747" lon="-0.52313">
        <ele>71</ele>
        <time>2011-12-20T15:33:37Z</time>
      </trkpt>
      <trkpt lat="46.29746" lon="-0.52306">
        <ele>71</ele>
        <time>2011-12-20T15:33:42Z</time>
      </trkpt>
      <trkpt lat="46.29747" lon="-0.52298">
        <ele>70</ele>
        <time>2011-12-20T15:33:47Z</time>
      </trkpt>
      <trkpt lat="46.29748" lon="-0.52291">
        <ele>71</ele>
        <time>2011-12-20T15:33:52Z</time>
      </trkpt>
      <trkpt lat="46.29749" lon="-0.52286">
        <ele>71</ele>
        <time>2011-12-20T15:33:57Z</time>
      </trkpt>
      <trkpt lat="46.2975" lon="-0.52283">
        <ele>70</ele>
        <time>2011-12-20T15:34:02Z</time>
      </trkpt>
      <trkpt lat="46.2975" lon="-0.52272">
        <ele>69</ele>
        <time>2011-12-20T15:34:07Z</time>
      </trkpt>
      <trkpt lat="46.29752" lon="-0.52266">
        <ele>67</ele>
        <time>2011-12-20T15:34:12Z</time>
      </trkpt>
      <trkpt lat="46.29752" lon="-0.5226">
        <ele>66</ele>
        <time>2011-12-20T15:34:17Z</time>
      </trkpt>
      <trkpt lat="46.29755" lon="-0.52256">
        <ele>65</ele>
        <time>2011-12-20T15:34:22Z</time>
      </trkpt>
      <trkpt lat="46.29756" lon="-0.52249">
        <ele>66</ele>
        <time>2011-12-20T15:34:27Z</time>
      </trkpt>
      <trkpt lat="46.29758" lon="-0.52241">
        <ele>67</ele>
        <time>2011-12-20T15:34:32Z</time>
      </trkpt>
      <trkpt lat="46.2976" lon="-0.52233">
        <ele>68</ele>
        <time>2011-12-20T15:34:37Z</time>
      </trkpt>
      <trkpt lat="46.2976" lon="-0.52223">
        <ele>68</ele>
        <time>2011-12-20T15:34:42Z</time>
      </trkpt>
      <trkpt lat="46.29763" lon="-0.52217">
        <ele>67</ele>
        <time>2011-12-20T15:34:47Z</time>
      </trkpt>
      <trkpt lat="46.29763" lon="-0.52211">
        <ele>67</ele>
        <time>2011-12-20T15:34:52Z</time>
      </trkpt>
      <trkpt lat="46.29765" lon="-0.52203">
        <ele>68</ele>
        <time>2011-12-20T15:34:57Z</time>
      </trkpt>
      <trkpt lat="46.29767" lon="-0.52197">
        <ele>68</ele>
        <time>2011-12-20T15:35:02Z</time>
      </trkpt>
      <trkpt lat="46.29769" lon="-0.5219">
        <ele>68</ele>
        <time>2011-12-20T15:35:07Z</time>
      </trkpt>
      <trkpt lat="46.29773" lon="-0.52183">
        <ele>69</ele>
        <time>2011-12-20T15:35:12Z</time>
      </trkpt>
      <trkpt lat="46.29774" lon="-0.52176">
        <ele>69</ele>
        <time>2011-12-20T15:35:17Z</time>
      </trkpt>
      <trkpt lat="46.29775" lon="-0.5217">
        <ele>69</ele>
        <time>2011-12-20T15:35:22Z</time>
      </trkpt>
      <trkpt lat="46.29778" lon="-0.52162">
        <ele>69</ele>
        <time>2011-12-20T15:35:27Z</time>
      </trkpt>
      <trkpt lat="46.2978" lon="-0.52154">
        <ele>71</ele>
        <time>2011-12-20T15:35:32Z</time>
      </trkpt>
      <trkpt lat="46.29782" lon="-0.52146">
        <ele>70</ele>
        <time>2011-12-20T15:35:37Z</time>
      </trkpt>
      <trkpt lat="46.29784" lon="-0.5214">
        <ele>71</ele>
        <time>2011-12-20T15:35:42Z</time>
      </trkpt>
      <trkpt lat="46.29785" lon="-0.52134">
        <ele>69</ele>
        <time>2011-12-20T15:35:47Z</time>
      </trkpt>
      <trkpt lat="46.29788" lon="-0.52128">
        <ele>69</ele>
        <time>2011-12-20T15:35:52Z</time>
      </trkpt>
      <trkpt lat="46.2979" lon="-0.5212">
        <ele>68</ele>
        <time>2011-12-20T15:35:57Z</time>
      </trkpt>
      <trkpt lat="46.29793" lon="-0.52114">
        <ele>69</ele>
        <time>2011-12-20T15:36:02Z</time>
      </trkpt>
      <trkpt lat="46.29797" lon="-0.52106">
        <ele>69</ele>
        <time>2011-12-20T15:36:07Z</time>
      </trkpt>
      <trkpt lat="46.29799" lon="-0.52102">
        <ele>67</ele>
        <time>2011-12-20T15:36:12Z</time>
      </trkpt>
      <trkpt lat="46.29802" lon="-0.52099">
        <ele>68</ele>
        <time>2011-12-20T15:36:17Z</time>
      </trkpt>
      <trkpt lat="46.29806" lon="-0.52092">
        <ele>66</ele>
        <time>2011-12-20T15:36:22Z</time>
      </trkpt>
      <trkpt lat="46.29809" lon="-0.52086">
        <ele>67</ele>
        <time>2011-12-20T15:36:27Z</time>
      </trkpt>
      <trkpt lat="46.29812" lon="-0.52078">
        <ele>67</ele>
        <time>2011-12-20T15:36:32Z</time>
      </trkpt>
      <trkpt lat="46.29815" lon="-0.52073">
        <ele>68</ele>
        <time>2011-12-20T15:36:37Z</time>
      </trkpt>
      <trkpt lat="46.29818" lon="-0.52068">
        <ele>68</ele>
        <time>2011-12-20T15:36:42Z</time>
      </trkpt>
      <trkpt lat="46.29822" lon="-0.52063">
        <ele>67</ele>
        <time>2011-12-20T15:36:47Z</time>
      </trkpt>
      <trkpt lat="46.29826" lon="-0.52059">
        <ele>66</ele>
        <time>2011-12-20T15:36:52Z</time>
      </trkpt>
      <trkpt lat="46.2983" lon="-0.52054">
        <ele>66</ele>
        <time>2011-12-20T15:36:57Z</time>
      </trkpt>
      <trkpt lat="46.29832" lon="-0.52047">
        <ele>67</ele>
        <time>2011-12-20T15:37:02Z</time>
      </trkpt>
      <trkpt lat="46.29835" lon="-0.5204">
        <ele>67</ele>
        <time>2011-12-20T15:37:07Z</time>
      </trkpt>
      <trkpt lat="46.29837" lon="-0.52035">
        <ele>67</ele>
        <time>2011-12-20T15:37:12Z</time>
      </trkpt>
      <trkpt lat="46.2984" lon="-0.52031">
        <ele>67</ele>
        <time>2011-12-20T15:37:17Z</time>
      </trkpt>
      <trkpt lat="46.29844" lon="-0.52026">
        <ele>67</ele>
        <time>2011-12-20T15:37:22Z</time>
      </trkpt>
      <trkpt lat="46.29845" lon="-0.52023">
        <ele>69</ele>
        <time>2011-12-20T15:37:27Z</time>
      </trkpt>
      <trkpt lat="46.29848" lon="-0.52019">
        <ele>70</ele>
        <time>2011-12-20T15:37:32Z</time>
      </trkpt>
      <trkpt lat="46.29852" lon="-0.52012">
        <ele>69</ele>
        <time>2011-12-20T15:37:37Z</time>
      </trkpt>
      <trkpt lat="46.29854" lon="-0.52005">
        <ele>68</ele>
        <time>2011-12-20T15:37:42Z</time>
      </trkpt>
      <trkpt lat="46.29859" lon="-0.51999">
        <ele>68</ele>
        <time>2011-12-20T15:37:47Z</time>
      </trkpt>
      <trkpt lat="46.29858" lon="-0.51994">
        <ele>68</ele>
        <time>2011-12-20T15:37:52Z</time>
      </trkpt>
      <trkpt lat="46.29861" lon="-0.51987">
        <ele>68</ele>
        <time>2011-12-20T15:37:57Z</time>
      </trkpt>
      <trkpt lat="46.29862" lon="-0.5198">
        <ele>69</ele>
        <time>2011-12-20T15:38:02Z</time>
      </trkpt>
      <trkpt lat="46.29863" lon="-0.51973">
        <ele>69</ele>
        <time>2011-12-20T15:38:07Z</time>
      </trkpt>
      <trkpt lat="46.29866" lon="-0.51965">
        <ele>69</ele>
        <time>2011-12-20T15:38:12Z</time>
      </trkpt>
      <trkpt lat="46.29867" lon="-0.51959">
        <ele>69</ele>
        <time>2011-12-20T15:38:17Z</time>
      </trkpt>
      <trkpt lat="46.29868" lon="-0.5195">
        <ele>69</ele>
        <time>2011-12-20T15:38:22Z</time>
      </trkpt>
      <trkpt lat="46.29869" lon="-0.5194">
        <ele>69</ele>
        <time>2011-12-20T15:38:27Z</time>
      </trkpt>
      <trkpt lat="46.2987" lon="-0.51933">
        <ele>70</ele>
        <time>2011-12-20T15:38:32Z</time>
      </trkpt>
      <trkpt lat="46.2987" lon="-0.51928">
        <ele>70</ele>
        <time>2011-12-20T15:38:37Z</time>
      </trkpt>
      <trkpt lat="46.29874" lon="-0.51922">
        <ele>70</ele>
        <time>2011-12-20T15:38:42Z</time>
      </trkpt>
      <trkpt lat="46.29876" lon="-0.51917">
        <ele>69</ele>
        <time>2011-12-20T15:38:47Z</time>
      </trkpt>
      <trkpt lat="46.29878" lon="-0.5191">
        <ele>70</ele>
        <time>2011-12-20T15:38:52Z</time>
      </trkpt>
      <trkpt lat="46.29881" lon="-0.51904">
        <ele>69</ele>
        <time>2011-12-20T15:38:57Z</time>
      </trkpt>
      <trkpt lat="46.29882" lon="-0.519">
        <ele>66</ele>
        <time>2011-12-20T15:39:02Z</time>
      </trkpt>
      <trkpt lat="46.29885" lon="-0.51894">
        <ele>65</ele>
        <time>2011-12-20T15:39:07Z</time>
      </trkpt>
      <trkpt lat="46.29885" lon="-0.51887">
        <ele>65</ele>
        <time>2011-12-20T15:39:12Z</time>
      </trkpt>
      <trkpt lat="46.29886" lon="-0.51878">
        <ele>64</ele>
        <time>2011-12-20T15:39:17Z</time>
      </trkpt>
      <trkpt lat="46.29888" lon="-0.51866">
        <ele>67</ele>
        <time>2011-12-20T15:39:22Z</time>
      </trkpt>
      <trkpt lat="46.29891" lon="-0.51861">
        <ele>67</ele>
        <time>2011-12-20T15:39:27Z</time>
      </trkpt>
      <trkpt lat="46.29893" lon="-0.51854">
        <ele>67</ele>
        <time>2011-12-20T15:39:32Z</time>
      </trkpt>
      <trkpt lat="46.29892" lon="-0.51845">
        <ele>67</ele>
        <time>2011-12-20T15:39:37Z</time>
      </trkpt>
      <trkpt lat="46.29894" lon="-0.51839">
        <ele>67</ele>
        <time>2011-12-20T15:39:42Z</time>
      </trkpt>
      <trkpt lat="46.29895" lon="-0.51833">
        <ele>67</ele>
        <time>2011-12-20T15:39:47Z</time>
      </trkpt>
      <trkpt lat="46.29899" lon="-0.51825">
        <ele>67</ele>
        <time>2011-12-20T15:39:52Z</time>
      </trkpt>
      <trkpt lat="46.299" lon="-0.51817">
        <ele>67</ele>
        <time>2011-12-20T15:39:57Z</time>
      </trkpt>
      <trkpt lat="46.29902" lon="-0.51808">
        <ele>66</ele>
        <time>2011-12-20T15:40:02Z</time>
      </trkpt>
      <trkpt lat="46.29904" lon="-0.51803">
        <ele>67</ele>
        <time>2011-12-20T15:40:07Z</time>
      </trkpt>
      <trkpt lat="46.29904" lon="-0.51796">
        <ele>67</ele>
        <time>2011-12-20T15:40:12Z</time>
      </trkpt>
      <trkpt lat="46.29904" lon="-0.5179">
        <ele>67</ele>
        <time>2011-12-20T15:40:17Z</time>
      </trkpt>
      <trkpt lat="46.29905" lon="-0.51782">
        <ele>67</ele>
        <time>2011-12-20T15:40:22Z</time>
      </trkpt>
      <trkpt lat="46.29903" lon="-0.51774">
        <ele>67</ele>
        <time>2011-12-20T15:40:27Z</time>
      </trkpt>
      <trkpt lat="46.29904" lon="-0.51769">
        <ele>68</ele>
        <time>2011-12-20T15:40:32Z</time>
      </trkpt>
      <trkpt lat="46.29905" lon="-0.51763">
        <ele>68</ele>
        <time>2011-12-20T15:40:37Z</time>
      </trkpt>
      <trkpt lat="46.29906" lon="-0.51756">
        <ele>68</ele>
        <time>2011-12-20T15:40:42Z</time>
      </trkpt>
      <trkpt lat="46.29909" lon="-0.51751">
        <ele>67</ele>
        <time>2011-12-20T15:40:47Z</time>
      </trkpt>
      <trkpt lat="46.2991" lon="-0.51745">
        <ele>66</ele>
        <time>2011-12-20T15:40:52Z</time>
      </trkpt>
      <trkpt lat="46.29911" lon="-0.51736">
        <ele>66</ele>
        <time>2011-12-20T15:40:57Z</time>
      </trkpt>
      <trkpt lat="46.29913" lon="-0.51731">
        <ele>66</ele>
        <time>2011-12-20T15:41:02Z</time>
      </trkpt>
      <trkpt lat="46.29912" lon="-0.51724">
        <ele>65</ele>
        <time>2011-12-20T15:41:07Z</time>
      </trkpt>
      <trkpt lat="46.29912" lon="-0.51715">
        <ele>64</ele>
        <time>2011-12-20T15:41:12Z</time>
      </trkpt>
      <trkpt lat="46.29912" lon="-0.51708">
        <ele>64</ele>
        <time>2011-12-20T15:41:17Z</time>
      </trkpt>
      <trkpt lat="46.29913" lon="-0.51699">
        <ele>63</ele>
        <time>2011-12-20T15:41:22Z</time>
      </trkpt>
      <trkpt lat="46.29914" lon="-0.51688">
        <ele>65</ele>
        <time>2011-12-20T15:41:27Z</time>
      </trkpt>
      <trkpt lat="46.29914" lon="-0.5168">
        <ele>65</ele>
        <time>2011-12-20T15:41:32Z</time>
      </trkpt>
      <trkpt lat="46.29914" lon="-0.51672">
        <ele>65</ele>
        <time>2011-12-20T15:41:37Z</time>
      </trkpt>
      <trkpt lat="46.29916" lon="-0.51665">
        <ele>65</ele>
        <time>2011-12-20T15:41:42Z</time>
      </trkpt>
      <trkpt lat="46.29917" lon="-0.51657">
        <ele>66</ele>
        <time>2011-12-20T15:41:47Z</time>
      </trkpt>
      <trkpt lat="46.29917" lon="-0.51651">
        <ele>67</ele>
        <time>2011-12-20T15:41:52Z</time>
      </trkpt>
      <trkpt lat="46.29917" lon="-0.51643">
        <ele>68</ele>
        <time>2011-12-20T15:41:57Z</time>
      </trkpt>
      <trkpt lat="46.29917" lon="-0.51629">
        <ele>70</ele>
        <time>2011-12-20T15:42:02Z</time>
      </trkpt>
      <trkpt lat="46.29917" lon="-0.5162">
        <ele>69</ele>
        <time>2011-12-20T15:42:07Z</time>
      </trkpt>
      <trkpt lat="46.29919" lon="-0.51617">
        <ele>69</ele>
        <time>2011-12-20T15:42:12Z</time>
      </trkpt>
      <trkpt lat="46.29918" lon="-0.51613">
        <ele>70</ele>
        <time>2011-12-20T15:42:17Z</time>
      </trkpt>
      <trkpt lat="46.29918" lon="-0.51604">
        <ele>70</ele>
        <time>2011-12-20T15:42:22Z</time>
      </trkpt>
      <trkpt lat="46.29918" lon="-0.51605">
        <ele>70</ele>
        <time>2011-12-20T15:42:27Z</time>
      </trkpt>
      <trkpt lat="46.29918" lon="-0.5159">
        <ele>69</ele>
        <time>2011-12-20T15:42:32Z</time>
      </trkpt>
      <trkpt lat="46.29917" lon="-0.51577">
        <ele>70</ele>
        <time>2011-12-20T15:42:37Z</time>
      </trkpt>
      <trkpt lat="46.29918" lon="-0.51571">
        <ele>70</ele>
        <time>2011-12-20T15:42:42Z</time>
      </trkpt>
      <trkpt lat="46.29915" lon="-0.51567">
        <ele>71</ele>
        <time>2011-12-20T15:42:47Z</time>
      </trkpt>
      <trkpt lat="46.29913" lon="-0.51558">
        <ele>70</ele>
        <time>2011-12-20T15:42:52Z</time>
      </trkpt>
      <trkpt lat="46.29913" lon="-0.51553">
        <ele>66</ele>
        <time>2011-12-20T15:42:57Z</time>
      </trkpt>
      <trkpt lat="46.29912" lon="-0.51546">
        <ele>65</ele>
        <time>2011-12-20T15:43:02Z</time>
      </trkpt>
      <trkpt lat="46.2991" lon="-0.51535">
        <ele>66</ele>
        <time>2011-12-20T15:43:07Z</time>
      </trkpt>
      <trkpt lat="46.29909" lon="-0.51532">
        <ele>68</ele>
        <time>2011-12-20T15:43:12Z</time>
      </trkpt>
      <trkpt lat="46.29905" lon="-0.51523">
        <ele>71</ele>
        <time>2011-12-20T15:43:17Z</time>
      </trkpt>
      <trkpt lat="46.29903" lon="-0.51515">
        <ele>75</ele>
        <time>2011-12-20T15:43:22Z</time>
      </trkpt>
      <trkpt lat="46.299" lon="-0.51508">
        <ele>74</ele>
        <time>2011-12-20T15:43:27Z</time>
      </trkpt>
      <trkpt lat="46.29902" lon="-0.51503">
        <ele>73</ele>
        <time>2011-12-20T15:43:32Z</time>
      </trkpt>
      <trkpt lat="46.29902" lon="-0.51499">
        <ele>74</ele>
        <time>2011-12-20T15:43:37Z</time>
      </trkpt>
      <trkpt lat="46.299" lon="-0.51491">
        <ele>75</ele>
        <time>2011-12-20T15:43:42Z</time>
      </trkpt>
      <trkpt lat="46.299" lon="-0.51483">
        <ele>74</ele>
        <time>2011-12-20T15:43:47Z</time>
      </trkpt>
      <trkpt lat="46.299" lon="-0.51473">
        <ele>74</ele>
        <time>2011-12-20T15:43:52Z</time>
      </trkpt>
      <trkpt lat="46.299" lon="-0.51467">
        <ele>73</ele>
        <time>2011-12-20T15:43:57Z</time>
      </trkpt>
      <trkpt lat="46.299" lon="-0.51454">
        <ele>75</ele>
        <time>2011-12-20T15:44:02Z</time>
      </trkpt>
      <trkpt lat="46.299" lon="-0.51445">
        <ele>80</ele>
        <time>2011-12-20T15:44:07Z</time>
      </trkpt>
      <trkpt lat="46.29902" lon="-0.51437">
        <ele>79</ele>
        <time>2011-12-20T15:44:12Z</time>
      </trkpt>
      <trkpt lat="46.29902" lon="-0.51429">
        <ele>79</ele>
        <time>2011-12-20T15:44:17Z</time>
      </trkpt>
      <trkpt lat="46.29902" lon="-0.51426">
        <ele>80</ele>
        <time>2011-12-20T15:44:22Z</time>
      </trkpt>
      <trkpt lat="46.29904" lon="-0.51415">
        <ele>79</ele>
        <time>2011-12-20T15:44:27Z</time>
      </trkpt>
      <trkpt lat="46.29905" lon="-0.51408">
        <ele>75</ele>
        <time>2011-12-20T15:44:32Z</time>
      </trkpt>
      <trkpt lat="46.29906" lon="-0.514">
        <ele>72</ele>
        <time>2011-12-20T15:44:37Z</time>
      </trkpt>
      <trkpt lat="46.29906" lon="-0.51392">
        <ele>70</ele>
        <time>2011-12-20T15:44:42Z</time>
      </trkpt>
      <trkpt lat="46.29906" lon="-0.51384">
        <ele>69</ele>
        <time>2011-12-20T15:44:47Z</time>
      </trkpt>
      <trkpt lat="46.29906" lon="-0.51374">
        <ele>71</ele>
        <time>2011-12-20T15:44:52Z</time>
      </trkpt>
      <trkpt lat="46.29904" lon="-0.51363">
        <ele>72</ele>
        <time>2011-12-20T15:44:57Z</time>
      </trkpt>
      <trkpt lat="46.29904" lon="-0.51357">
        <ele>72</ele>
        <time>2011-12-20T15:45:02Z</time>
      </trkpt>
      <trkpt lat="46.29902" lon="-0.51352">
        <ele>71</ele>
        <time>2011-12-20T15:45:07Z</time>
      </trkpt>
      <trkpt lat="46.299" lon="-0.51345">
        <ele>70</ele>
        <time>2011-12-20T15:45:12Z</time>
      </trkpt>
      <trkpt lat="46.29898" lon="-0.51337">
        <ele>70</ele>
        <time>2011-12-20T15:45:17Z</time>
      </trkpt>
      <trkpt lat="46.29894" lon="-0.51329">
        <ele>72</ele>
        <time>2011-12-20T15:45:22Z</time>
      </trkpt>
      <trkpt lat="46.29891" lon="-0.51321">
        <ele>73</ele>
        <time>2011-12-20T15:45:27Z</time>
      </trkpt>
      <trkpt lat="46.29889" lon="-0.51313">
        <ele>75</ele>
        <time>2011-12-20T15:45:32Z</time>
      </trkpt>
      <trkpt lat="46.29885" lon="-0.51304">
        <ele>74</ele>
        <time>2011-12-20T15:45:37Z</time>
      </trkpt>
      <trkpt lat="46.29883" lon="-0.51299">
        <ele>75</ele>
        <time>2011-12-20T15:45:42Z</time>
      </trkpt>
      <trkpt lat="46.2988" lon="-0.51293">
        <ele>74</ele>
        <time>2011-12-20T15:45:47Z</time>
      </trkpt>
      <trkpt lat="46.29878" lon="-0.51287">
        <ele>75</ele>
        <time>2011-12-20T15:45:52Z</time>
      </trkpt>
      <trkpt lat="46.29876" lon="-0.51283">
        <ele>74</ele>
        <time>2011-12-20T15:45:57Z</time>
      </trkpt>
      <trkpt lat="46.29874" lon="-0.51276">
        <ele>72</ele>
        <time>2011-12-20T15:46:02Z</time>
      </trkpt>
      <trkpt lat="46.29871" lon="-0.51268">
        <ele>71</ele>
        <time>2011-12-20T15:46:07Z</time>
      </trkpt>
      <trkpt lat="46.29868" lon="-0.51263">
        <ele>72</ele>
        <time>2011-12-20T15:46:12Z</time>
      </trkpt>
      <trkpt lat="46.29866" lon="-0.51258">
        <ele>71</ele>
        <time>2011-12-20T15:46:17Z</time>
      </trkpt>
      <trkpt lat="46.29867" lon="-0.51247">
        <ele>72</ele>
        <time>2011-12-20T15:46:22Z</time>
      </trkpt>
      <trkpt lat="46.29872" lon="-0.51245">
        <ele>72</ele>
        <time>2011-12-20T15:46:27Z</time>
      </trkpt>
      <trkpt lat="46.29877" lon="-0.51244">
        <ele>72</ele>
        <time>2011-12-20T15:46:32Z</time>
      </trkpt>
      <trkpt lat="46.29881" lon="-0.51241">
        <ele>72</ele>
        <time>2011-12-20T15:46:37Z</time>
      </trkpt>
      <trkpt lat="46.29885" lon="-0.51239">
        <ele>72</ele>
        <time>2011-12-20T15:46:42Z</time>
      </trkpt>
      <trkpt lat="46.2989" lon="-0.51237">
        <ele>72</ele>
        <time>2011-12-20T15:46:47Z</time>
      </trkpt>
      <trkpt lat="46.29895" lon="-0.51234">
        <ele>70</ele>
        <time>2011-12-20T15:46:52Z</time>
      </trkpt>
      <trkpt lat="46.299" lon="-0.51231">
        <ele>71</ele>
        <time>2011-12-20T15:46:57Z</time>
      </trkpt>
      <trkpt lat="46.29904" lon="-0.51227">
        <ele>69</ele>
        <time>2011-12-20T15:47:02Z</time>
      </trkpt>
      <trkpt lat="46.29908" lon="-0.51223">
        <ele>71</ele>
        <time>2011-12-20T15:47:07Z</time>
      </trkpt>
      <trkpt lat="46.29912" lon="-0.51221">
        <ele>71</ele>
        <time>2011-12-20T15:47:12Z</time>
      </trkpt>
      <trkpt lat="46.29918" lon="-0.51216">
        <ele>74</ele>
        <time>2011-12-20T15:47:17Z</time>
      </trkpt>
      <trkpt lat="46.29922" lon="-0.5121">
        <ele>74</ele>
        <time>2011-12-20T15:47:22Z</time>
      </trkpt>
      <trkpt lat="46.29928" lon="-0.51211">
        <ele>65</ele>
        <time>2011-12-20T15:47:27Z</time>
      </trkpt>
      <trkpt lat="46.29932" lon="-0.51208">
        <ele>65</ele>
        <time>2011-12-20T15:47:32Z</time>
      </trkpt>
      <trkpt lat="46.29936" lon="-0.51201">
        <ele>65</ele>
        <time>2011-12-20T15:47:37Z</time>
      </trkpt>
      <trkpt lat="46.2994" lon="-0.51195">
        <ele>66</ele>
        <time>2011-12-20T15:47:42Z</time>
      </trkpt>
      <trkpt lat="46.29943" lon="-0.5119">
        <ele>69</ele>
        <time>2011-12-20T15:47:47Z</time>
      </trkpt>
      <trkpt lat="46.29949" lon="-0.51187">
        <ele>70</ele>
        <time>2011-12-20T15:47:52Z</time>
      </trkpt>
      <trkpt lat="46.29953" lon="-0.51184">
        <ele>70</ele>
        <time>2011-12-20T15:47:57Z</time>
      </trkpt>
      <trkpt lat="46.29957" lon="-0.51181">
        <ele>71</ele>
        <time>2011-12-20T15:48:02Z</time>
      </trkpt>
      <trkpt lat="46.29958" lon="-0.5118">
        <ele>71</ele>
        <time>2011-12-20T15:48:07Z</time>
      </trkpt>
      <trkpt lat="46.29961" lon="-0.51177">
        <ele>71</ele>
        <time>2011-12-20T15:48:12Z</time>
      </trkpt>
      <trkpt lat="46.29964" lon="-0.51172">
        <ele>70</ele>
        <time>2011-12-20T15:48:17Z</time>
      </trkpt>
      <trkpt lat="46.29969" lon="-0.51167">
        <ele>70</ele>
        <time>2011-12-20T15:48:22Z</time>
      </trkpt>
      <trkpt lat="46.29974" lon="-0.51165">
        <ele>71</ele>
        <time>2011-12-20T15:48:27Z</time>
      </trkpt>
      <trkpt lat="46.29978" lon="-0.51166">
        <ele>67</ele>
        <time>2011-12-20T15:48:32Z</time>
      </trkpt>
      <trkpt lat="46.29984" lon="-0.51157">
        <ele>68</ele>
        <time>2011-12-20T15:48:37Z</time>
      </trkpt>
      <trkpt lat="46.29988" lon="-0.51151">
        <ele>68</ele>
        <time>2011-12-20T15:48:42Z</time>
      </trkpt>
      <trkpt lat="46.29994" lon="-0.51149">
        <ele>68</ele>
        <time>2011-12-20T15:48:47Z</time>
      </trkpt>
      <trkpt lat="46.3" lon="-0.5115">
        <ele>68</ele>
        <time>2011-12-20T15:48:52Z</time>
      </trkpt>
      <trkpt lat="46.30006" lon="-0.51151">
        <ele>68</ele>
        <time>2011-12-20T15:48:57Z</time>
      </trkpt>
      <trkpt lat="46.30009" lon="-0.51155">
        <ele>68</ele>
        <time>2011-12-20T15:49:02Z</time>
      </trkpt>
      <trkpt lat="46.30013" lon="-0.5116">
        <ele>68</ele>
        <time>2011-12-20T15:49:07Z</time>
      </trkpt>
      <trkpt lat="46.30019" lon="-0.51165">
        <ele>69</ele>
        <time>2011-12-20T15:49:12Z</time>
      </trkpt>
      <trkpt lat="46.30027" lon="-0.51169">
        <ele>70</ele>
        <time>2011-12-20T15:49:17Z</time>
      </trkpt>
      <trkpt lat="46.30028" lon="-0.51172">
        <ele>71</ele>
        <time>2011-12-20T15:49:22Z</time>
      </trkpt>
      <trkpt lat="46.3003" lon="-0.51177">
        <ele>71</ele>
        <time>2011-12-20T15:49:27Z</time>
      </trkpt>
      <trkpt lat="46.30029" lon="-0.51181">
        <ele>71</ele>
        <time>2011-12-20T15:49:32Z</time>
      </trkpt>
      <trkpt lat="46.30029" lon="-0.51182">
        <ele>71</ele>
        <time>2011-12-20T15:49:37Z</time>
      </trkpt>
      <trkpt lat="46.30029" lon="-0.51182">
        <ele>71</ele>
        <time>2011-12-20T15:49:42Z</time>
      </trkpt>
      <trkpt lat="46.30029" lon="-0.51183">
        <ele>71</ele>
        <time>2011-12-20T15:49:52Z</time>
      </trkpt>
      <trkpt lat="46.30028" lon="-0.51184">
        <ele>71</ele>
        <time>2011-12-20T15:49:57Z</time>
      </trkpt>
      <trkpt lat="46.30029" lon="-0.51182">
        <ele>72</ele>
        <time>2011-12-20T15:50:02Z</time>
      </trkpt>
    </trkseg>
  </trk>
</gpx>